Darstellungsparameter: Aktuell verwendete Einstellungen:
Skalierung der Graphiken ... ?
xyx+y,   Skalierungsfaktor:      Skalierung: Modus: x, Faktor: 1
Darstellungszeitraum ... ?
Vom - - bis: - -   Zeitraum: 23.01.2010 - 22.01.2015
Min/Max/Avg-Anzeige ... ?
Zeige MMA aktuell
Zeige MMA Monat
Zeige MMA alles
Zeige --A aktuell
Zeige --A Monat
Zeige --A alles
Keine MMA-Anzeige
MMA:
Average (ber die Originaldaten)
MMA-Basis: 23.01.2010 - 22.01.2015
Quicknavigation für Darstellung... ?
Tage:      1T, 2T, 3T, 5T -1T -2T -3T -5T +1T +2T +3T +5T
Wochen: 1W, 2W, 3W -1W -2W -3W +1W +2W +3W
Monate: 1M, 3M, 6M -1M -3M -6M +1M +3M +6M
Jahre:    1J, 3J, 5J, 10J -1J -3J -5J -10J +1J +3J +5J +10J
Nutze für die Darstellung ... ?
Originaldaten oder ...
Mittelwerte Minima Maxima auf...
Stundenbasis Tagesbasis Wochenbasis
Monatsbasis Jahresbasis      Datenbasis: Mittelwerte auf Tagesbasis
Darstellen als:
Statistik (Auto) Statistik J:M      Darstellung:
Zur Graphik,    zurück zur Übersicht aller Sensoren.
 
Tabellarische Datenbersicht: ?
 
Sensor: Nr:Datum:Temp:Abs-Feuchte:Windchill:Wind:
Aussen-T/F 1 23-01-2010 00:00:00 -0.41333 C 3.36 g/m*3 -0.41 C 0 km/h
2 24-01-2010 00:00:00 0.27167 C 4.06 g/m*3 0.27 C 0 km/h
3 25-01-2010 00:00:00 0.01667 C 4.19 g/m*3 0.02 C 0 km/h
4 26-01-2010 00:00:00 -3.325 C 2.8 g/m*3 -3.33 C 0 km/h
5 27-01-2010 00:00:00 -5.54083 C 2.18 g/m*3 -5.54 C 0 km/h
6 28-01-2010 00:00:00 1.20667 C 4.04 g/m*3 1.21 C 0 km/h
7 29-01-2010 00:00:00 1.39083 C 4.5 g/m*3 1.39 C 0 km/h
8 30-01-2010 00:00:00 -1.54583 C 3.39 g/m*3 -1.55 C 0 km/h
9 31-01-2010 00:00:00 -1.62333 C 3.2 g/m*3 -1.62 C 0 km/h
10 01-02-2010 00:00:00 0.20167 C 3.69 g/m*3 0.2 C 0 km/h
11 02-02-2010 00:00:00 0.69916 C 4 g/m*3 0.7 C 0 km/h
12 03-02-2010 00:00:00 2.28899 C 5.05 g/m*3 2.29 C 0 km/h
13 04-02-2010 00:00:00 4.17018 C 5.55 g/m*3 4.17 C 0 km/h
14 05-02-2010 00:00:00 3.29649 C 4.9 g/m*3 3.3 C 0 km/h
15 06-02-2010 00:00:00 4.55172 C 5.47 g/m*3 4.55 C 0 km/h
16 07-02-2010 00:00:00 4.17018 C 5.02 g/m*3 4.17 C 0 km/h
17 08-02-2010 00:00:00 -0.75 C 2.85 g/m*3 -0.75 C 0 km/h
18 09-02-2010 00:00:00 -3.74483 C 2.17 g/m*3 -3.74 C 0 km/h
19 10-02-2010 00:00:00 -4.8 C 2.32 g/m*3 -4.8 C 0 km/h
20 11-02-2010 00:00:00 -3.79828 C 2.62 g/m*3 -3.8 C 0 km/h
21 12-02-2010 00:00:00 -2.14737 C 2.95 g/m*3 -2.15 C 0 km/h
22 13-02-2010 00:00:00 -2.57414 C 2.82 g/m*3 -2.57 C 0 km/h
23 14-02-2010 00:00:00 -2.13621 C 3.1 g/m*3 -2.14 C 0 km/h
24 15-02-2010 00:00:00 -1.12632 C 3.21 g/m*3 -1.13 C 0 km/h
25 16-02-2010 00:00:00 -1.16379 C 3.02 g/m*3 -1.16 C 0 km/h
Sensor: Nr:Datum:Temp:Abs-Feuchte:Windchill:Wind:
Aussen-T/F 26 17-02-2010 00:00:00 -1.61754 C 3.18 g/m*3 -1.62 C 0 km/h
27 18-02-2010 00:00:00 3.2569 C 4.56 g/m*3 3.26 C 0 km/h
28 19-02-2010 00:00:00 3.59375 C 4.12 g/m*3 3.59 C 0 km/h
29 20-02-2010 00:00:00 1.69333 C 3.53 g/m*3 1.69 C 0 km/h
30 21-02-2010 00:00:00 2.87833 C 4.25 g/m*3 2.88 C 0 km/h
31 22-02-2010 00:00:00 6.76417 C 5.24 g/m*3 6.76 C 0 km/h
32 23-02-2010 00:00:00 9.7875 C 7.07 g/m*3 9.79 C 0 km/h
33 24-02-2010 00:00:00 9.55 C 6.5 g/m*3 9.55 C 0 km/h
34 25-02-2010 00:00:00 9.58 C 5.92 g/m*3 9.58 C 0 km/h
35 26-02-2010 00:00:00 8.62667 C 5.33 g/m*3 8.63 C 0 km/h
36 27-02-2010 00:00:00 8.4025 C 4.07 g/m*3 8.4 C 0 km/h
37 28-02-2010 00:00:00 8.30667 C 5.5 g/m*3 8.31 C 0 km/h
38 01-03-2010 00:00:00 5.40917 C 3.85 g/m*3 5.41 C 0 km/h
39 02-03-2010 00:00:00 3.135 C 3.87 g/m*3 3.14 C 0 km/h
40 03-03-2010 00:00:00 2.9925 C 3.33 g/m*3 2.99 C 0 km/h
41 04-03-2010 00:00:00 2.47395 C 2.67 g/m*3 2.47 C 0 km/h
42 05-03-2010 00:00:00 0.77667 C 2.41 g/m*3 0.78 C 0 km/h
43 06-03-2010 00:00:00 -0.47083 C 3.38 g/m*3 -0.47 C 0 km/h
44 07-03-2010 00:00:00 -1.6825 C 2.27 g/m*3 -1.68 C 0 km/h
45 08-03-2010 00:00:00 -1.21083 C 1.92 g/m*3 -1.21 C 0 km/h
46 09-03-2010 00:00:00 -0.87167 C 1.76 g/m*3 -0.87 C 0 km/h
47 10-03-2010 00:00:00 1.41667 C 1.75 g/m*3 1.42 C 0 km/h
48 11-03-2010 00:00:00 0.40167 C 2.56 g/m*3 0.4 C 0 km/h
49 12-03-2010 00:00:00 1.61167 C 3.86 g/m*3 1.61 C 0 km/h
50 13-03-2010 00:00:00 4.36583 C 4.23 g/m*3 4.37 C 0 km/h
Sensor: Nr:Datum:Temp:Abs-Feuchte:Windchill:Wind:
Aussen-T/F 51 14-03-2010 00:00:00 5.79833 C 4.06 g/m*3 5.8 C 0 km/h
52 15-03-2010 00:00:00 6.445 C 5.04 g/m*3 6.45 C 0 km/h
53 16-03-2010 00:00:00 6.08067 C 5.63 g/m*3 6.08 C 0 km/h
54 17-03-2010 00:00:00 6.69417 C 4.48 g/m*3 6.69 C 0 km/h
55 18-03-2010 00:00:00 10.12333 C 4.54 g/m*3 10.12 C 0 km/h
56 19-03-2010 00:00:00 15.0225 C 4.66 g/m*3 15.02 C 0 km/h
57 20-03-2010 00:00:00 14.37667 C 8.46 g/m*3 14.38 C 0 km/h
58 21-03-2010 00:00:00 11.23667 C 8.65 g/m*3 11.24 C 0 km/h
59 22-03-2010 00:00:00 9.7575 C 7.03 g/m*3 9.76 C 0 km/h
60 23-03-2010 00:00:00 8.94 C 6.12 g/m*3 8.94 C 0 km/h
61 24-03-2010 00:00:00 11.9975 C 6.24 g/m*3 12 C 0 km/h
62 25-03-2010 00:00:00 14.27083 C 6.52 g/m*3 14.27 C 0 km/h
63 26-03-2010 00:00:00 10.0325 C 7.02 g/m*3 10.03 C 0 km/h
64 27-03-2010 00:00:00 9.34333 C 5.7 g/m*3 9.34 C 0 km/h
65 28-03-2010 00:00:00 9.93478 C 6.19 g/m*3 9.93 C 0 km/h
66 29-03-2010 00:00:00 11.88167 C 8.04 g/m*3 11.88 C 0 km/h
67 30-03-2010 00:00:00 12.70672 C 6.43 g/m*3 12.71 C 0 km/h
68 31-03-2010 00:00:00 8.18667 C 4.45 g/m*3 8.19 C 0 km/h
69 01-04-2010 00:00:00 5.84333 C 3.76 g/m*3 5.84 C 0 km/h
70 02-04-2010 00:00:00 6.48583 C 4.37 g/m*3 6.49 C 0 km/h
71 03-04-2010 00:00:00 9.73667 C 5.47 g/m*3 9.74 C 0 km/h
72 04-04-2010 00:00:00 8.98833 C 5.25 g/m*3 8.99 C 0 km/h
73 05-04-2010 00:00:00 9.15083 C 4.56 g/m*3 9.15 C 0 km/h
74 06-04-2010 00:00:00 10.38167 C 4.41 g/m*3 10.38 C 0 km/h
75 07-04-2010 00:00:00 13.61167 C 5.07 g/m*3 13.61 C 0 km/h
Sensor: Nr:Datum:Temp:Abs-Feuchte:Windchill:Wind:
Aussen-T/F 76 08-04-2010 00:00:00 12.375 C 6.96 g/m*3 12.38 C 0 km/h
77 09-04-2010 00:00:00 11.49917 C 5.91 g/m*3 11.5 C 0 km/h
78 10-04-2010 00:00:00 11.3575 C 4.66 g/m*3 11.36 C 0 km/h
79 11-04-2010 00:00:00 7.86667 C 4.35 g/m*3 7.87 C 0 km/h
80 12-04-2010 00:00:00 7.44958 C 5.35 g/m*3 7.45 C 0 km/h
81 13-04-2010 00:00:00 11.85583 C 6.16 g/m*3 11.86 C 0 km/h
82 14-04-2010 00:00:00 11.76417 C 4.66 g/m*3 11.76 C 0 km/h
83 15-04-2010 00:00:00 11.8575 C 5 g/m*3 11.86 C 0 km/h
84 16-04-2010 00:00:00 9.71583 C 4.32 g/m*3 9.72 C 0 km/h
85 17-04-2010 00:00:00 11.1225 C 4.54 g/m*3 11.12 C 0 km/h
86 18-04-2010 00:00:00 13.27917 C 4.52 g/m*3 13.28 C 0 km/h
87 19-04-2010 00:00:00 11.18333 C 5.12 g/m*3 11.18 C 0 km/h
88 20-04-2010 00:00:00 11.13833 C 5.11 g/m*3 11.14 C 0 km/h
89 21-04-2010 00:00:00 7.34417 C 3.84 g/m*3 7.34 C 0 km/h
90 22-04-2010 00:00:00 8.35333 C 3.82 g/m*3 8.35 C 0 km/h
91 23-04-2010 00:00:00 11.44917 C 4.09 g/m*3 11.45 C 0 km/h
92 24-04-2010 00:00:00 14.91167 C 4.56 g/m*3 14.91 C 0 km/h
93 25-04-2010 00:00:00 17.1075 C 5.25 g/m*3 17.11 C 0 km/h
94 26-04-2010 00:00:00 15.72269 C 7.07 g/m*3 15.72 C 0 km/h
95 27-04-2010 00:00:00 15.50417 C 6.31 g/m*3 15.5 C 0 km/h
96 28-04-2010 00:00:00 16.8925 C 6.33 g/m*3 16.89 C 0 km/h
97 29-04-2010 00:00:00 19.21417 C 6.68 g/m*3 19.21 C 0 km/h
98 30-04-2010 00:00:00 18.69583 C 7.11 g/m*3 18.7 C 0 km/h
99 01-05-2010 00:00:00 15.09917 C 6.78 g/m*3 15.1 C 0 km/h
100 02-05-2010 00:00:00 13.48583 C 7.64 g/m*3 13.49 C 0 km/h
Sensor: Nr:Datum:Temp:Abs-Feuchte:Windchill:Wind:
Aussen-T/F 101 03-05-2010 00:00:00 10.01667 C 6.94 g/m*3 10.02 C 0 km/h
102 04-05-2010 00:00:00 9.78833 C 5.53 g/m*3 9.79 C 0 km/h
103 05-05-2010 00:00:00 10.09083 C 3.78 g/m*3 10.09 C 0 km/h
104 06-05-2010 00:00:00 6.68167 C 6.78 g/m*3 6.68 C 0 km/h
105 07-05-2010 00:00:00 6.49417 C 6.66 g/m*3 6.49 C 0 km/h
106 08-05-2010 00:00:00 11.06218 C 6.38 g/m*3 11.06 C 0 km/h
107 09-05-2010 00:00:00 12.575 C 6.93 g/m*3 12.58 C 0 km/h
108 10-05-2010 00:00:00 11.99917 C 6.67 g/m*3 12 C 0 km/h
109 11-05-2010 00:00:00 11.53167 C 6.84 g/m*3 11.53 C 0 km/h
110 12-05-2010 00:00:00 8.62333 C 6.33 g/m*3 8.62 C 0 km/h
111 13-05-2010 00:00:00 8.07667 C 6.31 g/m*3 8.08 C 0 km/h
112 14-05-2010 00:00:00 8.97333 C 7.22 g/m*3 8.97 C 0 km/h
113 15-05-2010 00:00:00 10.6825 C 5.92 g/m*3 10.68 C 0 km/h
114 16-05-2010 00:00:00 13.32917 C 5.32 g/m*3 13.33 C 0 km/h
115 17-05-2010 00:00:00 10.56917 C 7.13 g/m*3 10.57 C 0 km/h
116 18-05-2010 00:00:00 11.44333 C 6.07 g/m*3 11.44 C 0 km/h
117 19-05-2010 00:00:00 10.30583 C 6.32 g/m*3 10.31 C 0 km/h
118 20-05-2010 00:00:00 12.64034 C 6.31 g/m*3 12.64 C 0 km/h
119 21-05-2010 00:00:00 16.54333 C 7.66 g/m*3 16.54 C 0 km/h
120 22-05-2010 00:00:00 18.32583 C 7.75 g/m*3 18.33 C 0 km/h
121 23-05-2010 00:00:00 20.32083 C 8.65 g/m*3 20.32 C 0 km/h
122 24-05-2010 00:00:00 21.23 C 8.94 g/m*3 21.23 C 0 km/h
123 25-05-2010 00:00:00 20.64583 C 7.99 g/m*3 20.65 C 0 km/h
124 26-05-2010 00:00:00 15.41917 C 9.07 g/m*3 15.42 C 0 km/h
125 27-05-2010 00:00:00 15.6175 C 8.18 g/m*3 15.62 C 0 km/h
Sensor: Nr:Datum:Temp:Abs-Feuchte:Windchill:Wind:
Aussen-T/F 126 28-05-2010 00:00:00 17.3075 C 7.94 g/m*3 17.31 C 0 km/h
127 29-05-2010 00:00:00 16.34 C 7.23 g/m*3 16.34 C 0 km/h
128 30-05-2010 00:00:00 14.5975 C 8.93 g/m*3 14.6 C 0 km/h
129 31-05-2010 00:00:00 11.56667 C 8.16 g/m*3 11.57 C 0 km/h
130 01-06-2010 00:00:00 16.01833 C 8.41 g/m*3 16.02 C 0 km/h
131 02-06-2010 00:00:00 17.66471 C 7.79 g/m*3 17.66 C 0 km/h
132 03-06-2010 00:00:00 20.49083 C 7.88 g/m*3 20.49 C 0 km/h
133 04-06-2010 00:00:00 21.43 C 7.91 g/m*3 21.43 C 0 km/h
134 05-06-2010 00:00:00 22.97667 C 8.82 g/m*3 22.98 C 0 km/h
135 06-06-2010 00:00:00 20.91333 C 11.1 g/m*3 20.91 C 0 km/h
136 07-06-2010 00:00:00 19.58833 C 9.05 g/m*3 19.59 C 0 km/h
137 08-06-2010 00:00:00 19.76833 C 9.52 g/m*3 19.77 C 0 km/h
138 09-06-2010 00:00:00 22.5625 C 11.34 g/m*3 22.56 C 0 km/h
139 10-06-2010 00:00:00 22.76417 C 13.55 g/m*3 22.76 C 0 km/h
140 11-06-2010 00:00:00 22.89167 C 11.59 g/m*3 22.89 C 0 km/h
141 12-06-2010 00:00:00 18.84917 C 10.25 g/m*3 18.85 C 0 km/h
142 13-06-2010 00:00:00 18.25083 C 7.8 g/m*3 18.25 C 0 km/h
143 14-06-2010 00:00:00 19.76667 C 7.8 g/m*3 19.77 C 0 km/h
144 15-06-2010 00:00:00 18.9 C 8.06 g/m*3 18.9 C 0 km/h
145 16-06-2010 00:00:00 18.82833 C 6.18 g/m*3 18.83 C 0 km/h
146 17-06-2010 00:00:00 15.08583 C 9.23 g/m*3 15.09 C 0 km/h
147 18-06-2010 00:00:00 15.2325 C 9.35 g/m*3 15.23 C 0 km/h
148 19-06-2010 00:00:00 14.2725 C 6.27 g/m*3 14.27 C 0 km/h
149 20-06-2010 00:00:00 13.20333 C 6.8 g/m*3 13.2 C 0 km/h
150 21-06-2010 00:00:00 14.11083 C 6.37 g/m*3 14.11 C 0 km/h
Sensor: Nr:Datum:Temp:Abs-Feuchte:Windchill:Wind:
Aussen-T/F 151 22-06-2010 00:00:00 17.38667 C 7.03 g/m*3 17.39 C 0 km/h
152 23-06-2010 00:00:00 19.75917 C 8.12 g/m*3 19.76 C 0 km/h
153 24-06-2010 00:00:00 22.54833 C 8.68 g/m*3 22.55 C 0 km/h
154 25-06-2010 00:00:00 23.37 C 8.65 g/m*3 23.37 C 0 km/h
155 26-06-2010 00:00:00 23.635 C 8.77 g/m*3 23.64 C 0 km/h
156 27-06-2010 00:00:00 24.49417 C 9.01 g/m*3 24.49 C 0 km/h
157 28-06-2010 00:00:00 25.25546 C 9.1 g/m*3 25.26 C 0 km/h
158 29-06-2010 00:00:00 24.86167 C 9.83 g/m*3 24.86 C 0 km/h
159 30-06-2010 00:00:00 24.6175 C 10.06 g/m*3 24.62 C 0 km/h
160 01-07-2010 00:00:00 25.8425 C 9.72 g/m*3 25.84 C 0 km/h
161 02-07-2010 00:00:00 26.96667 C 9.63 g/m*3 26.97 C 0 km/h
162 03-07-2010 00:00:00 26.33 C 11.31 g/m*3 26.33 C 0 km/h
163 04-07-2010 00:00:00 26.44833 C 12.05 g/m*3 26.45 C 0 km/h
164 05-07-2010 00:00:00 22.02083 C 9.04 g/m*3 22.02 C 0 km/h
165 06-07-2010 00:00:00 20.17833 C 8.34 g/m*3 20.18 C 0 km/h
166 07-07-2010 00:00:00 22.53417 C 8.16 g/m*3 22.53 C 0 km/h
167 08-07-2010 00:00:00 26.43417 C 8.69 g/m*3 26.43 C 0 km/h
168 09-07-2010 00:00:00 27.51333 C 9.42 g/m*3 27.51 C 0 km/h
169 10-07-2010 00:00:00 29.25667 C 10.76 g/m*3 29.26 C 0 km/h
170 11-07-2010 00:00:00 28.48319 C 12.85 g/m*3 28.48 C 0 km/h
171 12-07-2010 00:00:00 27.1175 C 11.1 g/m*3 27.12 C 0 km/h
172 13-07-2010 00:00:00 25.36083 C 10.39 g/m*3 25.36 C 0 km/h
173 14-07-2010 00:00:00 25.98917 C 11.73 g/m*3 25.99 C 0 km/h
174 15-07-2010 00:00:00 22.6525 C 8.81 g/m*3 22.65 C 0 km/h
175 16-07-2010 00:00:00 23.97667 C 8.47 g/m*3 23.98 C 0 km/h
Sensor: Nr:Datum:Temp:Abs-Feuchte:Windchill:Wind:
Aussen-T/F 176 17-07-2010 00:00:00 21.99167 C 10.18 g/m*3 21.99 C 0 km/h
177 18-07-2010 00:00:00 21.73833 C 7.35 g/m*3 21.74 C 0 km/h
178 19-07-2010 00:00:00 23.63167 C 8.01 g/m*3 23.63 C 0 km/h
179 20-07-2010 00:00:00 25.03833 C 8.46 g/m*3 25.04 C 0 km/h
180 21-07-2010 00:00:00 24.73833 C 9.31 g/m*3 24.74 C 0 km/h
181 22-07-2010 00:00:00 21.34917 C 11.61 g/m*3 21.35 C 0 km/h
182 23-07-2010 00:00:00 20.17059 C 11.52 g/m*3 20.17 C 0 km/h
183 24-07-2010 00:00:00 19.00667 C 9.15 g/m*3 19.01 C 0 km/h
184 25-07-2010 00:00:00 17.26833 C 7.8 g/m*3 17.27 C 0 km/h
185 26-07-2010 00:00:00 17.2925 C 11.46 g/m*3 17.29 C 0 km/h
186 27-07-2010 00:00:00 19.815 C 10.06 g/m*3 19.82 C 0 km/h
187 28-07-2010 00:00:00 20.5075 C 11.17 g/m*3 20.51 C 0 km/h
188 29-07-2010 00:00:00 16.32417 C 11.42 g/m*3 16.32 C 0 km/h
189 30-07-2010 00:00:00 19.665 C 9.34 g/m*3 19.67 C 0 km/h
190 31-07-2010 00:00:00 20.62417 C 9.08 g/m*3 20.62 C 0 km/h
191 01-08-2010 00:00:00 22.90833 C 11.98 g/m*3 22.91 C 0 km/h
192 02-08-2010 00:00:00 19.60917 C 11.25 g/m*3 19.61 C 0 km/h
193 03-08-2010 00:00:00 18.94167 C 10.12 g/m*3 18.94 C 0 km/h
194 04-08-2010 00:00:00 19.62269 C 9.16 g/m*3 19.62 C 0 km/h
195 05-08-2010 00:00:00 18.49417 C 10 g/m*3 18.49 C 0 km/h
196 06-08-2010 00:00:00 19.04667 C 8.08 g/m*3 19.05 C 0 km/h
197 07-08-2010 00:00:00 19.46583 C 7.91 g/m*3 19.47 C 0 km/h
198 08-08-2010 00:00:00 18.485 C 11.68 g/m*3 18.49 C 0 km/h
199 09-08-2010 00:00:00 19.515 C 10.42 g/m*3 19.52 C 0 km/h
200 10-08-2010 00:00:00 22.13583 C 9.74 g/m*3 22.14 C 0 km/h
Sensor: Nr:Datum:Temp:Abs-Feuchte:Windchill:Wind:
Aussen-T/F 201 11-08-2010 00:00:00 20.32833 C 12.64 g/m*3 20.33 C 0 km/h
202 12-08-2010 00:00:00 19.10917 C 11.28 g/m*3 19.11 C 0 km/h
203 13-08-2010 00:00:00 18.77833 C 9.07 g/m*3 18.78 C 0 km/h
204 14-08-2010 00:00:00 19.9675 C 9.59 g/m*3 19.97 C 0 km/h
205 15-08-2010 00:00:00 16.88667 C 11.8 g/m*3 16.89 C 0 km/h
206 16-08-2010 00:00:00 17.07479 C 11.15 g/m*3 17.07 C 0 km/h
207 17-08-2010 00:00:00 16.06667 C 10.71 g/m*3 16.07 C 0 km/h
208 18-08-2010 00:00:00 18.40917 C 9.91 g/m*3 18.41 C 0 km/h
209 19-08-2010 00:00:00 18.88917 C 8.2 g/m*3 18.89 C 0 km/h
210 20-08-2010 00:00:00 20.42605 C 9.9 g/m*3 20.43 C 0 km/h
211 21-08-2010 00:00:00 23.76417 C 11.32 g/m*3 23.76 C 0 km/h
212 22-08-2010 00:00:00 23.01667 C 12.14 g/m*3 23.02 C 0 km/h
213 23-08-2010 00:00:00 21.205 C 13.12 g/m*3 21.21 C 0 km/h
214 24-08-2010 00:00:00 19.27083 C 7.86 g/m*3 19.27 C 0 km/h
215 25-08-2010 00:00:00 17.61917 C 7.68 g/m*3 17.62 C 0 km/h
216 26-08-2010 00:00:00 20.68083 C 11.52 g/m*3 20.68 C 0 km/h
217 27-08-2010 00:00:00 18.37667 C 13.18 g/m*3 18.38 C 0 km/h
218 28-08-2010 00:00:00 14.0675 C 8.89 g/m*3 14.07 C 0 km/h
219 29-08-2010 00:00:00 13.03167 C 8.58 g/m*3 13.03 C 0 km/h
220 30-08-2010 00:00:00 12.5675 C 8.53 g/m*3 12.57 C 0 km/h
221 31-08-2010 00:00:00 15.42917 C 8.4 g/m*3 15.43 C 0 km/h
222 01-09-2010 00:00:00 14.82437 C 8.4 g/m*3 14.82 C 0 km/h
223 02-09-2010 00:00:00 14.95333 C 8.79 g/m*3 14.95 C 0 km/h
224 03-09-2010 00:00:00 15.91417 C 9.06 g/m*3 15.91 C 0 km/h
225 04-09-2010 00:00:00 16.71417 C 8.43 g/m*3 16.71 C 0 km/h
Sensor: Nr:Datum:Temp:Abs-Feuchte:Windchill:Wind:
Aussen-T/F 226 05-09-2010 00:00:00 15.205 C 7.52 g/m*3 15.21 C 0 km/h
227 06-09-2010 00:00:00 15.675 C 6.76 g/m*3 15.68 C 0 km/h
228 07-09-2010 00:00:00 13.36083 C 8.36 g/m*3 13.36 C 0 km/h
229 08-09-2010 00:00:00 15.545 C 10.94 g/m*3 15.55 C 0 km/h
230 09-09-2010 00:00:00 16.20583 C 9.61 g/m*3 16.21 C 0 km/h
231 10-09-2010 00:00:00 16.18 C 10.13 g/m*3 16.18 C 0 km/h
232 11-09-2010 00:00:00 18.13417 C 10.44 g/m*3 18.13 C 0 km/h
233 12-09-2010 00:00:00 16.21667 C 10.52 g/m*3 16.22 C 0 km/h
234 13-09-2010 00:00:00 15.67583 C 9.31 g/m*3 15.68 C 0 km/h
235 14-09-2010 00:00:00 16.63697 C 8.96 g/m*3 16.64 C 0 km/h
236 15-09-2010 00:00:00 16.3175 C 7.82 g/m*3 16.32 C 0 km/h
237 16-09-2010 00:00:00 14.07 C 8.33 g/m*3 14.07 C 0 km/h
238 17-09-2010 00:00:00 13.76667 C 7.53 g/m*3 13.77 C 0 km/h
239 18-09-2010 00:00:00 11.45083 C 6.84 g/m*3 11.45 C 0 km/h
240 19-09-2010 00:00:00 11.7425 C 6.69 g/m*3 11.74 C 0 km/h
241 20-09-2010 00:00:00 14.01 C 7.27 g/m*3 14.01 C 0 km/h
242 21-09-2010 00:00:00 14.27 C 8.52 g/m*3 14.27 C 0 km/h
243 22-09-2010 00:00:00 15.86667 C 9.22 g/m*3 15.87 C 0 km/h
244 23-09-2010 00:00:00 16.56167 C 9.98 g/m*3 16.56 C 0 km/h
245 24-09-2010 00:00:00 14.165 C 11.47 g/m*3 14.17 C 0 km/h
246 25-09-2010 00:00:00 12.41833 C 7.9 g/m*3 12.42 C 0 km/h
247 26-09-2010 00:00:00 11.2425 C 7.29 g/m*3 11.24 C 0 km/h
248 27-09-2010 00:00:00 9.86807 C 7.48 g/m*3 9.87 C 0 km/h
249 28-09-2010 00:00:00 10.93083 C 9.4 g/m*3 10.93 C 0 km/h
250 29-09-2010 00:00:00 13.39417 C 8.9 g/m*3 13.39 C 0 km/h
Sensor: Nr:Datum:Temp:Abs-Feuchte:Windchill:Wind:
Aussen-T/F 251 30-09-2010 00:00:00 11.89667 C 8.83 g/m*3 11.9 C 0 km/h
252 01-10-2010 00:00:00 12.33667 C 9.1 g/m*3 12.34 C 0 km/h
253 02-10-2010 00:00:00 13.4525 C 10.36 g/m*3 13.45 C 0 km/h
254 03-10-2010 00:00:00 17.83583 C 10.56 g/m*3 17.84 C 0 km/h
255 04-10-2010 00:00:00 16.905 C 9.67 g/m*3 16.91 C 0 km/h
256 05-10-2010 00:00:00 15.64833 C 10.9 g/m*3 15.65 C 0 km/h
257 06-10-2010 00:00:00 17.22333 C 9.99 g/m*3 17.22 C 0 km/h
258 07-10-2010 00:00:00 16.31167 C 10.3 g/m*3 16.31 C 0 km/h
259 08-10-2010 00:00:00 16.02917 C 9.37 g/m*3 16.03 C 0 km/h
260 09-10-2010 00:00:00 13.1475 C 8.13 g/m*3 13.15 C 0 km/h
261 10-10-2010 00:00:00 11.6125 C 6.4 g/m*3 11.61 C 0 km/h
262 11-10-2010 00:00:00 10.90084 C 5.45 g/m*3 10.9 C 0 km/h
263 12-10-2010 00:00:00 8.71917 C 5.9 g/m*3 8.72 C 0 km/h
264 13-10-2010 00:00:00 7.475 C 5.54 g/m*3 7.48 C 0 km/h
265 14-10-2010 00:00:00 7.55583 C 5.99 g/m*3 7.56 C 0 km/h
266 15-10-2010 00:00:00 10.475 C 7.36 g/m*3 10.48 C 0 km/h
267 16-10-2010 00:00:00 8.375 C 7.62 g/m*3 8.38 C 0 km/h
268 17-10-2010 00:00:00 7.22667 C 6.33 g/m*3 7.23 C 0 km/h
269 18-10-2010 00:00:00 6.71833 C 5.58 g/m*3 6.72 C 0 km/h
270 19-10-2010 00:00:00 7.28167 C 6.47 g/m*3 7.28 C 0 km/h
271 20-10-2010 00:00:00 6.14167 C 5.97 g/m*3 6.14 C 0 km/h
272 21-10-2010 00:00:00 5.27 C 4.63 g/m*3 5.27 C 0 km/h
273 22-10-2010 00:00:00 4.20167 C 4.11 g/m*3 4.2 C 0 km/h
274 23-10-2010 00:00:00 4.37899 C 4.82 g/m*3 4.38 C 0 km/h
275 24-10-2010 00:00:00 8.55667 C 5.66 g/m*3 8.56 C 0 km/h
Sensor: Nr:Datum:Temp:Abs-Feuchte:Windchill:Wind:
Aussen-T/F 276 25-10-2010 00:00:00 6.1525 C 5.22 g/m*3 6.15 C 0 km/h
277 26-10-2010 00:00:00 3.62417 C 5.12 g/m*3 3.62 C 0 km/h
278 27-10-2010 00:00:00 8.14917 C 4.91 g/m*3 8.15 C 0 km/h
279 28-10-2010 00:00:00 9.1725 C 5.55 g/m*3 9.17 C 0 km/h
280 29-10-2010 00:00:00 6.48333 C 6.48 g/m*3 6.48 C 0 km/h
281 02-11-2010 00:00:00 11.31548 C 6.81 g/m*3 11.32 C 0 km/h
282 03-11-2010 00:00:00 13.10333 C 7.84 g/m*3 13.1 C 0 km/h
283 04-11-2010 00:00:00 16.41167 C 8.7 g/m*3 16.41 C 0 km/h
284 05-11-2010 00:00:00 14.51917 C 7.32 g/m*3 14.52 C 0 km/h
285 06-11-2010 00:00:00 10.40917 C 7.73 g/m*3 10.41 C 0 km/h
286 07-11-2010 00:00:00 6.86917 C 7.11 g/m*3 6.87 C 0 km/h
287 08-11-2010 00:00:00 4.65583 C 5.68 g/m*3 4.66 C 0 km/h
288 09-11-2010 00:00:00 6.65667 C 6.48 g/m*3 6.66 C 0 km/h
289 10-11-2010 00:00:00 7.08319 C 6.48 g/m*3 7.08 C 0 km/h
290 11-11-2010 00:00:00 5.84167 C 5.32 g/m*3 5.84 C 0 km/h
291 12-11-2010 00:00:00 11.04083 C 6.73 g/m*3 11.04 C 0 km/h
292 13-11-2010 00:00:00 14.51917 C 8.83 g/m*3 14.52 C 0 km/h
293 14-11-2010 00:00:00 14.60833 C 7.79 g/m*3 14.61 C 0 km/h
294 15-11-2010 00:00:00 9.47833 C 6.15 g/m*3 9.48 C 0 km/h
295 16-11-2010 00:00:00 6.0125 C 5.77 g/m*3 6.01 C 0 km/h
296 17-11-2010 00:00:00 5.3125 C 5.17 g/m*3 5.31 C 0 km/h
297 18-11-2010 00:00:00 5.61917 C 5.95 g/m*3 5.62 C 0 km/h
298 19-11-2010 00:00:00 6.4275 C 6.1 g/m*3 6.43 C 0 km/h
299 20-11-2010 00:00:00 4.8325 C 5.94 g/m*3 4.83 C 0 km/h
300 21-11-2010 00:00:00 4.48333 C 4.84 g/m*3 4.48 C 0 km/h
Sensor: Nr:Datum:Temp:Abs-Feuchte:Windchill:Wind:
Aussen-T/F 301 22-11-2010 00:00:00 4.47417 C 4.96 g/m*3 4.47 C 0 km/h
302 23-11-2010 00:00:00 4.54118 C 4.59 g/m*3 4.54 C 0 km/h
303 24-11-2010 00:00:00 3.415 C 4.9 g/m*3 3.42 C 0 km/h
304 25-11-2010 00:00:00 1.74083 C 4.39 g/m*3 1.74 C 0 km/h
305 26-11-2010 00:00:00 -0.29083 C 4.18 g/m*3 -0.29 C 0 km/h
306 27-11-2010 00:00:00 -1.99167 C 3.56 g/m*3 -1.99 C 0 km/h
307 28-11-2010 00:00:00 -1.325 C 3.55 g/m*3 -1.33 C 0 km/h
308 29-11-2010 00:00:00 -1.55833 C 3.51 g/m*3 -1.56 C 0 km/h
309 30-11-2010 00:00:00 -1.9425 C 3.4 g/m*3 -1.94 C 0 km/h
310 01-12-2010 00:00:00 -5.7325 C 1.99 g/m*3 -5.73 C 0 km/h
311 02-12-2010 00:00:00 -7.03167 C 2.03 g/m*3 -7.03 C 0 km/h
312 03-12-2010 00:00:00 -7.38583 C 2.19 g/m*3 -7.39 C 0 km/h
313 04-12-2010 00:00:00 -3.48167 C 2.61 g/m*3 -3.48 C 0 km/h
314 05-12-2010 00:00:00 0.91667 C 3.38 g/m*3 0.92 C 0 km/h
315 06-12-2010 00:00:00 0.24538 C 4.01 g/m*3 0.25 C 0 km/h
316 07-12-2010 00:00:00 -0.20833 C 3.88 g/m*3 -0.21 C 0 km/h
317 08-12-2010 00:00:00 -0.25917 C 4.32 g/m*3 -0.26 C 0 km/h
318 09-12-2010 00:00:00 0.61333 C 3.92 g/m*3 0.61 C 0 km/h
319 10-12-2010 00:00:00 1.73333 C 4.69 g/m*3 1.73 C 0 km/h
320 11-12-2010 00:00:00 4.07583 C 5.18 g/m*3 4.08 C 0 km/h
321 12-12-2010 00:00:00 3.085 C 4.57 g/m*3 3.09 C 0 km/h
322 13-12-2010 00:00:00 -4.44833 C 2.51 g/m*3 -4.45 C 0 km/h
323 14-12-2010 00:00:00 -3.65833 C 2.82 g/m*3 -3.66 C 0 km/h
324 15-12-2010 00:00:00 -3.1275 C 2.86 g/m*3 -3.13 C 0 km/h
325 16-12-2010 00:00:00 -3.4675 C 2.96 g/m*3 -3.47 C 0 km/h
Sensor: Nr:Datum:Temp:Abs-Feuchte:Windchill:Wind:
Aussen-T/F 326 17-12-2010 00:00:00 -2.77417 C 2.92 g/m*3 -2.77 C 0 km/h
327 18-12-2010 00:00:00 -4.65833 C 2.74 g/m*3 -4.66 C 0 km/h
328 19-12-2010 00:00:00 -0.7125 C 3.86 g/m*3 -0.71 C 0 km/h
329 20-12-2010 00:00:00 -1.53667 C 3.48 g/m*3 -1.54 C 0 km/h
330 21-12-2010 00:00:00 -0.65546 C 4 g/m*3 -0.66 C 0 km/h
331 22-12-2010 00:00:00 0.9225 C 4.66 g/m*3 0.92 C 0 km/h
332 23-12-2010 00:00:00 -0.36833 C 4.23 g/m*3 -0.37 C 0 km/h
333 24-12-2010 00:00:00 -1.77438 C 3.53 g/m*3 -1.77 C 0 km/h
334 25-12-2010 00:00:00 -5.4775 C 2.37 g/m*3 -5.48 C 0 km/h
335 26-12-2010 00:00:00 -4.87833 C 2.59 g/m*3 -4.88 C 0 km/h
336 27-12-2010 00:00:00 -2.21833 C 3.28 g/m*3 -2.22 C 0 km/h
337 28-12-2010 00:00:00 -2.07899 C 3.35 g/m*3 -2.08 C 0 km/h
338 29-12-2010 00:00:00 -0.255 C 3.76 g/m*3 -0.26 C 0 km/h
339 30-12-2010 00:00:00 -0.55333 C 3.62 g/m*3 -0.55 C 0 km/h
340 31-12-2010 00:00:00 -1.09187 C 3.57 g/m*3 -1.09 C 0 km/h
341 01-01-2011 00:00:00 1.07311 C 4.52 g/m*3 1.07 C 0 km/h
342 02-01-2011 00:00:00 0.8025 C 4.39 g/m*3 0.8 C 0 km/h
343 03-01-2011 00:00:00 -0.9125 C 3.88 g/m*3 -0.91 C 0 km/h
344 04-01-2011 00:00:00 -2.36667 C 3.35 g/m*3 -2.37 C 0 km/h
345 05-01-2011 00:00:00 -3.83583 C 2.66 g/m*3 -3.84 C 0 km/h
346 06-01-2011 00:00:00 3.72667 C 5.49 g/m*3 3.73 C 0 km/h
347 07-01-2011 00:00:00 6.91833 C 6.93 g/m*3 6.92 C 0 km/h
348 08-01-2011 00:00:00 10.5675 C 7.09 g/m*3 10.57 C 0 km/h
349 09-01-2011 00:00:00 5.08655 C 5.84 g/m*3 5.09 C 0 km/h
350 10-01-2011 00:00:00 0.7175 C 4.39 g/m*3 0.72 C 0 km/h
Sensor: Nr:Datum:Temp:Abs-Feuchte:Windchill:Wind:
Aussen-T/F 351 11-01-2011 00:00:00 3.43667 C 4.81 g/m*3 3.44 C 0 km/h
352 12-01-2011 00:00:00 5.44 C 5.5 g/m*3 5.44 C 0 km/h
353 13-01-2011 00:00:00 11.80333 C 8.2 g/m*3 11.8 C 0 km/h
354 14-01-2011 00:00:00 11.77417 C 6.94 g/m*3 11.77 C 0 km/h
355 15-01-2011 00:00:00 8.68167 C 5.98 g/m*3 8.68 C 0 km/h
356 16-01-2011 00:00:00 6.84167 C 5.88 g/m*3 6.84 C 0 km/h
357 17-01-2011 00:00:00 3.62917 C 5.41 g/m*3 3.63 C 0 km/h
358 18-01-2011 00:00:00 7.28833 C 6.01 g/m*3 7.29 C 0 km/h
359 19-01-2011 00:00:00 3.30833 C 4.71 g/m*3 3.31 C 0 km/h
360 20-01-2011 00:00:00 1.7 C 4.36 g/m*3 1.7 C 0 km/h
361 21-01-2011 00:00:00 -0.0675 C 3.06 g/m*3 -0.07 C 0 km/h
362 22-01-2011 00:00:00 0.39664 C 3.9 g/m*3 0.4 C 0 km/h
363 23-01-2011 00:00:00 1.50167 C 4.65 g/m*3 1.5 C 0 km/h
364 24-01-2011 00:00:00 3.10167 C 5.07 g/m*3 3.1 C 0 km/h
365 25-01-2011 00:00:00 2.49833 C 4.56 g/m*3 2.5 C 0 km/h
366 26-01-2011 00:00:00 0.84083 C 4.26 g/m*3 0.84 C 0 km/h
367 27-01-2011 00:00:00 -0.28583 C 3.4 g/m*3 -0.29 C 0 km/h
368 28-01-2011 00:00:00 -1.27083 C 2.87 g/m*3 -1.27 C 0 km/h
369 29-01-2011 00:00:00 -4.9 C 2.7 g/m*3 -4.9 C 0 km/h
370 30-01-2011 00:00:00 -6.20917 C 2.48 g/m*3 -6.21 C 0 km/h
371 31-01-2011 00:00:00 -5.73833 C 2.59 g/m*3 -5.74 C 0 km/h
372 01-02-2011 00:00:00 -4.03917 C 2.66 g/m*3 -4.04 C 0 km/h
373 02-02-2011 00:00:00 -0.865 C 3.47 g/m*3 -0.87 C 0 km/h
374 03-02-2011 00:00:00 1.94454 C 4.48 g/m*3 1.94 C 0 km/h
375 04-02-2011 00:00:00 6.18583 C 5.15 g/m*3 6.19 C 0 km/h
Sensor: Nr:Datum:Temp:Abs-Feuchte:Windchill:Wind:
Aussen-T/F 376 05-02-2011 00:00:00 9.25833 C 5.56 g/m*3 9.26 C 0 km/h
377 06-02-2011 00:00:00 8.62 C 5.16 g/m*3 8.62 C 0 km/h
378 07-02-2011 00:00:00 6.48083 C 4.13 g/m*3 6.48 C 0 km/h
379 08-02-2011 00:00:00 5.48833 C 4.56 g/m*3 5.49 C 0 km/h
380 09-02-2011 00:00:00 -0.23333 C 3.95 g/m*3 -0.23 C 0 km/h
381 10-02-2011 00:00:00 3.9425 C 4.99 g/m*3 3.94 C 0 km/h
382 11-02-2011 00:00:00 10.23917 C 7.08 g/m*3 10.24 C 0 km/h
383 12-02-2011 00:00:00 6.88 C 6.26 g/m*3 6.88 C 0 km/h
384 13-02-2011 00:00:00 5.13417 C 5.66 g/m*3 5.13 C 0 km/h
385 14-02-2011 00:00:00 5.215 C 5.63 g/m*3 5.22 C 0 km/h
386 15-02-2011 00:00:00 5.14958 C 5.71 g/m*3 5.15 C 0 km/h
387 16-02-2011 00:00:00 4.90417 C 5.38 g/m*3 4.9 C 0 km/h
388 17-02-2011 00:00:00 1.96333 C 4.29 g/m*3 1.96 C 0 km/h
389 18-02-2011 00:00:00 2.23667 C 4.1 g/m*3 2.24 C 0 km/h
390 19-02-2011 00:00:00 2.82833 C 4.31 g/m*3 2.83 C 0 km/h
391 20-02-2011 00:00:00 0.7 C 3.16 g/m*3 0.7 C 0 km/h
392 21-02-2011 00:00:00 -1.8125 C 2.2 g/m*3 -1.81 C 0 km/h
393 22-02-2011 00:00:00 -3.39167 C 1.99 g/m*3 -3.39 C 0 km/h
394 23-02-2011 00:00:00 -2.66583 C 2.02 g/m*3 -2.67 C 0 km/h
395 24-02-2011 00:00:00 0.91083 C 3.9 g/m*3 0.91 C 0 km/h
396 25-02-2011 00:00:00 3.445 C 5.16 g/m*3 3.45 C 0 km/h
397 26-02-2011 00:00:00 5.07167 C 5.18 g/m*3 5.07 C 0 km/h
398 27-02-2011 00:00:00 5.47731 C 5.17 g/m*3 5.48 C 0 km/h
399 28-02-2011 00:00:00 4.52333 C 4.47 g/m*3 4.52 C 0 km/h
400 01-03-2011 00:00:00 4.31167 C 4.54 g/m*3 4.31 C 0 km/h
Sensor: Nr:Datum:Temp:Abs-Feuchte:Windchill:Wind:
Aussen-T/F 401 02-03-2011 00:00:00 3.41 C 3.07 g/m*3 3.41 C 0 km/h
402 03-03-2011 00:00:00 1.585 C 2.66 g/m*3 1.59 C 0 km/h
403 04-03-2011 00:00:00 2.1825 C 3.4 g/m*3 2.18 C 0 km/h
404 05-03-2011 00:00:00 0.19833 C 3.69 g/m*3 0.2 C 0 km/h
405 06-03-2011 00:00:00 1.7325 C 3.29 g/m*3 1.73 C 0 km/h
406 07-03-2011 00:00:00 1.05667 C 2.45 g/m*3 1.06 C 0 km/h
407 08-03-2011 00:00:00 1.92583 C 2.89 g/m*3 1.93 C 0 km/h
408 09-03-2011 00:00:00 6.48333 C 4.63 g/m*3 6.48 C 0 km/h
409 10-03-2011 00:00:00 7.3 C 4.55 g/m*3 7.3 C 0 km/h
410 11-03-2011 00:00:00 8.78571 C 4.65 g/m*3 8.79 C 0 km/h
411 12-03-2011 00:00:00 7.3525 C 4.83 g/m*3 7.35 C 0 km/h
412 13-03-2011 00:00:00 11.07917 C 6.51 g/m*3 11.08 C 0 km/h
413 14-03-2011 00:00:00 10.09917 C 7.33 g/m*3 10.1 C 0 km/h
414 15-03-2011 00:00:00 10.73917 C 6.79 g/m*3 10.74 C 0 km/h
415 16-03-2011 00:00:00 8.73583 C 5.74 g/m*3 8.74 C 0 km/h
416 17-03-2011 00:00:00 6.295 C 5.87 g/m*3 6.3 C 0 km/h
417 18-03-2011 00:00:00 6.41833 C 5.24 g/m*3 6.42 C 0 km/h
418 19-03-2011 00:00:00 6.63 C 4.93 g/m*3 6.63 C 0 km/h
419 20-03-2011 00:00:00 3.39167 C 3.78 g/m*3 3.39 C 0 km/h
420 21-03-2011 00:00:00 4.66333 C 3.99 g/m*3 4.66 C 0 km/h
421 22-03-2011 00:00:00 6.83333 C 4.54 g/m*3 6.83 C 0 km/h
422 23-03-2011 00:00:00 8.59333 C 5.59 g/m*3 8.59 C 0 km/h
423 24-03-2011 00:00:00 9.14417 C 5.42 g/m*3 9.14 C 0 km/h
424 25-03-2011 00:00:00 9.65798 C 5.14 g/m*3 9.66 C 0 km/h
425 26-03-2011 00:00:00 8.11917 C 4.97 g/m*3 8.12 C 0 km/h
Sensor: Nr:Datum:Temp:Abs-Feuchte:Windchill:Wind:
Aussen-T/F 426 27-03-2011 00:00:00 9.62174 C 4.9 g/m*3 9.62 C 0 km/h
427 28-03-2011 00:00:00 7.7225 C 4.66 g/m*3 7.72 C 0 km/h
428 29-03-2011 00:00:00 7.42083 C 4.65 g/m*3 7.42 C 0 km/h
429 30-03-2011 00:00:00 8.36333 C 5.61 g/m*3 8.36 C 0 km/h
430 31-03-2011 00:00:00 12.03833 C 7.81 g/m*3 12.04 C 0 km/h
431 01-04-2011 00:00:00 13.985 C 8.25 g/m*3 13.99 C 0 km/h
432 02-04-2011 00:00:00 14.21833 C 8.12 g/m*3 14.22 C 0 km/h
433 03-04-2011 00:00:00 11.81167 C 8.04 g/m*3 11.81 C 0 km/h
434 04-04-2011 00:00:00 10.68333 C 6.57 g/m*3 10.68 C 0 km/h
435 05-04-2011 00:00:00 9.30833 C 6.12 g/m*3 9.31 C 0 km/h
436 06-04-2011 00:00:00 15.69167 C 8.48 g/m*3 15.69 C 0 km/h
437 07-04-2011 00:00:00 16.35294 C 8.33 g/m*3 16.35 C 0 km/h
438 08-04-2011 00:00:00 13.4925 C 6.55 g/m*3 13.49 C 0 km/h
439 09-04-2011 00:00:00 12.96917 C 5.63 g/m*3 12.97 C 0 km/h
440 10-04-2011 00:00:00 12.2825 C 6.01 g/m*3 12.28 C 0 km/h
441 11-04-2011 00:00:00 14.76333 C 6.76 g/m*3 14.76 C 0 km/h
442 12-04-2011 00:00:00 10.27917 C 5.45 g/m*3 10.28 C 0 km/h
443 13-04-2011 00:00:00 7.60083 C 4.45 g/m*3 7.6 C 0 km/h
444 14-04-2011 00:00:00 8.3025 C 4.49 g/m*3 8.3 C 0 km/h
445 15-04-2011 00:00:00 7.43583 C 4.66 g/m*3 7.44 C 0 km/h
446 16-04-2011 00:00:00 8.14667 C 4.58 g/m*3 8.15 C 0 km/h
447 17-04-2011 00:00:00 11.61917 C 4.82 g/m*3 11.62 C 0 km/h
448 18-04-2011 00:00:00 10.9521 C 5.51 g/m*3 10.95 C 0 km/h
449 19-04-2011 00:00:00 12.87583 C 6.2 g/m*3 12.88 C 0 km/h
450 20-04-2011 00:00:00 13.54917 C 6.5 g/m*3 13.55 C 0 km/h
Sensor: Nr:Datum:Temp:Abs-Feuchte:Windchill:Wind:
Aussen-T/F 451 21-04-2011 00:00:00 14.49333 C 6.84 g/m*3 14.49 C 0 km/h
452 22-04-2011 00:00:00 16.35083 C 7.67 g/m*3 16.35 C 0 km/h
453 23-04-2011 00:00:00 18.26083 C 9.25 g/m*3 18.26 C 0 km/h
454 24-04-2011 00:00:00 16.74333 C 7.71 g/m*3 16.74 C 0 km/h
455 25-04-2011 00:00:00 15.975 C 6.16 g/m*3 15.98 C 0 km/h
456 26-04-2011 00:00:00 12.8275 C 6.81 g/m*3 12.83 C 0 km/h
457 27-04-2011 00:00:00 11.27167 C 7.84 g/m*3 11.27 C 0 km/h
458 28-04-2011 00:00:00 13.99 C 8.66 g/m*3 13.99 C 0 km/h
459 29-04-2011 00:00:00 15.08333 C 8.49 g/m*3 15.08 C 0 km/h
460 30-04-2011 00:00:00 15.42 C 7.44 g/m*3 15.42 C 0 km/h
461 01-05-2011 00:00:00 15.09328 C 4.89 g/m*3 15.09 C 0 km/h
462 02-05-2011 00:00:00 11.83333 C 4.67 g/m*3 11.83 C 0 km/h
463 03-05-2011 00:00:00 10.93167 C 4.17 g/m*3 10.93 C 0 km/h
464 04-05-2011 00:00:00 8.28 C 4.54 g/m*3 8.28 C 0 km/h
465 05-05-2011 00:00:00 10.32333 C 5.35 g/m*3 10.32 C 0 km/h
466 06-05-2011 00:00:00 13.52917 C 6.22 g/m*3 13.53 C 0 km/h
467 07-05-2011 00:00:00 17.6125 C 7.44 g/m*3 17.61 C 0 km/h
468 08-05-2011 00:00:00 19.07167 C 6.15 g/m*3 19.07 C 0 km/h
469 09-05-2011 00:00:00 18.40083 C 6.19 g/m*3 18.4 C 0 km/h
470 10-05-2011 00:00:00 17.95833 C 7.69 g/m*3 17.96 C 0 km/h
471 11-05-2011 00:00:00 18.40667 C 9.52 g/m*3 18.41 C 0 km/h
472 12-05-2011 00:00:00 15.77833 C 7.19 g/m*3 15.78 C 0 km/h
473 13-05-2011 00:00:00 13.68403 C 6.25 g/m*3 13.68 C 0 km/h
474 14-05-2011 00:00:00 12.59917 C 5.87 g/m*3 12.6 C 0 km/h
475 15-05-2011 00:00:00 10.34333 C 6.13 g/m*3 10.34 C 0 km/h
Sensor: Nr:Datum:Temp:Abs-Feuchte:Windchill:Wind:
Aussen-T/F 476 16-05-2011 00:00:00 12.58667 C 6.68 g/m*3 12.59 C 0 km/h
477 17-05-2011 00:00:00 17.04083 C 7.51 g/m*3 17.04 C 0 km/h
478 18-05-2011 00:00:00 16.60583 C 7.79 g/m*3 16.61 C 0 km/h
479 19-05-2011 00:00:00 17.10833 C 9.04 g/m*3 17.11 C 0 km/h
480 20-05-2011 00:00:00 16.53 C 10.17 g/m*3 16.53 C 0 km/h
481 21-05-2011 00:00:00 19.16077 C 9.98 g/m*3 19.16 C 0 km/h
482 22-05-2011 00:00:00 16.79593 C 8.96 g/m*3 16.8 C 0 km/h
483 23-05-2011 00:00:00 16.00167 C 6.77 g/m*3 16 C 0 km/h
484 24-05-2011 00:00:00 15.90583 C 6.52 g/m*3 15.91 C 0 km/h
485 25-05-2011 00:00:00 15.29333 C 5.83 g/m*3 15.29 C 0 km/h
486 26-05-2011 00:00:00 16.04833 C 5.88 g/m*3 16.05 C 0 km/h
487 27-05-2011 00:00:00 14.61 C 5.61 g/m*3 14.61 C 0 km/h
488 28-05-2011 00:00:00 15.2875 C 6.34 g/m*3 15.29 C 0 km/h
489 29-05-2011 00:00:00 19.21849 C 6.84 g/m*3 19.22 C 0 km/h
490 30-05-2011 00:00:00 20.91333 C 8.63 g/m*3 20.91 C 0 km/h
491 31-05-2011 00:00:00 14.84583 C 9.06 g/m*3 14.85 C 0 km/h
492 01-06-2011 00:00:00 14.86083 C 7 g/m*3 14.86 C 0 km/h
493 02-06-2011 00:00:00 19.79167 C 7.15 g/m*3 19.79 C 0 km/h
494 03-06-2011 00:00:00 20.65583 C 6.79 g/m*3 20.66 C 0 km/h
495 04-06-2011 00:00:00 21.20417 C 10.39 g/m*3 21.2 C 0 km/h
496 05-06-2011 00:00:00 18.63333 C 12.99 g/m*3 18.63 C 0 km/h
497 06-06-2011 00:00:00 18.38667 C 11.93 g/m*3 18.39 C 0 km/h
498 07-06-2011 00:00:00 20.62417 C 10.99 g/m*3 20.62 C 0 km/h
499 08-06-2011 00:00:00 15.695 C 8.9 g/m*3 15.7 C 0 km/h
500 09-06-2011 00:00:00 14.09328 C 8.28 g/m*3 14.09 C 0 km/h
Sensor: Nr:Datum:Temp:Abs-Feuchte:Windchill:Wind:
Aussen-T/F 501 10-06-2011 00:00:00 14.6563 C 8.82 g/m*3 14.66 C 0 km/h
502 11-06-2011 00:00:00 15.99417 C 8.05 g/m*3 15.99 C 0 km/h
503 12-06-2011 00:00:00 15.21167 C 7.37 g/m*3 15.21 C 0 km/h
504 13-06-2011 00:00:00 16.92167 C 8.46 g/m*3 16.92 C 0 km/h
505 14-06-2011 00:00:00 20.63333 C 10.65 g/m*3 20.63 C 0 km/h
506 15-06-2011 00:00:00 19.88909 C 10.18 g/m*3 19.89 C 0 km/h
507 16-06-2011 00:00:00 15.99375 C 8.34 g/m*3 15.99 C 0 km/h
508 17-06-2011 00:00:00 15.96417 C 8.11 g/m*3 15.96 C 0 km/h
509 18-06-2011 00:00:00 15.91083 C 7.98 g/m*3 15.91 C 0 km/h
510 19-06-2011 00:00:00 14.57917 C 7.13 g/m*3 14.58 C 0 km/h
511 20-06-2011 00:00:00 13.67417 C 9.25 g/m*3 13.67 C 0 km/h
512 21-06-2011 00:00:00 19.2575 C 11.21 g/m*3 19.26 C 0 km/h
513 22-06-2011 00:00:00 18.02773 C 11.1 g/m*3 18.03 C 0 km/h
514 23-06-2011 00:00:00 16.265 C 8.2 g/m*3 16.27 C 0 km/h
515 24-06-2011 00:00:00 14.2775 C 7.18 g/m*3 14.28 C 0 km/h
516 25-06-2011 00:00:00 13.42417 C 9.02 g/m*3 13.42 C 0 km/h
517 26-06-2011 00:00:00 15 C 10.26 g/m*3 15 C 0 km/h
518 27-06-2011 00:00:00 17.65667 C 10.91 g/m*3 17.66 C 0 km/h
519 28-06-2011 00:00:00 25.33167 C 11.62 g/m*3 25.33 C 0 km/h
520 29-06-2011 00:00:00 20.62 C 11.48 g/m*3 20.62 C 0 km/h
521 30-06-2011 00:00:00 17.92833 C 7.15 g/m*3 17.93 C 0 km/h
522 01-07-2011 00:00:00 15.115 C 8.01 g/m*3 15.12 C 0 km/h
523 02-07-2011 00:00:00 14.5975 C 7.11 g/m*3 14.6 C 0 km/h
524 03-07-2011 00:00:00 16.875 C 7.12 g/m*3 16.88 C 0 km/h
525 04-07-2011 00:00:00 16.2 C 7.58 g/m*3 16.2 C 0 km/h
Sensor: Nr:Datum:Temp:Abs-Feuchte:Windchill:Wind:
Aussen-T/F 526 05-07-2011 00:00:00 24.435 C 9.98 g/m*3 24.44 C 0 km/h
527 06-07-2011 00:00:00 20.39333 C 9.1 g/m*3 20.39 C 0 km/h
528 07-07-2011 00:00:00 19.52083 C 8.94 g/m*3 19.52 C 0 km/h
529 08-07-2011 00:00:00 19.92333 C 8.54 g/m*3 19.92 C 0 km/h
530 09-07-2011 00:00:00 21.28083 C 8.6 g/m*3 21.28 C 0 km/h
531 10-07-2011 00:00:00 18.22833 C 9.4 g/m*3 18.23 C 0 km/h
532 11-07-2011 00:00:00 20.90417 C 10.03 g/m*3 20.9 C 0 km/h
533 12-07-2011 00:00:00 19.89917 C 10.56 g/m*3 19.9 C 0 km/h
534 13-07-2011 00:00:00 15.985 C 10.63 g/m*3 15.99 C 0 km/h
535 14-07-2011 00:00:00 15.70417 C 6.99 g/m*3 15.7 C 0 km/h
536 15-07-2011 00:00:00 18.7025 C 6.71 g/m*3 18.7 C 0 km/h
537 16-07-2011 00:00:00 18.92269 C 7.49 g/m*3 18.92 C 0 km/h
538 17-07-2011 00:00:00 17.68667 C 9.94 g/m*3 17.69 C 0 km/h
539 18-07-2011 00:00:00 16.98583 C 8.21 g/m*3 16.99 C 0 km/h
540 19-07-2011 00:00:00 16.52167 C 9.22 g/m*3 16.52 C 0 km/h
541 20-07-2011 00:00:00 15.91917 C 10.35 g/m*3 15.92 C 0 km/h
542 21-07-2011 00:00:00 16.59583 C 10.82 g/m*3 16.6 C 0 km/h
543 22-07-2011 00:00:00 16.87083 C 8.36 g/m*3 16.87 C 0 km/h
544 23-07-2011 00:00:00 13.94417 C 7.47 g/m*3 13.94 C 0 km/h
545 24-07-2011 00:00:00 12.63083 C 8.38 g/m*3 12.63 C 0 km/h
546 25-07-2011 00:00:00 16.39417 C 8.85 g/m*3 16.39 C 0 km/h
547 26-07-2011 00:00:00 16.5375 C 10.33 g/m*3 16.54 C 0 km/h
548 27-07-2011 00:00:00 17.045 C 11.16 g/m*3 17.05 C 0 km/h
549 28-07-2011 00:00:00 18.71345 C 11.5 g/m*3 18.71 C 0 km/h
550 29-07-2011 00:00:00 17.87583 C 9.99 g/m*3 17.88 C 0 km/h
Sensor: Nr:Datum:Temp:Abs-Feuchte:Windchill:Wind:
Aussen-T/F 551 30-07-2011 00:00:00 15.04833 C 8.6 g/m*3 15.05 C 0 km/h
552 31-07-2011 00:00:00 15.27667 C 7.67 g/m*3 15.28 C 0 km/h
553 01-08-2011 00:00:00 16.885 C 8.98 g/m*3 16.89 C 0 km/h
554 02-08-2011 00:00:00 20.45917 C 10.66 g/m*3 20.46 C 0 km/h
555 03-08-2011 00:00:00 19.3425 C 12.45 g/m*3 19.34 C 0 km/h
556 04-08-2011 00:00:00 21.59083 C 12.52 g/m*3 21.59 C 0 km/h
557 05-08-2011 00:00:00 22.10417 C 12.9 g/m*3 22.1 C 0 km/h
558 06-08-2011 00:00:00 19.43333 C 13.51 g/m*3 19.43 C 0 km/h
559 07-08-2011 00:00:00 17.99583 C 9.29 g/m*3 18 C 0 km/h
560 08-08-2011 00:00:00 15.61 C 8.66 g/m*3 15.61 C 0 km/h
561 09-08-2011 00:00:00 15.21177 C 8.52 g/m*3 15.21 C 0 km/h
562 10-08-2011 00:00:00 11.545 C 7.33 g/m*3 11.55 C 0 km/h
563 11-08-2011 00:00:00 15.27417 C 7.81 g/m*3 15.27 C 0 km/h
564 12-08-2011 00:00:00 17.7625 C 10.87 g/m*3 17.76 C 0 km/h
565 13-08-2011 00:00:00 19.08833 C 11.8 g/m*3 19.09 C 0 km/h
566 14-08-2011 00:00:00 18.79167 C 12.74 g/m*3 18.79 C 0 km/h
567 15-08-2011 00:00:00 19.07917 C 10.51 g/m*3 19.08 C 0 km/h
568 16-08-2011 00:00:00 18.73083 C 9.69 g/m*3 18.73 C 0 km/h
569 17-08-2011 00:00:00 18.89 C 10.72 g/m*3 18.89 C 0 km/h
570 18-08-2011 00:00:00 22.63167 C 12.33 g/m*3 22.63 C 0 km/h
571 19-08-2011 00:00:00 19.24667 C 11.36 g/m*3 19.25 C 0 km/h
572 20-08-2011 00:00:00 18.59833 C 10.46 g/m*3 18.6 C 0 km/h
573 21-08-2011 00:00:00 20.63583 C 12.38 g/m*3 20.64 C 0 km/h
574 22-08-2011 00:00:00 23.83613 C 13.38 g/m*3 23.84 C 0 km/h
575 23-08-2011 00:00:00 23.46583 C 12.87 g/m*3 23.47 C 0 km/h
Sensor: Nr:Datum:Temp:Abs-Feuchte:Windchill:Wind:
Aussen-T/F 576 24-08-2011 00:00:00 20.97833 C 12.32 g/m*3 20.98 C 0 km/h
577 25-08-2011 00:00:00 20.68833 C 12.56 g/m*3 20.69 C 0 km/h
578 26-08-2011 00:00:00 20.87 C 13.51 g/m*3 20.87 C 0 km/h
579 27-08-2011 00:00:00 15.035 C 9.87 g/m*3 15.04 C 0 km/h
580 28-08-2011 00:00:00 15.25583 C 8.29 g/m*3 15.26 C 0 km/h
581 29-08-2011 00:00:00 14.68667 C 7.47 g/m*3 14.69 C 0 km/h
582 30-08-2011 00:00:00 12.15833 C 7.48 g/m*3 12.16 C 0 km/h
583 31-08-2011 00:00:00 13.1325 C 7.9 g/m*3 13.13 C 0 km/h
584 01-09-2011 00:00:00 15.16083 C 8.72 g/m*3 15.16 C 0 km/h
585 02-09-2011 00:00:00 17.55667 C 10.68 g/m*3 17.56 C 0 km/h
586 03-09-2011 00:00:00 20.71597 C 12.56 g/m*3 20.72 C 0 km/h
587 04-09-2011 00:00:00 21.65833 C 12.72 g/m*3 21.66 C 0 km/h
588 05-09-2011 00:00:00 17.79667 C 7.96 g/m*3 17.8 C 0 km/h
589 06-09-2011 00:00:00 15.93333 C 7.85 g/m*3 15.93 C 0 km/h
590 07-09-2011 00:00:00 16.43 C 7.86 g/m*3 16.43 C 0 km/h
591 08-09-2011 00:00:00 15.3775 C 7.81 g/m*3 15.38 C 0 km/h
592 09-09-2011 00:00:00 18.46 C 11.77 g/m*3 18.46 C 0 km/h
593 10-09-2011 00:00:00 21.15667 C 14.36 g/m*3 21.16 C 0 km/h
594 11-09-2011 00:00:00 17.895 C 12.4 g/m*3 17.9 C 0 km/h
595 12-09-2011 00:00:00 17.43583 C 10.22 g/m*3 17.44 C 0 km/h
596 13-09-2011 00:00:00 18.005 C 10.27 g/m*3 18.01 C 0 km/h
597 14-09-2011 00:00:00 14.43917 C 7.46 g/m*3 14.44 C 0 km/h
598 15-09-2011 00:00:00 13.91583 C 7.97 g/m*3 13.92 C 0 km/h
599 16-09-2011 00:00:00 12.79667 C 8.83 g/m*3 12.8 C 0 km/h
600 17-09-2011 00:00:00 16.78824 C 9.66 g/m*3 16.79 C 0 km/h
Sensor: Nr:Datum:Temp:Abs-Feuchte:Windchill:Wind:
Aussen-T/F 601 18-09-2011 00:00:00 12.7625 C 8.18 g/m*3 12.76 C 0 km/h
602 19-09-2011 00:00:00 12.76833 C 7.68 g/m*3 12.77 C 0 km/h
603 20-09-2011 00:00:00 12.41333 C 8.1 g/m*3 12.41 C 0 km/h
604 21-09-2011 00:00:00 13.775 C 8.34 g/m*3 13.78 C 0 km/h
605 22-09-2011 00:00:00 15.79167 C 7.98 g/m*3 15.79 C 0 km/h
606 23-09-2011 00:00:00 14.20917 C 7.92 g/m*3 14.21 C 0 km/h
607 24-09-2011 00:00:00 12.8025 C 8.32 g/m*3 12.8 C 0 km/h
608 25-09-2011 00:00:00 14.1125 C 9.33 g/m*3 14.11 C 0 km/h
609 26-09-2011 00:00:00 15.74917 C 10.22 g/m*3 15.75 C 0 km/h
610 27-09-2011 00:00:00 17.1525 C 10.93 g/m*3 17.15 C 0 km/h
611 28-09-2011 00:00:00 16.71 C 11.03 g/m*3 16.71 C 0 km/h
612 29-09-2011 00:00:00 16.13167 C 10.33 g/m*3 16.13 C 0 km/h
613 30-09-2011 00:00:00 14.48824 C 9.37 g/m*3 14.49 C 0 km/h
614 01-10-2011 00:00:00 14.3525 C 9.54 g/m*3 14.35 C 0 km/h
615 02-10-2011 00:00:00 14.74 C 9.74 g/m*3 14.74 C 0 km/h
616 03-10-2011 00:00:00 15.125 C 9.75 g/m*3 15.13 C 0 km/h
617 04-10-2011 00:00:00 16.96167 C 9.11 g/m*3 16.96 C 0 km/h
618 05-10-2011 00:00:00 17.94667 C 9.13 g/m*3 17.95 C 0 km/h
619 06-10-2011 00:00:00 14.175 C 8.46 g/m*3 14.18 C 0 km/h
620 07-10-2011 00:00:00 9.92583 C 6.22 g/m*3 9.93 C 0 km/h
621 08-10-2011 00:00:00 9.01167 C 6.47 g/m*3 9.01 C 0 km/h
622 09-10-2011 00:00:00 9.11667 C 7.02 g/m*3 9.12 C 0 km/h
623 10-10-2011 00:00:00 16.5475 C 9.61 g/m*3 16.55 C 0 km/h
624 11-10-2011 00:00:00 16.37917 C 8.72 g/m*3 16.38 C 0 km/h
625 12-10-2011 00:00:00 15.74333 C 8.96 g/m*3 15.74 C 0 km/h
Sensor: Nr:Datum:Temp:Abs-Feuchte:Windchill:Wind:
Aussen-T/F 626 13-10-2011 00:00:00 10.145 C 6.96 g/m*3 10.15 C 0 km/h
627 14-10-2011 00:00:00 6.14286 C 5.77 g/m*3 6.14 C 0 km/h
628 15-10-2011 00:00:00 4.65417 C 5.23 g/m*3 4.65 C 0 km/h
629 16-10-2011 00:00:00 4.29833 C 5.17 g/m*3 4.3 C 0 km/h
630 17-10-2011 00:00:00 6.42917 C 6.14 g/m*3 6.43 C 0 km/h
631 18-10-2011 00:00:00 8.99833 C 7.14 g/m*3 9 C 0 km/h
632 19-10-2011 00:00:00 8.2025 C 5.92 g/m*3 8.2 C 0 km/h
633 20-10-2011 00:00:00 5.4275 C 5.58 g/m*3 5.43 C 0 km/h
634 21-10-2011 00:00:00 3.16333 C 5.27 g/m*3 3.16 C 0 km/h
635 22-10-2011 00:00:00 3.45333 C 5.04 g/m*3 3.45 C 0 km/h
636 23-10-2011 00:00:00 2.44833 C 4.92 g/m*3 2.45 C 0 km/h
637 24-10-2011 00:00:00 5.85083 C 5.45 g/m*3 5.85 C 0 km/h
638 25-10-2011 00:00:00 9.17417 C 6.55 g/m*3 9.17 C 0 km/h
639 26-10-2011 00:00:00 9.305 C 6.4 g/m*3 9.31 C 0 km/h
640 27-10-2011 00:00:00 5.69333 C 6.08 g/m*3 5.69 C 0 km/h
641 28-10-2011 00:00:00 8.32857 C 7.33 g/m*3 8.33 C 0 km/h
642 29-10-2011 00:00:00 10.61667 C 8.11 g/m*3 10.62 C 0 km/h
643 30-10-2011 00:00:00 12.2192 C 9.31 g/m*3 12.22 C 0 km/h
644 31-10-2011 00:00:00 11.39 C 8.86 g/m*3 11.39 C 0 km/h
645 01-11-2011 00:00:00 9.17333 C 7.52 g/m*3 9.17 C 0 km/h
646 02-11-2011 00:00:00 10.59667 C 7.89 g/m*3 10.6 C 0 km/h
647 03-11-2011 00:00:00 11.35583 C 7.36 g/m*3 11.36 C 0 km/h
648 04-11-2011 00:00:00 10.15333 C 7.6 g/m*3 10.15 C 0 km/h
649 05-11-2011 00:00:00 10.31333 C 7.32 g/m*3 10.31 C 0 km/h
650 06-11-2011 00:00:00 8.90583 C 7.36 g/m*3 8.91 C 0 km/h
Sensor: Nr:Datum:Temp:Abs-Feuchte:Windchill:Wind:
Aussen-T/F 651 07-11-2011 00:00:00 8.85 C 7.07 g/m*3 8.85 C 0 km/h
652 08-11-2011 00:00:00 5.84583 C 6.28 g/m*3 5.85 C 0 km/h
653 09-11-2011 00:00:00 6.5025 C 6.49 g/m*3 6.5 C 0 km/h
654 10-11-2011 00:00:00 6.29328 C 6.04 g/m*3 6.29 C 0 km/h
655 11-11-2011 00:00:00 6.25417 C 5.61 g/m*3 6.25 C 0 km/h
656 12-11-2011 00:00:00 4.20083 C 5.31 g/m*3 4.2 C 0 km/h
657 13-11-2011 00:00:00 4.15833 C 5.51 g/m*3 4.16 C 0 km/h
658 14-11-2011 00:00:00 0.35917 C 4.59 g/m*3 0.36 C 0 km/h
659 15-11-2011 00:00:00 0.25583 C 4.55 g/m*3 0.26 C 0 km/h
660 16-11-2011 00:00:00 -1.28871 C 4.06 g/m*3 -1.29 C 0 km/h
661 17-11-2011 00:00:00 3.935 C 5.08 g/m*3 3.94 C 0 km/h
662 18-11-2011 00:00:00 7.49833 C 6.7 g/m*3 7.5 C 0 km/h
663 19-11-2011 00:00:00 5.435 C 6.26 g/m*3 5.44 C 0 km/h
664 20-11-2011 00:00:00 6.58083 C 6.06 g/m*3 6.58 C 0 km/h
665 21-11-2011 00:00:00 1.40917 C 4.92 g/m*3 1.41 C 0 km/h
666 22-11-2011 00:00:00 1.14083 C 4.83 g/m*3 1.14 C 0 km/h
667 23-11-2011 00:00:00 1.59583 C 5.02 g/m*3 1.6 C 0 km/h
668 24-11-2011 00:00:00 2.37083 C 5.25 g/m*3 2.37 C 0 km/h
669 25-11-2011 00:00:00 1.0775 C 4.47 g/m*3 1.08 C 0 km/h
670 26-11-2011 00:00:00 6.25167 C 5.54 g/m*3 6.25 C 0 km/h
671 27-11-2011 00:00:00 7.40833 C 5.63 g/m*3 7.41 C 0 km/h
672 28-11-2011 00:00:00 0.83833 C 4.74 g/m*3 0.84 C 0 km/h
673 29-11-2011 00:00:00 1.88167 C 4.94 g/m*3 1.88 C 0 km/h
674 30-11-2011 00:00:00 4.85083 C 5.78 g/m*3 4.85 C 0 km/h
675 01-12-2011 00:00:00 5.47459 C 6.17 g/m*3 5.47 C 0 km/h
Sensor: Nr:Datum:Temp:Abs-Feuchte:Windchill:Wind:
Aussen-T/F 676 02-12-2011 00:00:00 7.12667 C 6.07 g/m*3 7.13 C 0 km/h
677 03-12-2011 00:00:00 6.26583 C 5.67 g/m*3 6.27 C 0 km/h
678 04-12-2011 00:00:00 8.2975 C 6.82 g/m*3 8.3 C 0 km/h
679 05-12-2011 00:00:00 4.38417 C 4.68 g/m*3 4.38 C 0 km/h
680 06-12-2011 00:00:00 4.445 C 4.4 g/m*3 4.45 C 0 km/h
681 07-12-2011 00:00:00 5.57833 C 5 g/m*3 5.58 C 0 km/h
682 08-12-2011 00:00:00 6.22333 C 4.58 g/m*3 6.22 C 0 km/h
683 09-12-2011 00:00:00 5.94583 C 5.15 g/m*3 5.95 C 0 km/h
684 10-12-2011 00:00:00 1.885 C 4.22 g/m*3 1.89 C 0 km/h
685 11-12-2011 00:00:00 0.43667 C 4.15 g/m*3 0.44 C 0 km/h
686 12-12-2011 00:00:00 5.94754 C 5.56 g/m*3 5.95 C 0 km/h
687 13-12-2011 00:00:00 6.86417 C 5.29 g/m*3 6.86 C 0 km/h
688 14-12-2011 00:00:00 6.68371 C 6.1 g/m*3 4.39 C 11.45758 km/h
689 15-12-2011 00:00:00 6.13646 C 5.7 g/m*3 3.9 C 10.55208 km/h
690 16-12-2011 00:00:00 6.07222 C 6.06 g/m*3 3.54 C 12.08819 km/h
691 17-12-2011 00:00:00 3.63507 C 5.26 g/m*3 1.48 C 8.17431 km/h
692 18-12-2011 00:00:00 2.25764 C 4.91 g/m*3 0.33 C 6.6875 km/h
693 19-12-2011 00:00:00 1.70208 C 4.69 g/m*3 1.7 C 4.33715 km/h
694 20-12-2011 00:00:00 2.28715 C 5.15 g/m*3 2.29 C 4.2434 km/h
695 21-12-2011 00:00:00 4.19792 C 5.66 g/m*3 2.64 C 6.47639 km/h
696 22-12-2011 00:00:00 6.57917 C 7.14 g/m*3 6.58 C 3.52847 km/h
697 23-12-2011 00:00:00 8.41806 C 7.71 g/m*3 8.42 C 4.81424 km/h
698 24-12-2011 00:00:00 5.63368 C 5.92 g/m*3 3.43 C 9.91007 km/h
699 25-12-2011 00:00:00 5.68472 C 6.14 g/m*3 3.52 C 9.78507 km/h
700 26-12-2011 00:00:00 8.12222 C 7.46 g/m*3 6.74 C 8.26389 km/h
Sensor: Nr:Datum:Temp:Abs-Feuchte:Windchill:Wind:
Aussen-T/F 701 27-12-2011 00:00:00 8.25139 C 7.48 g/m*3 8.25 C 2.92604 km/h
702 28-12-2011 00:00:00 5.71424 C 6.17 g/m*3 4.17 C 7.23854 km/h
703 29-12-2011 00:00:00 5.51667 C 5.66 g/m*3 2.84 C 12.22257 km/h
704 30-12-2011 00:00:00 4.24861 C 5.39 g/m*3 1.73 C 10.11736 km/h
705 31-12-2011 00:00:00 5.15729 C 6.43 g/m*3 5.16 C 3.01632 km/h
706 01-01-2012 00:00:00 12.02807 C 9.43 g/m*3 12.03 C 8.78386 km/h
707 02-01-2012 00:00:00 8.87847 C 7.72 g/m*3 7.94 C 6.93264 km/h
708 03-01-2012 00:00:00 7.43403 C 6.52 g/m*3 5.14 C 12.40729 km/h
709 04-01-2012 00:00:00 6.56875 C 5.76 g/m*3 4.06 C 12.56285 km/h
710 05-01-2012 00:00:00 6.88368 C 6.18 g/m*3 3.58 C 18.83542 km/h
711 06-01-2012 00:00:00 5.40208 C 5.7 g/m*3 2.58 C 12.92361 km/h
712 07-01-2012 00:00:00 5.54653 C 5.98 g/m*3 2.83 C 12.50278 km/h
713 08-01-2012 00:00:00 5.96042 C 6.13 g/m*3 4.3 C 7.84514 km/h
714 09-01-2012 00:00:00 6.11424 C 6.58 g/m*3 4.81 C 6.62743 km/h
715 10-01-2012 00:00:00 6.93056 C 7.03 g/m*3 6.93 C 3.02882 km/h
716 11-01-2012 00:00:00 8.11597 C 6.84 g/m*3 7.26 C 6.14826 km/h
717 12-01-2012 00:00:00 8.18819 C 6.9 g/m*3 6.08 C 12.27049 km/h
718 13-01-2012 00:00:00 5.12569 C 5.2 g/m*3 2.95 C 9.37569 km/h
719 14-01-2012 00:00:00 3.95417 C 5 g/m*3 3.95 C 4.25694 km/h
720 15-01-2012 00:00:00 -0.23715 C 4.52 g/m*3 -0.24 C 1.86111 km/h
721 16-01-2012 00:00:00 -1.80312 C 4.02 g/m*3 -1.8 C 1.83333 km/h
722 17-01-2012 00:00:00 -2.78368 C 3.69 g/m*3 -2.78 C 1.10556 km/h
723 18-01-2012 00:00:00 -0.12708 C 4.32 g/m*3 -2.76 C 7.60694 km/h
724 19-01-2012 00:00:00 6.67639 C 6.84 g/m*3 3.88 C 14.53819 km/h
725 20-01-2012 00:00:00 4.025 C 5.54 g/m*3 1.91 C 8.28333 km/h
Sensor: Nr:Datum:Temp:Abs-Feuchte:Windchill:Wind:
Aussen-T/F 726 21-01-2012 00:00:00 5.73681 C 6.39 g/m*3 3.58 C 9.81354 km/h
727 22-01-2012 00:00:00 6.85764 C 5.84 g/m*3 4.26 C 13.54236 km/h
728 23-01-2012 00:00:00 5.22708 C 5.7 g/m*3 3.41 C 7.97396 km/h
729 24-01-2012 00:00:00 3.1191 C 5.44 g/m*3 3.12 C 3.95903 km/h
730 25-01-2012 00:00:00 0.47708 C 4.75 g/m*3 0.48 C 1.85 km/h
731 26-01-2012 00:00:00 1.84132 C 4.64 g/m*3 1.84 C 3.40451 km/h
732 27-01-2012 00:00:00 2.58437 C 5.32 g/m*3 2.58 C 1.90104 km/h
733 28-01-2012 00:00:00 2.69896 C 5.12 g/m*3 2.7 C 1.55729 km/h
734 29-01-2012 00:00:00 0.84583 C 4.18 g/m*3 0.85 C 4.61007 km/h
735 30-01-2012 00:00:00 -0.00208 C 3.89 g/m*3 0 C 2.62326 km/h
736 31-01-2012 00:00:00 -1.90972 C 2.97 g/m*3 -4 C 5.50486 km/h
737 01-02-2012 00:00:00 -5.28403 C 2.04 g/m*3 -8.99 C 8.11736 km/h
738 02-02-2012 00:00:00 -7.12396 C 1.51 g/m*3 -10.34 C 6.25729 km/h
739 03-02-2012 00:00:00 -8.52361 C 1.79 g/m*3 -8.52 C 2.86215 km/h
740 04-02-2012 00:00:00 -8.31389 C 2.08 g/m*3 -8.31 C 2.1 km/h
741 05-02-2012 00:00:00 -9.04861 C 1.83 g/m*3 -9.05 C 2.36215 km/h
742 06-02-2012 00:00:00 -9.67674 C 1.68 g/m*3 -9.68 C 2.38958 km/h
743 07-02-2012 00:00:00 -9.19832 C 1.73 g/m*3 -12.43 C 5.69706 km/h
744 08-02-2012 00:00:00 -5.57083 C 2.37 g/m*3 -8.79 C 6.79792 km/h
745 09-02-2012 00:00:00 -7.39479 C 2.48 g/m*3 -7.39 C 2.61215 km/h
746 10-02-2012 00:00:00 -6.11875 C 2.37 g/m*3 -6.12 C 4.48194 km/h
747 11-02-2012 00:00:00 -8.24931 C 1.89 g/m*3 -8.25 C 4.42743 km/h
748 12-02-2012 00:00:00 -6.58063 C 2.2 g/m*3 -6.58 C 2.04269 km/h
749 13-02-2012 00:00:00 -0.88993 C 3.76 g/m*3 -0.89 C 2.37813 km/h
750 14-02-2012 00:00:00 1.59931 C 5.05 g/m*3 1.6 C 4.2559 km/h
Sensor: Nr:Datum:Temp:Abs-Feuchte:Windchill:Wind:
Aussen-T/F 751 15-02-2012 00:00:00 3.97674 C 5.46 g/m*3 1 C 12.0816 km/h
752 16-02-2012 00:00:00 3.54896 C 5.63 g/m*3 2.4 C 5.08507 km/h
753 17-02-2012 00:00:00 5.57917 C 6.2 g/m*3 3.56 C 9.06771 km/h
754 18-02-2012 00:00:00 6.37083 C 6.55 g/m*3 5.3 C 6.00278 km/h
755 19-02-2012 00:00:00 2.99271 C 5.23 g/m*3 1.26 C 6.44375 km/h
756 20-02-2012 00:00:00 1.18333 C 4.47 g/m*3 1.18 C 2.83542 km/h
757 21-02-2012 00:00:00 1.84583 C 4.31 g/m*3 0.32 C 5.43472 km/h
758 22-02-2012 00:00:00 3.17951 C 4.88 g/m*3 3.18 C 4.49236 km/h
759 23-02-2012 00:00:00 6.17352 C 6 g/m*3 3.54 C 12.77909 km/h
760 24-02-2012 00:00:00 9.38101 C 7.83 g/m*3 7.78 C 10.64767 km/h
761 25-02-2012 00:00:00 8.6186 C 6.96 g/m*3 7.94 C 5.80281 km/h
762 26-02-2012 00:00:00 5.29167 C 6.13 g/m*3 5.29 C 3.88611 km/h
763 27-02-2012 00:00:00 5.83671 C 5.98 g/m*3 5.84 C 3.63392 km/h
764 28-02-2012 00:00:00 8.57639 C 7.33 g/m*3 7.89 C 5.80451 km/h
765 29-02-2012 00:00:00 9.50385 C 8.41 g/m*3 9.5 C 1.76783 km/h
766 01-03-2012 00:00:00 9.01563 C 8.27 g/m*3 9.02 C 1.62292 km/h
767 02-03-2012 00:00:00 8.57986 C 7.95 g/m*3 8.58 C 2.37986 km/h
768 03-03-2012 00:00:00 7.91597 C 7.43 g/m*3 7.92 C 1.94653 km/h
769 04-03-2012 00:00:00 8.65625 C 7.04 g/m*3 8.66 C 2.75069 km/h
770 05-03-2012 00:00:00 5.81597 C 5.57 g/m*3 4.08 C 8.05174 km/h
771 06-03-2012 00:00:00 5.43924 C 5.12 g/m*3 5.44 C 4.19063 km/h
772 07-03-2012 00:00:00 2.93962 C 4.81 g/m*3 1.24 C 6.32906 km/h
773 08-03-2012 00:00:00 5.35833 C 5.6 g/m*3 3.45 C 8.425 km/h
774 09-03-2012 00:00:00 4.88437 C 5.29 g/m*3 4.88 C 3.76771 km/h
775 10-03-2012 00:00:00 8.58541 C 6.77 g/m*3 8.59 C 4.07082 km/h
Sensor: Nr:Datum:Temp:Abs-Feuchte:Windchill:Wind:
Aussen-T/F 776 11-03-2012 00:00:00 9.26775 C 7.44 g/m*3 9.27 C 4.08261 km/h
777 12-03-2012 00:00:00 8.0632 C 7.18 g/m*3 8.06 C 4.78216 km/h
778 13-03-2012 00:00:00 7.68299 C 6.78 g/m*3 7.68 C 2.73958 km/h
779 14-03-2012 00:00:00 6.93542 C 6.09 g/m*3 6.94 C 2.55694 km/h
780 15-03-2012 00:00:00 7.07812 C 6.17 g/m*3 7.08 C 2.43472 km/h
781 16-03-2012 00:00:00 10.01696 C 6.56 g/m*3 10.02 C 2.57739 km/h
782 17-03-2012 00:00:00 9.42917 C 6.8 g/m*3 8.99 C 5.38056 km/h
783 18-03-2012 00:00:00 8.64931 C 7.23 g/m*3 8.65 C 4.38299 km/h
784 19-03-2012 00:00:00 7.37083 C 5.72 g/m*3 7.37 C 4.39375 km/h
785 20-03-2012 00:00:00 6.81088 C 5.19 g/m*3 6.81 C 2.84728 km/h
786 21-03-2012 00:00:00 7.73902 C 5.64 g/m*3 7.74 C 2.80592 km/h
787 22-03-2012 00:00:00 10.07666 C 6.73 g/m*3 10.08 C 3.77387 km/h
788 23-03-2012 00:00:00 11.69132 C 7.52 g/m*3 11.69 C 2.95729 km/h
789 24-03-2012 00:00:00 11.62674 C 7.38 g/m*3 11.63 C 2.56215 km/h
790 25-03-2012 00:00:00 12.80873 C 7.04 g/m*3 12.81 C 3.29964 km/h
791 26-03-2012 00:00:00 11.16806 C 5.93 g/m*3 11.17 C 3.51563 km/h
792 27-03-2012 00:00:00 11.10694 C 6.65 g/m*3 11.11 C 4.18021 km/h
793 28-03-2012 00:00:00 11.74201 C 7.1 g/m*3 11.74 C 3.72708 km/h
794 29-03-2012 00:00:00 9.58194 C 6.51 g/m*3 8.4 C 8.56007 km/h
795 30-03-2012 00:00:00 9.39062 C 7.16 g/m*3 8 C 9.48438 km/h
796 31-03-2012 00:00:00 7.98706 C 6.3 g/m*3 6.73 C 7.63427 km/h
797 01-04-2012 00:00:00 4.77396 C 4.26 g/m*3 4.77 C 4.45451 km/h
798 02-04-2012 00:00:00 6.64685 C 5.4 g/m*3 6.65 C 3.51643 km/h
799 03-04-2012 00:00:00 11.08125 C 6.34 g/m*3 11.08 C 3.84514 km/h
800 04-04-2012 00:00:00 9.89722 C 7.68 g/m*3 9.9 C 4.97083 km/h
Sensor: Nr:Datum:Temp:Abs-Feuchte:Windchill:Wind:
Aussen-T/F 801 05-04-2012 00:00:00 7.74514 C 6.58 g/m*3 7.75 C 4.3691 km/h
802 06-04-2012 00:00:00 7.88679 C 5.55 g/m*3 7.89 C 3.89321 km/h
803 07-04-2012 00:00:00 5.61389 C 5.15 g/m*3 4.49 C 5.80486 km/h
804 08-04-2012 00:00:00 5.19194 C 3.73 g/m*3 5.19 C 4.34725 km/h
805 09-04-2012 00:00:00 7.24583 C 6.56 g/m*3 7.25 C 4.80278 km/h
806 10-04-2012 00:00:00 11.25451 C 7.92 g/m*3 11.25 C 5.78993 km/h
807 11-04-2012 00:00:00 9.71215 C 6.72 g/m*3 9.19 C 5.81146 km/h
808 12-04-2012 00:00:00 6.41736 C 6.3 g/m*3 6.42 C 3.28576 km/h
809 13-04-2012 00:00:00 6.76632 C 6.2 g/m*3 6.77 C 3.36146 km/h
810 14-04-2012 00:00:00 7.83021 C 5.85 g/m*3 7.83 C 3.32292 km/h
811 15-04-2012 00:00:00 8.52361 C 6.33 g/m*3 7.06 C 9.00625 km/h
812 16-04-2012 00:00:00 5.92438 C 4.62 g/m*3 3.99 C 8.9624 km/h
813 17-04-2012 00:00:00 5.90382 C 4.31 g/m*3 5.03 C 5.20451 km/h
814 18-04-2012 00:00:00 8.72674 C 6.28 g/m*3 7.96 C 6.1816 km/h
815 19-04-2012 00:00:00 8.47422 C 6.89 g/m*3 8.47 C 4.56829 km/h
816 20-04-2012 00:00:00 7.07115 C 6.66 g/m*3 7.07 C 3.15337 km/h
817 21-04-2012 00:00:00 8.16701 C 6.8 g/m*3 7.41 C 5.84132 km/h
818 22-04-2012 00:00:00 7.84306 C 6.56 g/m*3 6.44 C 8.12708 km/h
819 23-04-2012 00:00:00 8.39097 C 6.75 g/m*3 7.92 C 5.03333 km/h
820 24-04-2012 00:00:00 8.89757 C 7.41 g/m*3 8.28 C 5.73542 km/h
821 25-04-2012 00:00:00 10.14167 C 7.42 g/m*3 9.44 C 6.77951 km/h
822 26-04-2012 00:00:00 11.47083 C 8.24 g/m*3 11.47 C 6.83507 km/h
823 27-04-2012 00:00:00 12.5625 C 9.11 g/m*3 12.56 C 2.90104 km/h
824 28-04-2012 00:00:00 18.10903 C 11.21 g/m*3 18.11 C 3.17847 km/h
825 29-04-2012 00:00:00 16.89826 C 10.53 g/m*3 16.9 C 4.97257 km/h
Sensor: Nr:Datum:Temp:Abs-Feuchte:Windchill:Wind:
Aussen-T/F 826 30-04-2012 00:00:00 17.93194 C 9.73 g/m*3 17.93 C 5.83958 km/h
827 01-05-2012 00:00:00 17.12465 C 10.46 g/m*3 17.12 C 5.35833 km/h
828 02-05-2012 00:00:00 15.24479 C 11.32 g/m*3 15.24 C 4.1625 km/h
829 03-05-2012 00:00:00 13.43472 C 9.03 g/m*3 13.43 C 4.52049 km/h
830 04-05-2012 00:00:00 14.57083 C 9.2 g/m*3 14.57 C 4.31979 km/h
831 05-05-2012 00:00:00 11.45069 C 9.57 g/m*3 11.45 C 2.0691 km/h
832 06-05-2012 00:00:00 10.57674 C 9.04 g/m*3 10.58 C 2.72743 km/h
833 07-05-2012 00:00:00 10.38681 C 8.05 g/m*3 10.39 C 2.83542 km/h
834 08-05-2012 00:00:00 13.89063 C 8.76 g/m*3 13.89 C 4.06285 km/h
835 09-05-2012 00:00:00 16.78229 C 11.72 g/m*3 16.78 C 4.3441 km/h
836 10-05-2012 00:00:00 19.11111 C 12.91 g/m*3 19.11 C 3.2934 km/h
837 11-05-2012 00:00:00 19.125 C 13.25 g/m*3 19.13 C 4.69688 km/h
838 12-05-2012 00:00:00 11.31289 C 7.13 g/m*3 11.31 C 6.93972 km/h
839 13-05-2012 00:00:00 9.38646 C 6.01 g/m*3 9.39 C 3.54444 km/h
840 14-05-2012 00:00:00 11.40799 C 6.45 g/m*3 11.41 C 3.29792 km/h
841 15-05-2012 00:00:00 9.5625 C 6.83 g/m*3 9.16 C 5.31528 km/h
842 16-05-2012 00:00:00 8.66597 C 6.56 g/m*3 7.74 C 6.74236 km/h
843 17-05-2012 00:00:00 9.38889 C 6.11 g/m*3 9.39 C 3.74201 km/h
844 18-05-2012 00:00:00 12.68299 C 8.58 g/m*3 12.68 C 3.73611 km/h
845 19-05-2012 00:00:00 15.71389 C 11.07 g/m*3 15.71 C 3.01667 km/h
846 20-05-2012 00:00:00 17.6684 C 11.84 g/m*3 17.67 C 2.85521 km/h
847 21-05-2012 00:00:00 18.51324 C 12.9 g/m*3 18.51 C 3.62056 km/h
848 22-05-2012 00:00:00 21.31944 C 13.69 g/m*3 21.32 C 4.20417 km/h
849 23-05-2012 00:00:00 18.79965 C 14.38 g/m*3 18.8 C 2.22951 km/h
850 24-05-2012 00:00:00 20.67596 C 13.27 g/m*3 20.68 C 3.73554 km/h
Sensor: Nr:Datum:Temp:Abs-Feuchte:Windchill:Wind:
Aussen-T/F 851 25-05-2012 00:00:00 19.43659 C 8.08 g/m*3 19.44 C 7.67038 km/h
852 26-05-2012 00:00:00 18.11007 C 8.4 g/m*3 18.11 C 5.16944 km/h
853 27-05-2012 00:00:00 18.05868 C 9.6 g/m*3 18.06 C 2.91215 km/h
854 28-05-2012 00:00:00 18.89167 C 10.37 g/m*3 18.89 C 3.94348 km/h
855 29-05-2012 00:00:00 18.3861 C 10.26 g/m*3 18.39 C 4.0695 km/h
856 30-05-2012 00:00:00 17.68438 C 11.87 g/m*3 17.68 C 3.49167 km/h
857 31-05-2012 00:00:00 16.03021 C 11.52 g/m*3 16.03 C 4.43785 km/h
858 01-06-2012 00:00:00 15.75909 C 10.21 g/m*3 15.76 C 6.05315 km/h
859 02-06-2012 00:00:00 15.19271 C 9.16 g/m*3 15.19 C 3.1559 km/h
860 03-06-2012 00:00:00 12.59011 C 9.82 g/m*3 12.59 C 2.24762 km/h
861 04-06-2012 00:00:00 13.31389 C 9.93 g/m*3 13.31 C 5.88403 km/h
862 05-06-2012 00:00:00 12.15312 C 7.43 g/m*3 12.15 C 4.47674 km/h
863 06-06-2012 00:00:00 13.09444 C 9.9 g/m*3 13.09 C 3.34722 km/h
864 07-06-2012 00:00:00 16.45799 C 12.45 g/m*3 16.46 C 1.94236 km/h
865 08-06-2012 00:00:00 17.34097 C 10.69 g/m*3 17.34 C 7.78056 km/h
866 09-06-2012 00:00:00 14.79028 C 8.37 g/m*3 14.79 C 6.97674 km/h
867 10-06-2012 00:00:00 15.29514 C 8.7 g/m*3 15.3 C 3.03576 km/h
868 11-06-2012 00:00:00 14.57014 C 10.58 g/m*3 14.57 C 2.15208 km/h
869 12-06-2012 00:00:00 14.40729 C 10.65 g/m*3 14.41 C 3.45451 km/h
870 13-06-2012 00:00:00 12.57122 C 10.25 g/m*3 12.57 C 3.38081 km/h
871 14-06-2012 00:00:00 14.15694 C 9.93 g/m*3 14.16 C 1.8191 km/h
872 15-06-2012 00:00:00 16.11806 C 11.68 g/m*3 16.12 C 2.80417 km/h
873 16-06-2012 00:00:00 15.40799 C 12.19 g/m*3 15.41 C 2.89306 km/h
874 17-06-2012 00:00:00 17.28021 C 10.37 g/m*3 17.28 C 5.15313 km/h
875 18-06-2012 00:00:00 18.57292 C 11.77 g/m*3 18.57 C 4.89653 km/h
Sensor: Nr:Datum:Temp:Abs-Feuchte:Windchill:Wind:
Aussen-T/F 876 19-06-2012 00:00:00 17.44028 C 12.26 g/m*3 17.44 C 1.76389 km/h
877 20-06-2012 00:00:00 16.35833 C 13.49 g/m*3 16.36 C 1.52674 km/h
878 21-06-2012 00:00:00 18.41354 C 14.08 g/m*3 18.41 C 2.59965 km/h
879 22-06-2012 00:00:00 16.36181 C 10.54 g/m*3 16.36 C 7.0059 km/h
880 23-06-2012 00:00:00 16.63472 C 10.11 g/m*3 16.63 C 5.14444 km/h
881 24-06-2012 00:00:00 14.73507 C 10.4 g/m*3 14.74 C 6.91354 km/h
882 25-06-2012 00:00:00 15.09028 C 10.16 g/m*3 15.09 C 8.34479 km/h
883 26-06-2012 00:00:00 16.43125 C 10.29 g/m*3 16.43 C 3.31285 km/h
884 27-06-2012 00:00:00 18.07569 C 13.09 g/m*3 18.08 C 3.76944 km/h
885 28-06-2012 00:00:00 21.87465 C 15.47 g/m*3 21.87 C 2.8309 km/h
886 29-06-2012 00:00:00 20.49063 C 16.02 g/m*3 20.49 C 2.96215 km/h
887 30-06-2012 00:00:00 20.14965 C 13.71 g/m*3 20.15 C 2.2625 km/h
888 01-07-2012 00:00:00 17.98889 C 12.48 g/m*3 17.99 C 3.47257 km/h
889 02-07-2012 00:00:00 15.24444 C 11.26 g/m*3 15.24 C 0.73889 km/h
890 03-07-2012 00:00:00 18.02153 C 11.83 g/m*3 18.02 C 2.55382 km/h
891 04-07-2012 00:00:00 19.87465 C 13.12 g/m*3 19.87 C 2.27778 km/h
892 05-07-2012 00:00:00 19.09722 C 15.03 g/m*3 19.1 C 0.74479 km/h
893 06-07-2012 00:00:00 19.21042 C 13.57 g/m*3 19.21 C 3.32431 km/h
894 07-07-2012 00:00:00 19.57743 C 12.21 g/m*3 19.58 C 3.63854 km/h
895 08-07-2012 00:00:00 17.84097 C 12.38 g/m*3 17.84 C 5.58993 km/h
896 09-07-2012 00:00:00 18.63611 C 11.51 g/m*3 18.64 C 6.85972 km/h
897 10-07-2012 00:00:00 19.1441 C 12.62 g/m*3 19.14 C 4.02951 km/h
898 11-07-2012 00:00:00 16.03553 C 10.88 g/m*3 16.04 C 5.68791 km/h
899 12-07-2012 00:00:00 14.8191 C 9.88 g/m*3 14.82 C 8.20799 km/h
900 13-07-2012 00:00:00 15.50417 C 11.84 g/m*3 15.5 C 4.44132 km/h
Sensor: Nr:Datum:Temp:Abs-Feuchte:Windchill:Wind:
Aussen-T/F 901 14-07-2012 00:00:00 15.27708 C 11.45 g/m*3 15.28 C 6.33438 km/h
902 15-07-2012 00:00:00 14.52014 C 10.82 g/m*3 14.52 C 5.16597 km/h
903 16-07-2012 00:00:00 15.02292 C 10.17 g/m*3 15.02 C 7.63264 km/h
904 17-07-2012 00:00:00 17.55296 C 11.48 g/m*3 17.55 C 9.27003 km/h
905 18-07-2012 00:00:00 19.90563 C 12.45 g/m*3 19.91 C 5.63345 km/h
906 19-07-2012 00:00:00 18.1593 C 10.92 g/m*3 18.16 C 6.90807 km/h
907 20-07-2012 00:00:00 14.84982 C 10.88 g/m*3 14.85 C 2.54767 km/h
908 21-07-2012 00:00:00 15.04167 C 10.37 g/m*3 15.04 C 3.48403 km/h
909 22-07-2012 00:00:00 14.62049 C 9.34 g/m*3 14.62 C 2.64549 km/h
910 23-07-2012 00:00:00 17.15069 C 9.94 g/m*3 17.15 C 3.31076 km/h
911 24-07-2012 00:00:00 19.81701 C 12.05 g/m*3 19.82 C 3.02049 km/h
912 25-07-2012 00:00:00 22.08445 C 14.21 g/m*3 22.08 C 2.1053 km/h
913 26-07-2012 00:00:00 23.10764 C 15.14 g/m*3 23.11 C 1.99514 km/h
914 27-07-2012 00:00:00 22.26167 C 16.31 g/m*3 22.26 C 2.37143 km/h
915 28-07-2012 00:00:00 19.03507 C 15.12 g/m*3 19.04 C 2.04826 km/h
916 29-07-2012 00:00:00 17.61875 C 11.35 g/m*3 17.62 C 4.525 km/h
917 30-07-2012 00:00:00 16.17396 C 9.66 g/m*3 16.17 C 5.72396 km/h
918 31-07-2012 00:00:00 16.33993 C 11.03 g/m*3 16.34 C 3.13403 km/h
919 01-08-2012 00:00:00 20.08194 C 13.03 g/m*3 20.08 C 3.05833 km/h
920 02-08-2012 00:00:00 20.75938 C 13.57 g/m*3 20.76 C 4.57847 km/h
921 03-08-2012 00:00:00 19.31771 C 11.89 g/m*3 19.32 C 4.20035 km/h
922 04-08-2012 00:00:00 19.1 C 11.8 g/m*3 19.1 C 3.13889 km/h
923 05-08-2012 00:00:00 19.0875 C 13.66 g/m*3 19.09 C 2.04722 km/h
924 06-08-2012 00:00:00 18.40312 C 12.35 g/m*3 18.4 C 5.67882 km/h
925 07-08-2012 00:00:00 17.15556 C 10.69 g/m*3 17.16 C 5.52535 km/h
Sensor: Nr:Datum:Temp:Abs-Feuchte:Windchill:Wind:
Aussen-T/F 926 08-08-2012 00:00:00 16.59132 C 11.2 g/m*3 16.59 C 1.95243 km/h
927 09-08-2012 00:00:00 18.49479 C 12.19 g/m*3 18.49 C 3.35035 km/h
928 10-08-2012 00:00:00 17.33299 C 10.54 g/m*3 17.33 C 3.19965 km/h
929 11-08-2012 00:00:00 16.29444 C 10.16 g/m*3 16.29 C 3.24028 km/h
930 12-08-2012 00:00:00 17.40486 C 10.17 g/m*3 17.4 C 3.59653 km/h
931 13-08-2012 00:00:00 18.22326 C 11.39 g/m*3 18.22 C 2.33056 km/h
932 14-08-2012 00:00:00 19.78993 C 13.49 g/m*3 19.79 C 1.41667 km/h
933 15-08-2012 00:00:00 22.31354 C 14.02 g/m*3 22.31 C 2.55694 km/h
934 16-08-2012 00:00:00 21.27535 C 12.53 g/m*3 21.28 C 3.72917 km/h
935 17-08-2012 00:00:00 20.12986 C 12.21 g/m*3 20.13 C 2.75521 km/h
936 18-08-2012 00:00:00 23.0066 C 13.86 g/m*3 23.01 C 3.18229 km/h
937 19-08-2012 00:00:00 24.67083 C 15.81 g/m*3 24.67 C 2.43264 km/h
938 20-08-2012 00:00:00 23.43229 C 16.92 g/m*3 23.43 C 1.96354 km/h
939 21-08-2012 00:00:00 22.65105 C 16.48 g/m*3 22.65 C 1.97483 km/h
940 22-08-2012 00:00:00 20.95729 C 11.81 g/m*3 20.96 C 4.26389 km/h
941 23-08-2012 00:00:00 17.78194 C 9.87 g/m*3 17.78 C 2.24444 km/h
942 24-08-2012 00:00:00 18.61514 C 12.97 g/m*3 18.62 C 2.49155 km/h
943 25-08-2012 00:00:00 18.46493 C 12.42 g/m*3 18.46 C 5.00035 km/h
944 26-08-2012 00:00:00 16.26829 C 10.84 g/m*3 16.27 C 8.77944 km/h
945 27-08-2012 00:00:00 16.33728 C 10.98 g/m*3 16.34 C 2.63066 km/h
946 28-08-2012 00:00:00 18.01812 C 11.48 g/m*3 18.02 C 3.66864 km/h
947 29-08-2012 00:00:00 20.02396 C 13.42 g/m*3 20.02 C 2.13264 km/h
948 30-08-2012 00:00:00 17.48889 C 12.07 g/m*3 17.49 C 3.22465 km/h
949 31-08-2012 00:00:00 13.93646 C 10.2 g/m*3 13.94 C 6.31146 km/h
950 01-09-2012 00:00:00 14.49236 C 9.5 g/m*3 14.49 C 4.74896 km/h
Sensor: Nr:Datum:Temp:Abs-Feuchte:Windchill:Wind:
Aussen-T/F 951 02-09-2012 00:00:00 13.96285 C 9.9 g/m*3 13.96 C 1.82257 km/h
952 03-09-2012 00:00:00 16.22222 C 11.01 g/m*3 16.22 C 2.96493 km/h
953 04-09-2012 00:00:00 16.86259 C 11.77 g/m*3 16.86 C 1.64021 km/h
954 05-09-2012 00:00:00 16.4125 C 11.14 g/m*3 16.41 C 3.33681 km/h
955 06-09-2012 00:00:00 14.61525 C 8.89 g/m*3 14.62 C 2.50035 km/h
956 07-09-2012 00:00:00 14.4309 C 9.14 g/m*3 14.43 C 2.39931 km/h
957 08-09-2012 00:00:00 16.83403 C 10.04 g/m*3 16.83 C 2.29444 km/h
958 09-09-2012 00:00:00 18.54722 C 10.81 g/m*3 18.55 C 3.24271 km/h
959 10-09-2012 00:00:00 19.67847 C 11.4 g/m*3 19.68 C 3.52361 km/h
960 11-09-2012 00:00:00 17.74028 C 12.66 g/m*3 17.74 C 5.06389 km/h
961 12-09-2012 00:00:00 11.13646 C 9.43 g/m*3 11.14 C 3.28194 km/h
962 13-09-2012 00:00:00 10.78611 C 8.92 g/m*3 10.79 C 1.61944 km/h
963 14-09-2012 00:00:00 13.01424 C 9.51 g/m*3 13.01 C 8.50729 km/h
964 15-09-2012 00:00:00 13.44514 C 10.31 g/m*3 13.45 C 2.61597 km/h
965 16-09-2012 00:00:00 13.24236 C 9.85 g/m*3 13.24 C 1.95903 km/h
966 17-09-2012 00:00:00 15.15729 C 10.75 g/m*3 15.16 C 2.24271 km/h
967 18-09-2012 00:00:00 14.10868 C 10.23 g/m*3 14.11 C 3.36389 km/h
968 19-09-2012 00:00:00 11.7684 C 7.38 g/m*3 11.77 C 5.62153 km/h
969 20-09-2012 00:00:00 9.9566 C 6.83 g/m*3 9.96 C 3.81424 km/h
970 21-09-2012 00:00:00 10.62118 C 7.77 g/m*3 10.62 C 2.10278 km/h
971 22-09-2012 00:00:00 11.53611 C 8.31 g/m*3 11.54 C 5.85486 km/h
972 23-09-2012 00:00:00 11.58819 C 8.16 g/m*3 11.59 C 3.43542 km/h
973 24-09-2012 00:00:00 14.89201 C 10.77 g/m*3 14.89 C 6.19201 km/h
974 25-09-2012 00:00:00 12.86597 C 9.91 g/m*3 12.87 C 3.00486 km/h
975 26-09-2012 00:00:00 12.27917 C 10.31 g/m*3 12.28 C 0.45625 km/h
Sensor: Nr:Datum:Temp:Abs-Feuchte:Windchill:Wind:
Aussen-T/F 976 27-09-2012 00:00:00 12.68611 C 9.87 g/m*3 12.69 C 4.77465 km/h
977 28-09-2012 00:00:00 12.56701 C 9.49 g/m*3 12.57 C 5.41771 km/h
978 29-09-2012 00:00:00 11.68819 C 8.78 g/m*3 11.69 C 4.77674 km/h
979 30-09-2012 00:00:00 9.30035 C 8.03 g/m*3 9.3 C 1.28924 km/h
980 01-10-2012 00:00:00 9.46319 C 7.74 g/m*3 9.46 C 3.12986 km/h
981 02-10-2012 00:00:00 12.25764 C 9.17 g/m*3 12.26 C 3.29653 km/h
982 03-10-2012 00:00:00 14.55312 C 10.23 g/m*3 14.55 C 6.72014 km/h
983 04-10-2012 00:00:00 12.89722 C 9.38 g/m*3 12.9 C 9.02361 km/h
984 05-10-2012 00:00:00 13.57986 C 10.01 g/m*3 13.58 C 12.05486 km/h
985 06-10-2012 00:00:00 14.99469 C 10.77 g/m*3 14.99 C 9.95714 km/h
986 07-10-2012 00:00:00 10.63669 C 8.39 g/m*3 10.64 C 3.51583 km/h
987 08-10-2012 00:00:00 8.1958 C 7.66 g/m*3 8.2 C 0.7395 km/h
988 09-10-2012 00:00:00 10.60348 C 8.05 g/m*3 10.6 C 4.4204 km/h
989 10-10-2012 00:00:00 6.21146 C 6.73 g/m*3 6.21 C 1.03958 km/h
990 11-10-2012 00:00:00 6.67361 C 7 g/m*3 6.67 C 0.92778 km/h
991 12-10-2012 00:00:00 10.79653 C 8.89 g/m*3 10.8 C 3.08889 km/h
992 13-10-2012 00:00:00 9.08472 C 7.61 g/m*3 9.08 C 3.02778 km/h
993 14-10-2012 00:00:00 8.15833 C 7.57 g/m*3 8.16 C 2.57882 km/h
994 15-10-2012 00:00:00 7.43264 C 7.4 g/m*3 7.43 C 4.62292 km/h
995 16-10-2012 00:00:00 7.85556 C 7.35 g/m*3 7.86 C 3.77708 km/h
996 17-10-2012 00:00:00 10.85972 C 8.95 g/m*3 10.86 C 2.29583 km/h
997 18-10-2012 00:00:00 14.37569 C 10.54 g/m*3 14.38 C 2.51806 km/h
998 19-10-2012 00:00:00 14.37187 C 11 g/m*3 14.37 C 0.69618 km/h
999 20-10-2012 00:00:00 13.74722 C 11.04 g/m*3 13.75 C 0.03889 km/h
1000 21-10-2012 00:00:00 13.32917 C 10.84 g/m*3 13.33 C 0.27222 km/h
Sensor: Nr:Datum:Temp:Abs-Feuchte:Windchill:Wind:
Aussen-T/F 1001 22-10-2012 00:00:00 11.79062 C 9.89 g/m*3 11.79 C 0 km/h
1002 23-10-2012 00:00:00 11.38403 C 9.01 g/m*3 11.38 C 1.95799 km/h
1003 24-10-2012 00:00:00 9.71528 C 8.48 g/m*3 9.72 C 0.81181 km/h
1004 25-10-2012 00:00:00 9.9441 C 8.7 g/m*3 9.94 C 1.19514 km/h
1005 26-10-2012 00:00:00 6.73542 C 7.11 g/m*3 6.74 C 3.17743 km/h
1006 27-10-2012 00:00:00 2.98993 C 4.65 g/m*3 0.8 C 7.91354 km/h
1007 28-10-2012 00:00:00 0.51181 C 4.52 g/m*3 0.51 C 1.97847 km/h
1008 29-10-2012 00:00:00 0.69306 C 4.69 g/m*3 0.69 C 2.28194 km/h
1009 30-10-2012 00:00:00 6.0566 C 6.62 g/m*3 4.29 C 8.35451 km/h
1010 31-10-2012 00:00:00 5.97118 C 6.61 g/m*3 5.97 C 1.67535 km/h
1011 01-11-2012 00:00:00 7.64965 C 6.94 g/m*3 7.65 C 4.97917 km/h
1012 02-11-2012 00:00:00 7.75417 C 6.62 g/m*3 6.3 C 8.2934 km/h
1013 03-11-2012 00:00:00 7.38542 C 7.47 g/m*3 7.39 C 3.34514 km/h
1014 04-11-2012 00:00:00 7.74028 C 7.51 g/m*3 7.74 C 2.64236 km/h
1015 05-11-2012 00:00:00 8.00382 C 6.98 g/m*3 7.32 C 5.5125 km/h
1016 06-11-2012 00:00:00 6.03264 C 6.38 g/m*3 5.16 C 5.26076 km/h
1017 07-11-2012 00:00:00 8.52535 C 7.42 g/m*3 6.72 C 10.84757 km/h
1018 08-11-2012 00:00:00 8.82222 C 7.04 g/m*3 7.73 C 7.52292 km/h
1019 09-11-2012 00:00:00 8.19861 C 7.03 g/m*3 8.2 C 3.10694 km/h
1020 10-11-2012 00:00:00 8.89201 C 8.14 g/m*3 8.89 C 0.45625 km/h
1021 11-11-2012 00:00:00 8.24097 C 7.75 g/m*3 8.24 C 0.73924 km/h
1022 12-11-2012 00:00:00 5.70868 C 6.31 g/m*3 5.71 C 3.19549 km/h
1023 13-11-2012 00:00:00 3.26076 C 5.7 g/m*3 3.26 C 0.92292 km/h
1024 14-11-2012 00:00:00 2.60312 C 5.46 g/m*3 2.6 C 1.14618 km/h
1025 15-11-2012 00:00:00 4.53958 C 5.82 g/m*3 4.54 C 1.51146 km/h
Sensor: Nr:Datum:Temp:Abs-Feuchte:Windchill:Wind:
Aussen-T/F 1026 16-11-2012 00:00:00 3.22222 C 5.28 g/m*3 3.22 C 2.14722 km/h
1027 17-11-2012 00:00:00 4.33472 C 6.08 g/m*3 4.33 C 2.10972 km/h
1028 18-11-2012 00:00:00 7.54704 C 7.71 g/m*3 7.55 C 0.36794 km/h
1029 19-11-2012 00:00:00 7.68403 C 7.7 g/m*3 7.68 C 0.77222 km/h
1030 20-11-2012 00:00:00 5.27188 C 6.48 g/m*3 5.27 C 3.14861 km/h
1031 21-11-2012 00:00:00 4.38681 C 5.99 g/m*3 4.39 C 3.3559 km/h
1032 22-11-2012 00:00:00 5.51111 C 6.67 g/m*3 5.51 C 2.11458 km/h
1033 23-11-2012 00:00:00 6.88472 C 7.16 g/m*3 6.88 C 1.10556 km/h
1034 24-11-2012 00:00:00 9.16042 C 7.96 g/m*3 9.16 C 1.59861 km/h
1035 25-11-2012 00:00:00 10.6066 C 7.12 g/m*3 9.06 C 11.94444 km/h
1036 26-11-2012 00:00:00 6.01493 C 6.93 g/m*3 6.01 C 1.30035 km/h
1037 27-11-2012 00:00:00 7.67986 C 7.22 g/m*3 7.68 C 1.75139 km/h
1038 28-11-2012 00:00:00 5.5184 C 6.41 g/m*3 5.52 C 3.27431 km/h
1039 29-11-2012 00:00:00 4.01319 C 5.52 g/m*3 1.9 C 8.29063 km/h
1040 30-11-2012 00:00:00 1.44375 C 5.03 g/m*3 1.44 C 1.75 km/h
1041 01-12-2012 00:00:00 -0.39861 C 4.43 g/m*3 -0.4 C 2.91806 km/h
1042 02-12-2012 00:00:00 2.39375 C 5.11 g/m*3 0.12 C 7.84375 km/h
1043 03-12-2012 00:00:00 2.27222 C 5.07 g/m*3 0.48 C 6.28542 km/h
1044 04-12-2012 00:00:00 3.75312 C 5.6 g/m*3 1.48 C 8.7184 km/h
1045 05-12-2012 00:00:00 2.86667 C 5.34 g/m*3 2.87 C 4.58889 km/h
1046 06-12-2012 00:00:00 0.5625 C 4.27 g/m*3 -1.72 C 6.90451 km/h
1047 07-12-2012 00:00:00 -1.00382 C 4.12 g/m*3 -1 C 2.15174 km/h
1048 08-12-2012 00:00:00 -4.66111 C 3.26 g/m*3 -4.66 C 0.08333 km/h
1049 09-12-2012 00:00:00 0.22326 C 4.47 g/m*3 -3.85 C 13.50035 km/h
1050 10-12-2012 00:00:00 2.70764 C 5.07 g/m*3 -0.25 C 10.75069 km/h
Sensor: Nr:Datum:Temp:Abs-Feuchte:Windchill:Wind:
Aussen-T/F 1051 11-12-2012 00:00:00 -0.72396 C 4.01 g/m*3 -2.87 C 6.02639 km/h
1052 12-12-2012 00:00:00 -3.40937 C 3.25 g/m*3 -3.41 C 4.13333 km/h
1053 13-12-2012 00:00:00 -3.53646 C 3.35 g/m*3 -3.54 C 1.1184 km/h
1054 14-12-2012 00:00:00 2.76076 C 5.42 g/m*3 1.54 C 5.00868 km/h
1055 15-12-2012 00:00:00 6.97153 C 7.13 g/m*3 6.18 C 5.41458 km/h
1056 16-12-2012 00:00:00 6.60868 C 6.88 g/m*3 5.71 C 5.58611 km/h
1057 17-12-2012 00:00:00 6.04792 C 6.82 g/m*3 6.05 C 2.96979 km/h
1058 18-12-2012 00:00:00 5.04583 C 6.35 g/m*3 5.05 C 3.31319 km/h
1059 19-12-2012 00:00:00 3.47361 C 5.91 g/m*3 3.47 C 0.92222 km/h
1060 20-12-2012 00:00:00 1.32396 C 4.98 g/m*3 1.32 C 2.29861 km/h
1061 21-12-2012 00:00:00 3.19236 C 5.89 g/m*3 3.19 C 0.36111 km/h
1062 22-12-2012 00:00:00 6.1691 C 6.99 g/m*3 6.17 C 1.84653 km/h
1063 23-12-2012 00:00:00 11.85 C 9.58 g/m*3 11.85 C 15.18264 km/h
1064 24-12-2012 00:00:00 11.08715 C 8.45 g/m*3 11.09 C 7.6184 km/h
1065 25-12-2012 00:00:00 9.61181 C 7.49 g/m*3 7.77 C 12.47222 km/h
1066 26-12-2012 00:00:00 8.15278 C 7.03 g/m*3 5.84 C 13.57049 km/h
1067 27-12-2012 00:00:00 7.84757 C 7.13 g/m*3 6.47 C 8.02882 km/h
1068 28-12-2012 00:00:00 6.19479 C 6.89 g/m*3 6.19 C 2.91771 km/h
1069 29-12-2012 00:00:00 8.19931 C 7.74 g/m*3 8.2 C 2.85938 km/h
1070 30-12-2012 00:00:00 8.44618 C 6.53 g/m*3 5.55 C 18.77326 km/h
1071 31-12-2012 00:00:00 8.92569 C 6.72 g/m*3 7.16 C 11.08194 km/h
1072 01-01-2013 00:00:00 6.59132 C 6.43 g/m*3 5.32 C 6.8066 km/h
1073 02-01-2013 00:00:00 4.69861 C 5.74 g/m*3 2.67 C 8.42431 km/h
1074 03-01-2013 00:00:00 7.62951 C 7.31 g/m*3 5.3 C 12.87639 km/h
1075 04-01-2013 00:00:00 9.87292 C 8.57 g/m*3 9.46 C 5.51701 km/h
Sensor: Nr:Datum:Temp:Abs-Feuchte:Windchill:Wind:
Aussen-T/F 1076 05-01-2013 00:00:00 7.8816 C 7.44 g/m*3 7.88 C 4.5375 km/h
1077 06-01-2013 00:00:00 8.15069 C 7.46 g/m*3 8.15 C 4.30521 km/h
1078 07-01-2013 00:00:00 7.30764 C 7 g/m*3 7.31 C 2.31007 km/h
1079 08-01-2013 00:00:00 6.15417 C 6.34 g/m*3 4.68 C 7.27049 km/h
1080 09-01-2013 00:00:00 4.72465 C 5.87 g/m*3 3 C 7.30729 km/h
1081 10-01-2013 00:00:00 4.44028 C 5.94 g/m*3 4.44 C 4.41563 km/h
1082 11-01-2013 00:00:00 1.09201 C 4.23 g/m*3 1.09 C 3.67083 km/h
1083 12-01-2013 00:00:00 -2.64514 C 3.5 g/m*3 -2.65 C 1.35035 km/h
1084 13-01-2013 00:00:00 -3.28368 C 3.21 g/m*3 -3.28 C 2.89653 km/h
1085 14-01-2013 00:00:00 -4.44028 C 3.18 g/m*3 -4.44 C 1.45625 km/h
1086 15-01-2013 00:00:00 -2.1941 C 3.71 g/m*3 -2.19 C 1.91424 km/h
1087 16-01-2013 00:00:00 -2.65521 C 3.62 g/m*3 -2.66 C 2.82674 km/h
1088 17-01-2013 00:00:00 -2.48542 C 3.6 g/m*3 -4.86 C 5.93854 km/h
1089 18-01-2013 00:00:00 -1.70729 C 3.7 g/m*3 -1.71 C 2.83785 km/h
1090 19-01-2013 00:00:00 -2.39375 C 3.33 g/m*3 -5.12 C 6.83021 km/h
1091 20-01-2013 00:00:00 -3.06146 C 3.42 g/m*3 -5.32 C 5.52014 km/h
1092 21-01-2013 00:00:00 -0.75938 C 4.25 g/m*3 -0.76 C 0.61111 km/h
1093 22-01-2013 00:00:00 -1.20382 C 4.09 g/m*3 -1.2 C 1.26667 km/h
1094 23-01-2013 00:00:00 -1.0566 C 4.13 g/m*3 -1.06 C 0.42222 km/h
1095 24-01-2013 00:00:00 -2.40833 C 3.53 g/m*3 -2.41 C 2.43021 km/h
1096 25-01-2013 00:00:00 -2.18368 C 3.5 g/m*3 -2.18 C 2.03056 km/h
1097 26-01-2013 00:00:00 -1.99549 C 3.56 g/m*3 -2 C 4.54028 km/h
1098 27-01-2013 00:00:00 2.22882 C 4.98 g/m*3 -0.2 C 8.26007 km/h
1099 28-01-2013 00:00:00 3.96389 C 5.56 g/m*3 1.79 C 8.49444 km/h
1100 29-01-2013 00:00:00 9.00868 C 7.7 g/m*3 6.03 C 20.92743 km/h
Sensor: Nr:Datum:Temp:Abs-Feuchte:Windchill:Wind:
Aussen-T/F 1101 30-01-2013 00:00:00 11.32361 C 8.43 g/m*3 11.32 C 18.11458 km/h
1102 31-01-2013 00:00:00 7.765 C 6.15 g/m*3 4.97 C 16.45909 km/h
1103 01-02-2013 00:00:00 6.26378 C 6.79 g/m*3 4.91 C 6.90236 km/h
1104 02-02-2013 00:00:00 3.24097 C 5.3 g/m*3 1.07 C 7.99201 km/h
1105 03-02-2013 00:00:00 3.41458 C 5.15 g/m*3 0.11 C 13.16319 km/h
1106 04-02-2013 00:00:00 5.84792 C 6.43 g/m*3 3.09 C 13.14201 km/h
1107 05-02-2013 00:00:00 4.44583 C 5.17 g/m*3 1.42 C 12.87951 km/h
1108 06-02-2013 00:00:00 1.58819 C 4.94 g/m*3 1.59 C 3.79479 km/h
1109 07-02-2013 00:00:00 1.88576 C 4.99 g/m*3 0.5 C 5.12014 km/h
1110 08-02-2013 00:00:00 0.56424 C 4.61 g/m*3 0.56 C 3.95035 km/h
1111 09-02-2013 00:00:00 -0.7941 C 4.06 g/m*3 -0.79 C 1.88576 km/h
1112 10-02-2013 00:00:00 -1.98681 C 3.49 g/m*3 -1.99 C 3.66701 km/h
1113 11-02-2013 00:00:00 -0.9316 C 3.22 g/m*3 -3.01 C 5.80868 km/h
1114 12-02-2013 00:00:00 -0.84618 C 3.3 g/m*3 -2.75 C 5.42778 km/h
1115 13-02-2013 00:00:00 -0.98125 C 3.33 g/m*3 -0.98 C 1.83924 km/h
1116 14-02-2013 00:00:00 -2.40382 C 3.43 g/m*3 -2.4 C 1.51736 km/h
1117 15-02-2013 00:00:00 0.91806 C 4.82 g/m*3 0.92 C 1.25625 km/h
1118 16-02-2013 00:00:00 2.92847 C 5.66 g/m*3 2.93 C 2.14479 km/h
1119 17-02-2013 00:00:00 2.97465 C 5.51 g/m*3 2.97 C 1.93715 km/h
1120 18-02-2013 00:00:00 0.52847 C 4.51 g/m*3 0.53 C 1.4066 km/h
1121 19-02-2013 00:00:00 0.79306 C 4.7 g/m*3 0.79 C 2.49583 km/h
1122 20-02-2013 00:00:00 0.4316 C 3.97 g/m*3 0.43 C 4.04931 km/h
1123 21-02-2013 00:00:00 -1.21979 C 3.42 g/m*3 -3.12 C 5.30104 km/h
1124 22-02-2013 00:00:00 -2.3066 C 3.01 g/m*3 -5.81 C 9.10521 km/h
1125 23-02-2013 00:00:00 -2.80139 C 3.42 g/m*3 -5.68 C 7.05833 km/h
Sensor: Nr:Datum:Temp:Abs-Feuchte:Windchill:Wind:
Aussen-T/F 1126 24-02-2013 00:00:00 -0.43958 C 4.27 g/m*3 -0.44 C 1.54444 km/h
1127 25-02-2013 00:00:00 0.88785 C 4.94 g/m*3 0.89 C 0.58333 km/h
1128 26-02-2013 00:00:00 2.31215 C 5.36 g/m*3 2.31 C 2.66389 km/h
1129 27-02-2013 00:00:00 1.69271 C 4.88 g/m*3 0.12 C 5.50451 km/h
1130 28-02-2013 00:00:00 2.41771 C 5.05 g/m*3 2.42 C 1.77847 km/h
1131 01-03-2013 00:00:00 2.75278 C 4.84 g/m*3 1.23 C 5.76181 km/h
1132 02-03-2013 00:00:00 2.60208 C 4.36 g/m*3 2.6 C 3.85451 km/h
1133 03-03-2013 00:00:00 1.90104 C 4.65 g/m*3 1.9 C 2.56319 km/h
1134 04-03-2013 00:00:00 1.8934 C 4.55 g/m*3 1.89 C 2.53299 km/h
1135 05-03-2013 00:00:00 2.56979 C 4.84 g/m*3 2.57 C 1.66806 km/h
1136 06-03-2013 00:00:00 5.45035 C 5.46 g/m*3 5.45 C 1.99132 km/h
1137 07-03-2013 00:00:00 8.96146 C 6.98 g/m*3 8.96 C 1.86111 km/h
1138 08-03-2013 00:00:00 10.92049 C 8.36 g/m*3 10.92 C 2.84097 km/h
1139 09-03-2013 00:00:00 10.42118 C 8.16 g/m*3 9.66 C 7.26875 km/h
1140 10-03-2013 00:00:00 3.88611 C 5.72 g/m*3 1.99 C 7.40486 km/h
1141 11-03-2013 00:00:00 -0.5191 C 4.16 g/m*3 -3.22 C 7.61493 km/h
1142 12-03-2013 00:00:00 -2.72153 C 3.62 g/m*3 -6.29 C 9.08611 km/h
1143 13-03-2013 00:00:00 -2.95907 C 3.2 g/m*3 -2.96 C 3.44164 km/h
1144 14-03-2013 00:00:00 -1.88944 C 3.66 g/m*3 -1.89 C 4.83803 km/h
1145 15-03-2013 00:00:00 -2.50139 C 3.23 g/m*3 -2.5 C 3.97569 km/h
1146 16-03-2013 00:00:00 2.40938 C 3.77 g/m*3 1.08 C 5.14097 km/h
1147 17-03-2013 00:00:00 3.22014 C 5.2 g/m*3 1.79 C 5.6934 km/h
1148 18-03-2013 00:00:00 4.14479 C 5.29 g/m*3 4.14 C 2.925 km/h
1149 19-03-2013 00:00:00 4.10313 C 5.3 g/m*3 2.37 C 6.99549 km/h
1150 20-03-2013 00:00:00 3.59201 C 5.62 g/m*3 2.05 C 6.15208 km/h
Sensor: Nr:Datum:Temp:Abs-Feuchte:Windchill:Wind:
Aussen-T/F 1151 21-03-2013 00:00:00 1.33993 C 4.61 g/m*3 1.34 C 3.61701 km/h
1152 22-03-2013 00:00:00 1.7441 C 4.27 g/m*3 -0.36 C 6.95208 km/h
1153 23-03-2013 00:00:00 1.46875 C 3.61 g/m*3 -1.64 C 10.31771 km/h
1154 24-03-2013 00:00:00 0.48854 C 2.55 g/m*3 -3.16 C 11.78299 km/h
1155 25-03-2013 00:00:00 0.18681 C 2.77 g/m*3 -3.31 C 10.87153 km/h
1156 26-03-2013 00:00:00 0.3309 C 2.72 g/m*3 -2.84 C 9.68924 km/h
1157 27-03-2013 00:00:00 1.19896 C 3.02 g/m*3 -0.78 C 6.36007 km/h
1158 28-03-2013 00:00:00 2.07639 C 3.83 g/m*3 2.08 C 4.95278 km/h
1159 29-03-2013 00:00:00 0.53715 C 4.37 g/m*3 0.54 C 2.69028 km/h
1160 30-03-2013 00:00:00 1.50903 C 4.04 g/m*3 0.09 C 5.07465 km/h
1161 31-03-2013 00:00:00 1.17246 C 4.09 g/m*3 1.17 C 3.63333 km/h
1162 01-04-2013 00:00:00 1.44201 C 3.69 g/m*3 -0.59 C 6.61632 km/h
1163 02-04-2013 00:00:00 2.12708 C 3.49 g/m*3 -0.4 C 8.57292 km/h
1164 03-04-2013 00:00:00 1.88194 C 3.86 g/m*3 -0.19 C 6.91979 km/h
1165 04-04-2013 00:00:00 3.97465 C 4.17 g/m*3 1.28 C 10.69167 km/h
1166 05-04-2013 00:00:00 2.45382 C 4.32 g/m*3 0.51 C 6.82708 km/h
1167 06-04-2013 00:00:00 3.55104 C 5.15 g/m*3 3.55 C 3.75382 km/h
1168 07-04-2013 00:00:00 3.40382 C 4.38 g/m*3 3.4 C 3.99861 km/h
1169 08-04-2013 00:00:00 4.46979 C 4.7 g/m*3 4.47 C 4.01528 km/h
1170 09-04-2013 00:00:00 5.89479 C 6.41 g/m*3 5.89 C 2.88368 km/h
1171 10-04-2013 00:00:00 8.34653 C 7.31 g/m*3 7.21 C 7.39444 km/h
1172 11-04-2013 00:00:00 12.25972 C 8.26 g/m*3 12.26 C 8.69375 km/h
1173 12-04-2013 00:00:00 10.42708 C 8.11 g/m*3 9.5 C 8.04653 km/h
1174 13-04-2013 00:00:00 11.30243 C 7.19 g/m*3 11.3 C 13.14965 km/h
1175 14-04-2013 00:00:00 15.49271 C 9.19 g/m*3 15.49 C 5.00903 km/h
Sensor: Nr:Datum:Temp:Abs-Feuchte:Windchill:Wind:
Aussen-T/F 1176 15-04-2013 00:00:00 15.52118 C 9.73 g/m*3 15.52 C 3.96319 km/h
1177 16-04-2013 00:00:00 16.01215 C 10.01 g/m*3 16.01 C 6.64722 km/h
1178 17-04-2013 00:00:00 17.14167 C 9.47 g/m*3 17.14 C 4.36944 km/h
1179 18-04-2013 00:00:00 15.57153 C 8.25 g/m*3 15.57 C 8.59063 km/h
1180 19-04-2013 00:00:00 11.46389 C 5.86 g/m*3 11.46 C 7.37882 km/h
1181 20-04-2013 00:00:00 10.16944 C 5.86 g/m*3 9.12 C 8.41042 km/h
1182 21-04-2013 00:00:00 10.71389 C 5.87 g/m*3 10.71 C 3.64271 km/h
1183 22-04-2013 00:00:00 12.26562 C 6.5 g/m*3 12.27 C 4.57917 km/h
1184 23-04-2013 00:00:00 12.48924 C 6.91 g/m*3 12.49 C 7.44097 km/h
1185 24-04-2013 00:00:00 14.60278 C 8.68 g/m*3 14.6 C 5.08125 km/h
1186 25-04-2013 00:00:00 17.28958 C 9.5 g/m*3 17.29 C 3.36458 km/h
1187 26-04-2013 00:00:00 12.59896 C 9.36 g/m*3 12.6 C 4.20139 km/h
1188 27-04-2013 00:00:00 6.70972 C 6.74 g/m*3 5.37 C 7.12465 km/h
1189 28-04-2013 00:00:00 7.57118 C 6.7 g/m*3 7.57 C 3.89444 km/h
1190 29-04-2013 00:00:00 11.20139 C 6.8 g/m*3 11.2 C 7.63854 km/h
1191 30-04-2013 00:00:00 9.40104 C 7.1 g/m*3 9.4 C 3.25451 km/h
1192 01-05-2013 00:00:00 12.25 C 8.67 g/m*3 12.25 C 4.65035 km/h
1193 02-05-2013 00:00:00 15.26458 C 9.35 g/m*3 15.26 C 4.47986 km/h
1194 03-05-2013 00:00:00 14.28056 C 9.43 g/m*3 14.28 C 2.45799 km/h
1195 04-05-2013 00:00:00 15.30521 C 8.94 g/m*3 15.31 C 3.60069 km/h
1196 05-05-2013 00:00:00 14.71458 C 8.45 g/m*3 14.71 C 3.03507 km/h
1197 06-05-2013 00:00:00 15.4691 C 9.25 g/m*3 15.47 C 2.82361 km/h
1198 07-05-2013 00:00:00 14.47708 C 10.71 g/m*3 14.48 C 2.22049 km/h
1199 08-05-2013 00:00:00 15.69062 C 10.79 g/m*3 15.69 C 3.63333 km/h
1200 09-05-2013 00:00:00 16.1566 C 10.9 g/m*3 16.16 C 5.21563 km/h
Sensor: Nr:Datum:Temp:Abs-Feuchte:Windchill:Wind:
Aussen-T/F 1201 10-05-2013 00:00:00 13.28785 C 8.13 g/m*3 13.29 C 6.80694 km/h
1202 11-05-2013 00:00:00 12.72431 C 8.91 g/m*3 12.72 C 5.17951 km/h
1203 12-05-2013 00:00:00 9.44583 C 7.91 g/m*3 9.45 C 4.46875 km/h
1204 13-05-2013 00:00:00 11.19688 C 8.85 g/m*3 11.2 C 7.28785 km/h
1205 14-05-2013 00:00:00 12.63125 C 9.02 g/m*3 12.63 C 4.77813 km/h
1206 15-05-2013 00:00:00 13.05694 C 9.61 g/m*3 13.06 C 4.07951 km/h
1207 16-05-2013 00:00:00 13.25521 C 10.72 g/m*3 13.26 C 0.89444 km/h
1208 17-05-2013 00:00:00 10.33125 C 9.02 g/m*3 10.33 C 4.30556 km/h
1209 18-05-2013 00:00:00 13.12118 C 9.52 g/m*3 13.12 C 3.43924 km/h
1210 19-05-2013 00:00:00 13.29792 C 9.73 g/m*3 13.3 C 5.52708 km/h
1211 20-05-2013 00:00:00 10.92014 C 9.13 g/m*3 10.56 C 5.88333 km/h
1212 21-05-2013 00:00:00 12.35104 C 9.37 g/m*3 12.35 C 3.74375 km/h
1213 22-05-2013 00:00:00 9.34444 C 7.87 g/m*3 8.02 C 9.05382 km/h
1214 23-05-2013 00:00:00 7.90764 C 7.05 g/m*3 7.25 C 5.40729 km/h
1215 24-05-2013 00:00:00 7.60521 C 6.36 g/m*3 7.61 C 3.47014 km/h
1216 25-05-2013 00:00:00 8.39687 C 6.76 g/m*3 7.79 C 5.44514 km/h
1217 26-05-2013 00:00:00 8.03611 C 7.76 g/m*3 8.04 C 3.64861 km/h
1218 27-05-2013 00:00:00 12.39201 C 8.39 g/m*3 12.39 C 3.55069 km/h
1219 28-05-2013 00:00:00 13.87465 C 8.99 g/m*3 13.87 C 3.74063 km/h
1220 29-05-2013 00:00:00 10.21285 C 8.83 g/m*3 10.21 C 3.26944 km/h
1221 30-05-2013 00:00:00 11.70208 C 8.42 g/m*3 11.7 C 3.37917 km/h
1222 31-05-2013 00:00:00 13.19792 C 10.37 g/m*3 13.2 C 7.0059 km/h
1223 01-06-2013 00:00:00 12.09549 C 9.43 g/m*3 12.1 C 10.35764 km/h
1224 02-06-2013 00:00:00 13.08125 C 7.56 g/m*3 13.08 C 12.00382 km/h
1225 03-06-2013 00:00:00 12.7375 C 7.18 g/m*3 12.74 C 8.43194 km/h
Sensor: Nr:Datum:Temp:Abs-Feuchte:Windchill:Wind:
Aussen-T/F 1226 04-06-2013 00:00:00 13.85833 C 8.65 g/m*3 13.86 C 5.10764 km/h
1227 05-06-2013 00:00:00 16.28889 C 10.86 g/m*3 16.29 C 2.27986 km/h
1228 06-06-2013 00:00:00 18.00868 C 10.5 g/m*3 18.01 C 2.87396 km/h
1229 07-06-2013 00:00:00 18.14826 C 11.07 g/m*3 18.15 C 1.74549 km/h
1230 08-06-2013 00:00:00 18.53125 C 12.53 g/m*3 18.53 C 1.57326 km/h
1231 09-06-2013 00:00:00 15.18819 C 11.62 g/m*3 15.19 C 2.2816 km/h
1232 10-06-2013 00:00:00 12.77396 C 10.58 g/m*3 12.77 C 4.17083 km/h
1233 11-06-2013 00:00:00 15.40451 C 11.14 g/m*3 15.4 C 2.71146 km/h
1234 12-06-2013 00:00:00 17.48576 C 12.43 g/m*3 17.49 C 2.83299 km/h
1235 13-06-2013 00:00:00 18.45313 C 13.42 g/m*3 18.45 C 3.90278 km/h
1236 14-06-2013 00:00:00 14.47917 C 9.72 g/m*3 14.48 C 6.08194 km/h
1237 15-06-2013 00:00:00 15.22674 C 10.14 g/m*3 15.23 C 5.81354 km/h
1238 16-06-2013 00:00:00 16.60104 C 10.02 g/m*3 16.6 C 5.39375 km/h
1239 17-06-2013 00:00:00 20.99236 C 13.54 g/m*3 20.99 C 3.2 km/h
1240 18-06-2013 00:00:00 23.88576 C 16.97 g/m*3 23.89 C 1.68507 km/h
1241 19-06-2013 00:00:00 24.9691 C 18.47 g/m*3 24.97 C 2.67118 km/h
1242 20-06-2013 00:00:00 21.63299 C 15.9 g/m*3 21.63 C 5.68993 km/h
1243 21-06-2013 00:00:00 17.72778 C 12.04 g/m*3 17.73 C 8.48299 km/h
1244 22-06-2013 00:00:00 18.08576 C 11.57 g/m*3 18.09 C 8.33889 km/h
1245 23-06-2013 00:00:00 16.03403 C 10.59 g/m*3 16.03 C 10.375 km/h
1246 24-06-2013 00:00:00 14.4184 C 9.99 g/m*3 14.42 C 5.46979 km/h
1247 25-06-2013 00:00:00 13.24861 C 9.35 g/m*3 13.25 C 6.19236 km/h
1248 26-06-2013 00:00:00 12.21597 C 8.52 g/m*3 12.22 C 3.56667 km/h
1249 27-06-2013 00:00:00 12.77257 C 9.57 g/m*3 12.77 C 2.62292 km/h
1250 28-06-2013 00:00:00 12.51979 C 9.86 g/m*3 12.52 C 1.45417 km/h
Sensor: Nr:Datum:Temp:Abs-Feuchte:Windchill:Wind:
Aussen-T/F 1251 29-06-2013 00:00:00 15.31319 C 10.91 g/m*3 15.31 C 7.98785 km/h
1252 30-06-2013 00:00:00 14.36458 C 9.62 g/m*3 14.36 C 3.13125 km/h
1253 01-07-2013 00:00:00 18.46319 C 11.82 g/m*3 18.46 C 6.21563 km/h
1254 02-07-2013 00:00:00 18.88542 C 12.37 g/m*3 18.89 C 4.67674 km/h
1255 03-07-2013 00:00:00 17.18993 C 13.62 g/m*3 17.19 C 2.34757 km/h
1256 04-07-2013 00:00:00 18.03542 C 13.46 g/m*3 18.04 C 2.06667 km/h
1257 05-07-2013 00:00:00 19.17361 C 13.32 g/m*3 19.17 C 3.22257 km/h
1258 06-07-2013 00:00:00 19.30833 C 13.5 g/m*3 19.31 C 2.03646 km/h
1259 07-07-2013 00:00:00 20.55243 C 13.3 g/m*3 20.55 C 2.6066 km/h
1260 08-07-2013 00:00:00 20.53924 C 12.83 g/m*3 20.54 C 3.18889 km/h
1261 09-07-2013 00:00:00 20.80694 C 13.34 g/m*3 20.81 C 2.50417 km/h
1262 10-07-2013 00:00:00 20.12292 C 12.59 g/m*3 20.12 C 6.32708 km/h
1263 11-07-2013 00:00:00 17.10417 C 10.11 g/m*3 17.1 C 7.77361 km/h
1264 12-07-2013 00:00:00 16.90868 C 10.6 g/m*3 16.91 C 4.06806 km/h
1265 13-07-2013 00:00:00 17.26424 C 10.92 g/m*3 17.26 C 4.13056 km/h
1266 14-07-2013 00:00:00 18.30139 C 11.62 g/m*3 18.3 C 4.51667 km/h
1267 15-07-2013 00:00:00 18.85486 C 12.17 g/m*3 18.85 C 2.14375 km/h
1268 16-07-2013 00:00:00 20.18438 C 12.59 g/m*3 20.18 C 2.36528 km/h
1269 17-07-2013 00:00:00 20.29896 C 13.11 g/m*3 20.3 C 1.67361 km/h
1270 18-07-2013 00:00:00 21.84757 C 13.41 g/m*3 21.85 C 3.04896 km/h
1271 19-07-2013 00:00:00 22.12674 C 13.12 g/m*3 22.13 C 4.28438 km/h
1272 20-07-2013 00:00:00 21.31076 C 12.97 g/m*3 21.31 C 3.21632 km/h
1273 21-07-2013 00:00:00 22.30521 C 13.63 g/m*3 22.31 C 2.53507 km/h
1274 22-07-2013 00:00:00 22.41562 C 13.99 g/m*3 22.42 C 1.1625 km/h
1275 23-07-2013 00:00:00 21.37396 C 16.19 g/m*3 21.37 C 1.17778 km/h
Sensor: Nr:Datum:Temp:Abs-Feuchte:Windchill:Wind:
Aussen-T/F 1276 24-07-2013 00:00:00 21.35972 C 14.98 g/m*3 21.36 C 2.76215 km/h
1277 25-07-2013 00:00:00 20.88542 C 15.71 g/m*3 20.89 C 2.75972 km/h
1278 26-07-2013 00:00:00 21.25729 C 17.68 g/m*3 21.26 C 0.35069 km/h
1279 27-07-2013 00:00:00 23.54236 C 17.99 g/m*3 23.54 C 1.32257 km/h
1280 28-07-2013 00:00:00 21.69965 C 15.72 g/m*3 21.7 C 2.70243 km/h
1281 29-07-2013 00:00:00 19.41007 C 14.76 g/m*3 19.41 C 2.68819 km/h
1282 30-07-2013 00:00:00 18.99028 C 12.87 g/m*3 18.99 C 7.63472 km/h
1283 31-07-2013 00:00:00 20.83715 C 13.69 g/m*3 20.84 C 6.94861 km/h
1284 01-08-2013 00:00:00 21.89653 C 14.48 g/m*3 21.9 C 2.16528 km/h
1285 02-08-2013 00:00:00 23.37049 C 15.2 g/m*3 23.37 C 1.39965 km/h
1286 03-08-2013 00:00:00 21.1934 C 15.86 g/m*3 21.19 C 2.96806 km/h
1287 04-08-2013 00:00:00 19.79549 C 13.33 g/m*3 19.8 C 1.96215 km/h
1288 05-08-2013 00:00:00 20.42639 C 13.99 g/m*3 20.43 C 1.52743 km/h
1289 06-08-2013 00:00:00 19.98646 C 15.18 g/m*3 19.99 C 1.09167 km/h
1290 07-08-2013 00:00:00 18.91562 C 14.85 g/m*3 18.92 C 1.53299 km/h
1291 08-08-2013 00:00:00 16.92118 C 12.43 g/m*3 16.92 C 3.85278 km/h
1292 09-08-2013 00:00:00 16.41597 C 12.03 g/m*3 16.42 C 1.0059 km/h
1293 10-08-2013 00:00:00 18.10764 C 11.49 g/m*3 18.11 C 5.9184 km/h
1294 11-08-2013 00:00:00 16.80278 C 9.89 g/m*3 16.8 C 1.95069 km/h
1295 12-08-2013 00:00:00 15.88229 C 11.31 g/m*3 15.88 C 2.28889 km/h
1296 13-08-2013 00:00:00 15.61319 C 10.88 g/m*3 15.61 C 3.40556 km/h
1297 14-08-2013 00:00:00 14.4559 C 10.12 g/m*3 14.46 C 1.75868 km/h
1298 15-08-2013 00:00:00 16.30035 C 10.81 g/m*3 16.3 C 2.31493 km/h
1299 16-08-2013 00:00:00 17.96319 C 11.55 g/m*3 17.96 C 1.35556 km/h
1300 17-08-2013 00:00:00 20.47965 C 12.53 g/m*3 20.48 C 4.24526 km/h
Sensor: Nr:Datum:Temp:Abs-Feuchte:Windchill:Wind:
Aussen-T/F 1301 18-08-2013 00:00:00 19.29614 C 13.67 g/m*3 19.3 C 3.05719 km/h
1302 19-08-2013 00:00:00 17.75764 C 12.15 g/m*3 17.76 C 5.06181 km/h
1303 20-08-2013 00:00:00 14.96458 C 10.19 g/m*3 14.96 C 2.29271 km/h
1304 21-08-2013 00:00:00 15.16285 C 10.59 g/m*3 15.16 C 1.31319 km/h
1305 22-08-2013 00:00:00 16.33576 C 11.62 g/m*3 16.34 C 0.65174 km/h
1306 23-08-2013 00:00:00 18.61667 C 12.23 g/m*3 18.62 C 1.88576 km/h
1307 24-08-2013 00:00:00 16.10208 C 12.3 g/m*3 16.1 C 0.76215 km/h
1308 25-08-2013 00:00:00 16.06806 C 13.03 g/m*3 16.07 C 1.65278 km/h
1309 26-08-2013 00:00:00 15.16806 C 12.51 g/m*3 15.17 C 0.49653 km/h
1310 27-08-2013 00:00:00 15.88472 C 12.17 g/m*3 15.88 C 0.52326 km/h
1311 28-08-2013 00:00:00 15.65312 C 11.67 g/m*3 15.65 C 0.80104 km/h
1312 29-08-2013 00:00:00 14.74062 C 11.39 g/m*3 14.74 C 0.5566 km/h
1313 30-08-2013 00:00:00 15.73924 C 11.78 g/m*3 15.74 C 0.6184 km/h
1314 31-08-2013 00:00:00 16.33229 C 12 g/m*3 16.33 C 2.64583 km/h
1315 01-09-2013 00:00:00 14.50938 C 9.15 g/m*3 14.51 C 3.89063 km/h
1316 02-09-2013 00:00:00 17.48924 C 10.42 g/m*3 17.49 C 5.84549 km/h
1317 03-09-2013 00:00:00 18.08299 C 12.45 g/m*3 18.08 C 2.6309 km/h
1318 04-09-2013 00:00:00 17.74583 C 12.89 g/m*3 17.75 C 1.16979 km/h
1319 05-09-2013 00:00:00 18.47349 C 13.35 g/m*3 18.47 C 2.29116 km/h
1320 06-09-2013 00:00:00 22.68615 C 15 g/m*3 22.69 C 1.85333 km/h
1321 07-09-2013 00:00:00 18.36354 C 14.36 g/m*3 18.36 C 1.44931 km/h
1322 08-09-2013 00:00:00 14.78542 C 11.89 g/m*3 14.79 C 3.23819 km/h
1323 09-09-2013 00:00:00 14.16944 C 10.6 g/m*3 14.17 C 3.4941 km/h
1324 10-09-2013 00:00:00 13.35073 C 9.56 g/m*3 13.35 C 7.72226 km/h
1325 11-09-2013 00:00:00 13.00912 C 9.96 g/m*3 13.01 C 7.57591 km/h
Sensor: Nr:Datum:Temp:Abs-Feuchte:Windchill:Wind:
Aussen-T/F 1326 12-09-2013 00:00:00 13.53472 C 10.87 g/m*3 13.53 C 2.41944 km/h
1327 13-09-2013 00:00:00 14.67363 C 11.11 g/m*3 14.67 C 3.42674 km/h
1328 14-09-2013 00:00:00 15.8191 C 12.55 g/m*3 15.82 C 2.43368 km/h
1329 15-09-2013 00:00:00 14.41667 C 10.8 g/m*3 14.42 C 2.04618 km/h
1330 16-09-2013 00:00:00 13.23333 C 9.36 g/m*3 13.23 C 8.13646 km/h
1331 17-09-2013 00:00:00 10.58958 C 8.06 g/m*3 9.56 C 8.7316 km/h
1332 18-09-2013 00:00:00 12.57951 C 10.26 g/m*3 12.58 C 3.60243 km/h
1333 19-09-2013 00:00:00 11.89444 C 9.17 g/m*3 11.89 C 4.18056 km/h
1334 20-09-2013 00:00:00 13.91806 C 10.29 g/m*3 13.92 C 6.2375 km/h
1335 21-09-2013 00:00:00 12.20868 C 9.83 g/m*3 12.21 C 2.10417 km/h
1336 22-09-2013 00:00:00 13.16156 C 10.46 g/m*3 13.16 C 0.93941 km/h
1337 23-09-2013 00:00:00 15.46493 C 11.75 g/m*3 15.46 C 1.45104 km/h
1338 24-09-2013 00:00:00 12.34792 C 10.31 g/m*3 12.35 C 0.75 km/h
1339 25-09-2013 00:00:00 14.08646 C 11.46 g/m*3 14.09 C 0.52847 km/h
1340 26-09-2013 00:00:00 14.58924 C 11.4 g/m*3 14.59 C 2.53715 km/h
1341 27-09-2013 00:00:00 11.25312 C 9.06 g/m*3 11.25 C 1.41875 km/h
1342 28-09-2013 00:00:00 10.575 C 8.62 g/m*3 10.58 C 1.40857 km/h
1343 29-09-2013 00:00:00 11.89028 C 9.01 g/m*3 11.89 C 2.28715 km/h
1344 30-09-2013 00:00:00 9.80833 C 8.09 g/m*3 9.81 C 1.37847 km/h
1345 01-10-2013 00:00:00 11.38264 C 8.26 g/m*3 11.38 C 3.07465 km/h
1346 02-10-2013 00:00:00 9.01493 C 7.25 g/m*3 9.01 C 1.96285 km/h
1347 03-10-2013 00:00:00 8.84479 C 7.07 g/m*3 8.84 C 1.59028 km/h
1348 04-10-2013 00:00:00 11.33993 C 9.37 g/m*3 11.34 C 0.21111 km/h
1349 05-10-2013 00:00:00 12.69583 C 10.86 g/m*3 12.7 C 0.31181 km/h
1350 06-10-2013 00:00:00 13.60313 C 10.91 g/m*3 13.6 C 2.27882 km/h
Sensor: Nr:Datum:Temp:Abs-Feuchte:Windchill:Wind:
Aussen-T/F 1351 07-10-2013 00:00:00 13.21667 C 10.88 g/m*3 13.22 C 0.26667 km/h
1352 08-10-2013 00:00:00 12.77764 C 10.78 g/m*3 12.78 C 0 km/h
1353 09-10-2013 00:00:00 13.86667 C 10.96 g/m*3 13.87 C 2.74792 km/h
1354 10-10-2013 00:00:00 8.4625 C 8.06 g/m*3 8.46 C 2.30625 km/h
1355 11-10-2013 00:00:00 6.82419 C 7.44 g/m*3 6.82 C 0.21949 km/h
1356 12-10-2013 00:00:00 6.31215 C 7.05 g/m*3 6.31 C 0.87882 km/h
1357 13-10-2013 00:00:00 7.69167 C 7.3 g/m*3 7.69 C 1.92431 km/h
1358 14-10-2013 00:00:00 9.89091 C 8.61 g/m*3 9.89 C 1.40873 km/h
1359 15-10-2013 00:00:00 10.43275 C 9.1 g/m*3 10.43 C 2.93873 km/h
1360 16-10-2013 00:00:00 10.04523 C 9.04 g/m*3 10.05 C 0.72403 km/h
1361 17-10-2013 00:00:00 12.70972 C 9.88 g/m*3 12.71 C 9.25174 km/h
1362 18-10-2013 00:00:00 11.80868 C 10.08 g/m*3 11.81 C 0.51215 km/h
1363 19-10-2013 00:00:00 11.72702 C 10 g/m*3 11.73 C 0.73649 km/h
1364 20-10-2013 00:00:00 15.28507 C 12.24 g/m*3 15.29 C 1.55521 km/h
1365 21-10-2013 00:00:00 15.075 C 11.59 g/m*3 15.08 C 2.91146 km/h
1366 22-10-2013 00:00:00 15.7614 C 12.32 g/m*3 15.76 C 1.24526 km/h
1367 23-10-2013 00:00:00 15.81476 C 12.49 g/m*3 15.81 C 2.65055 km/h
1368 24-10-2013 00:00:00 13.67431 C 11.29 g/m*3 13.67 C 0.99618 km/h
1369 25-10-2013 00:00:00 13.01701 C 11 g/m*3 13.02 C 0.45 km/h
1370 26-10-2013 00:00:00 16.40963 C 13.29 g/m*3 16.41 C 1.84704 km/h
1371 27-10-2013 00:00:00 14.94896 C 10.73 g/m*3 14.95 C 10.93333 km/h
1372 28-10-2013 00:00:00 15.40962 C 10.27 g/m*3 15.41 C 14.48615 km/h
1373 29-10-2013 00:00:00 11.12569 C 7.82 g/m*3 11.13 C 8.91462 km/h
1374 30-10-2013 00:00:00 7.81825 C 7.08 g/m*3 7.82 C 4.29333 km/h
1375 31-10-2013 00:00:00 5.27708 C 6.53 g/m*3 5.28 C 1.08333 km/h
Sensor: Nr:Datum:Temp:Abs-Feuchte:Windchill:Wind:
Aussen-T/F 1376 01-11-2013 00:00:00 9.4316 C 8.11 g/m*3 9.43 C 0.86771 km/h
1377 02-11-2013 00:00:00 12.79889 C 10.13 g/m*3 12.8 C 7.44059 km/h
1378 03-11-2013 00:00:00 9.93611 C 7.83 g/m*3 8.44 C 10.69653 km/h
1379 04-11-2013 00:00:00 9.80526 C 8.08 g/m*3 8.5 C 9.43228 km/h
1380 05-11-2013 00:00:00 6.72153 C 6.66 g/m*3 5.55 C 6.49792 km/h
1381 06-11-2013 00:00:00 10.70504 C 8.72 g/m*3 10.03 C 7.0759 km/h
1382 07-11-2013 00:00:00 15.04132 C 10.87 g/m*3 15.04 C 15.81458 km/h
1383 08-11-2013 00:00:00 11.92093 C 9.87 g/m*3 11.92 C 4.78744 km/h
1384 09-11-2013 00:00:00 9.48785 C 7.37 g/m*3 8.08 C 9.67049 km/h
1385 10-11-2013 00:00:00 6.68715 C 6.91 g/m*3 6.69 C 4.28229 km/h
1386 11-11-2013 00:00:00 4.00764 C 6.13 g/m*3 4.01 C 2.81111 km/h
1387 12-11-2013 00:00:00 4.41146 C 6.13 g/m*3 4.41 C 0.99514 km/h
1388 13-11-2013 00:00:00 6.28491 C 6.92 g/m*3 6.28 C 1.42316 km/h
1389 14-11-2013 00:00:00 3.2816 C 5.76 g/m*3 3.28 C 2.33993 km/h
1390 15-11-2013 00:00:00 4.99201 C 6.15 g/m*3 4.99 C 1.86563 km/h
1391 16-11-2013 00:00:00 3.05 C 5.48 g/m*3 3.05 C 1.77361 km/h
1392 17-11-2013 00:00:00 3.2184 C 5.71 g/m*3 3.22 C 1.06771 km/h
1393 18-11-2013 00:00:00 5.38287 C 6.56 g/m*3 5.38 C 0.56813 km/h
1394 19-11-2013 00:00:00 6.22 C 6.74 g/m*3 6.22 C 1.29471 km/h
1395 20-11-2013 00:00:00 3.96643 C 5.82 g/m*3 3.97 C 3.58671 km/h
1396 21-11-2013 00:00:00 4.05603 C 5.71 g/m*3 4.06 C 2.84009 km/h
1397 22-11-2013 00:00:00 4.42 C 5.66 g/m*3 2.31 C 8.53545 km/h
1398 23-11-2013 00:00:00 7.03092 C 6.75 g/m*3 5.58 C 7.75921 km/h
1399 24-11-2013 00:00:00 5.71435 C 6.3 g/m*3 4.64 C 5.71696 km/h
1400 25-11-2013 00:00:00 2.65439 C 5.42 g/m*3 2.65 C 3.61404 km/h
Sensor: Nr:Datum:Temp:Abs-Feuchte:Windchill:Wind:
Aussen-T/F 1401 26-11-2013 00:00:00 0.53125 C 4.75 g/m*3 0.53 C 1.94514 km/h
1402 27-11-2013 00:00:00 0.63854 C 4.68 g/m*3 0.64 C 2.05833 km/h
1403 28-11-2013 00:00:00 3.45709 C 5.78 g/m*3 3.46 C 2.96716 km/h
1404 29-11-2013 00:00:00 5.6434 C 6.49 g/m*3 4.28 C 6.57743 km/h
1405 30-11-2013 00:00:00 4.32604 C 6.09 g/m*3 4.33 C 2.40104 km/h
1406 01-12-2013 00:00:00 5.01254 C 6.44 g/m*3 5.01 C 1.523 km/h
1407 02-12-2013 00:00:00 4.76458 C 6.22 g/m*3 4.76 C 1.37917 km/h
1408 03-12-2013 00:00:00 -0.45729 C 4.56 g/m*3 -0.46 C 0.1 km/h
1409 04-12-2013 00:00:00 3.27917 C 5.57 g/m*3 0.98 C 8.47882 km/h
1410 05-12-2013 00:00:00 3.93475 C 5.57 g/m*3 0.58 C 14.12518 km/h
1411 06-12-2013 00:00:00 3.76181 C 4.69 g/m*3 0.48 C 13.48472 km/h
1412 07-12-2013 00:00:00 4.38715 C 5.6 g/m*3 2.16 C 9.01424 km/h
1413 08-12-2013 00:00:00 6.92188 C 6.74 g/m*3 4.84 C 10.57882 km/h
1414 09-12-2013 00:00:00 6.42222 C 6.28 g/m*3 4.68 C 8.52708 km/h
1415 10-12-2013 00:00:00 3.24896 C 5.8 g/m*3 3.25 C 1.09479 km/h
1416 11-12-2013 00:00:00 3.72465 C 6.03 g/m*3 3.72 C 2.77604 km/h
1417 12-12-2013 00:00:00 4.08993 C 5.9 g/m*3 4.09 C 2.24549 km/h
1418 13-12-2013 00:00:00 2.65694 C 5.26 g/m*3 1.37 C 5.13403 km/h
1419 14-12-2013 00:00:00 3.58986 C 5.73 g/m*3 1.76 C 7.02797 km/h
1420 15-12-2013 00:00:00 4.99688 C 5.84 g/m*3 3.97 C 5.28368 km/h
1421 16-12-2013 00:00:00 1.49676 C 5.08 g/m*3 1.5 C 0.97266 km/h
1422 17-12-2013 00:00:00 1.25451 C 5.04 g/m*3 1.25 C 0.84444 km/h
1423 18-12-2013 00:00:00 4.19965 C 6.07 g/m*3 4.2 C 2.15417 km/h
1424 19-12-2013 00:00:00 8.13715 C 7.36 g/m*3 7.35 C 5.92014 km/h
1425 20-12-2013 00:00:00 4.38403 C 6.02 g/m*3 4.38 C 3.57188 km/h
Sensor: Nr:Datum:Temp:Abs-Feuchte:Windchill:Wind:
Aussen-T/F 1426 21-12-2013 00:00:00 4.81354 C 5.49 g/m*3 4.81 C 3.15104 km/h
1427 22-12-2013 00:00:00 8.81493 C 7.21 g/m*3 6.93 C 11.70313 km/h
1428 23-12-2013 00:00:00 8.42341 C 7.27 g/m*3 7.4 C 6.9496 km/h
1429 24-12-2013 00:00:00 11.57579 C 7.64 g/m*3 11.58 C 8.18772 km/h
1430 25-12-2013 00:00:00 8.41944 C 7.85 g/m*3 8.42 C 4.39444 km/h
1431 26-12-2013 00:00:00 6.06579 C 6.91 g/m*3 6.07 C 1.59699 km/h
1432 27-12-2013 00:00:00 6.6549 C 6.45 g/m*3 5.63 C 5.98392 km/h
1433 28-12-2013 00:00:00 9.14444 C 8.02 g/m*3 9.14 C 4.03472 km/h
1434 29-12-2013 00:00:00 4.76463 C 6.29 g/m*3 4.76 C 4.79268 km/h
1435 30-12-2013 00:00:00 4.17107 C 5.77 g/m*3 4.17 C 2.72893 km/h
1436 31-12-2013 00:00:00 2.91045 C 5.29 g/m*3 2.91 C 3.21418 km/h
1437 01-01-2014 00:00:00 6.46912 C 6.47 g/m*3 6.47 C 3.35754 km/h
1438 02-01-2014 00:00:00 8.31947 C 7.47 g/m*3 7.64 C 5.65573 km/h
1439 03-01-2014 00:00:00 8.74861 C 7.51 g/m*3 7.72 C 7.20556 km/h
1440 04-01-2014 00:00:00 7.47049 C 7.08 g/m*3 7.47 C 3.99826 km/h
1441 05-01-2014 00:00:00 6.12632 C 6.69 g/m*3 6.13 C 4.07456 km/h
1442 06-01-2014 00:00:00 8.33819 C 7.53 g/m*3 8.34 C 3.18299 km/h
1443 07-01-2014 00:00:00 10.72882 C 8.44 g/m*3 10.36 C 5.81111 km/h
1444 08-01-2014 00:00:00 10.3965 C 8.37 g/m*3 9.96 C 5.86887 km/h
1445 09-01-2014 00:00:00 9.27876 C 7.72 g/m*3 7.97 C 8.92394 km/h
1446 10-01-2014 00:00:00 5.59896 C 6.15 g/m*3 4.44 C 5.90833 km/h
1447 11-01-2014 00:00:00 3.80382 C 5.85 g/m*3 3.8 C 3.58785 km/h
1448 12-01-2014 00:00:00 0.34545 C 4.82 g/m*3 0.35 C 3.49273 km/h
1449 13-01-2014 00:00:00 3.73194 C 5.99 g/m*3 3.73 C 1.58333 km/h
1450 14-01-2014 00:00:00 5.06036 C 6.44 g/m*3 5.06 C 2.20786 km/h
Sensor: Nr:Datum:Temp:Abs-Feuchte:Windchill:Wind:
Aussen-T/F 1451 15-01-2014 00:00:00 4.1934 C 5.92 g/m*3 4.19 C 2.33889 km/h
1452 16-01-2014 00:00:00 6.5375 C 7.02 g/m*3 6.54 C 1.6691 km/h
1453 17-01-2014 00:00:00 6.75 C 7.07 g/m*3 6.75 C 2.30069 km/h
1454 18-01-2014 00:00:00 4.5321 C 5.96 g/m*3 4.53 C 2.73542 km/h
1455 19-01-2014 00:00:00 4.621 C 6.1 g/m*3 4.62 C 1.49075 km/h
1456 20-01-2014 00:00:00 4.32836 C 6.15 g/m*3 4.33 C 0.99142 km/h
1457 21-01-2014 00:00:00 3.49792 C 5.76 g/m*3 3.5 C 2.23125 km/h
1458 22-01-2014 00:00:00 3.18571 C 5.74 g/m*3 3.19 C 1.40879 km/h
1459 23-01-2014 00:00:00 3.72927 C 5.76 g/m*3 3.73 C 3.97378 km/h
1460 24-01-2014 00:00:00 3.90268 C 5.91 g/m*3 3.9 C 3.03973 km/h
1461 25-01-2014 00:00:00 2.8165 C 5.57 g/m*3 2.82 C 2.214 km/h
1462 26-01-2014 00:00:00 5.11851 C 5.71 g/m*3 2.72 C 10.35303 km/h
1463 27-01-2014 00:00:00 4.4199 C 5.7 g/m*3 3 C 6.15707 km/h
1464 28-01-2014 00:00:00 2.36869 C 5.06 g/m*3 2.37 C 3.98485 km/h
1465 29-01-2014 00:00:00 1.54036 C 4.62 g/m*3 1.54 C 2.99337 km/h
1466 30-01-2014 00:00:00 1.98611 C 4.67 g/m*3 1.99 C 1.79514 km/h
1467 31-01-2014 00:00:00 1.03819 C 4.74 g/m*3 1.04 C 1.72639 km/h
1468 01-02-2014 00:00:00 4.63819 C 5.96 g/m*3 4.64 C 4.17222 km/h
1469 02-02-2014 00:00:00 4.14306 C 5.78 g/m*3 4.14 C 2.70799 km/h
1470 03-02-2014 00:00:00 1.00938 C 4.96 g/m*3 1.01 C 0.88507 km/h
1471 04-02-2014 00:00:00 4.28785 C 5.81 g/m*3 4.29 C 3.05972 km/h
1472 05-02-2014 00:00:00 4.74236 C 5.99 g/m*3 4.74 C 4.65208 km/h
1473 06-02-2014 00:00:00 8.42431 C 6.51 g/m*3 6.9 C 9.20139 km/h
1474 07-02-2014 00:00:00 8.79132 C 6.82 g/m*3 6.52 C 14.24271 km/h
1475 08-02-2014 00:00:00 6.5309 C 6.29 g/m*3 5.42 C 6.21354 km/h
Sensor: Nr:Datum:Temp:Abs-Feuchte:Windchill:Wind:
Aussen-T/F 1476 09-02-2014 00:00:00 5.34375 C 5.63 g/m*3 3.04 C 10.14965 km/h
1477 10-02-2014 00:00:00 3.38819 C 5.32 g/m*3 3.39 C 3.02986 km/h
1478 11-02-2014 00:00:00 5.41354 C 5.75 g/m*3 3.82 C 7.2441 km/h
1479 12-02-2014 00:00:00 5.44028 C 5.68 g/m*3 3.83 C 7.31285 km/h
1480 13-02-2014 00:00:00 5.71771 C 6.3 g/m*3 4.48 C 6.20938 km/h
1481 14-02-2014 00:00:00 5.64722 C 6.08 g/m*3 4.57 C 5.69097 km/h
1482 15-02-2014 00:00:00 9.71993 C 7.32 g/m*3 7.97 C 12.06259 km/h
1483 16-02-2014 00:00:00 7.36493 C 6.39 g/m*3 5.3 C 10.96667 km/h
1484 17-02-2014 00:00:00 3.59861 C 5.68 g/m*3 3.6 C 3.35451 km/h
1485 18-02-2014 00:00:00 3.38715 C 5.74 g/m*3 3.39 C 0.58889 km/h
1486 19-02-2014 00:00:00 7.825 C 6.95 g/m*3 6.94 C 6.10556 km/h
1487 20-02-2014 00:00:00 8.68958 C 7.14 g/m*3 8.69 C 4.11389 km/h
1488 21-02-2014 00:00:00 7.64062 C 6.83 g/m*3 6.12 C 8.5 km/h
1489 22-02-2014 00:00:00 4.99861 C 5.92 g/m*3 5 C 4.85625 km/h
1490 23-02-2014 00:00:00 5.94204 C 6.05 g/m*3 5.94 C 3.95837 km/h
1491 24-02-2014 00:00:00 5.86389 C 5.82 g/m*3 5.86 C 3.95417 km/h
1492 25-02-2014 00:00:00 6.68681 C 6.24 g/m*3 6.69 C 2.88125 km/h
1493 26-02-2014 00:00:00 8.58182 C 7 g/m*3 8.58 C 3.96073 km/h
1494 27-02-2014 00:00:00 5.86275 C 6.06 g/m*3 5.86 C 4.0698 km/h
1495 28-02-2014 00:00:00 6.2146 C 6.46 g/m*3 6.21 C 4.10803 km/h
1496 01-03-2014 00:00:00 5.44375 C 6.19 g/m*3 5.44 C 2.29063 km/h
1497 02-03-2014 00:00:00 3.55069 C 5.4 g/m*3 3.55 C 3.54792 km/h
1498 03-03-2014 00:00:00 5.27743 C 6 g/m*3 5.28 C 4.38819 km/h
1499 04-03-2014 00:00:00 4.21701 C 5.59 g/m*3 4.22 C 1.77361 km/h
1500 05-03-2014 00:00:00 4.68235 C 5.76 g/m*3 4.68 C 3.45255 km/h
Sensor: Nr:Datum:Temp:Abs-Feuchte:Windchill:Wind:
Aussen-T/F 1501 06-03-2014 00:00:00 3.87951 C 5.64 g/m*3 3.88 C 2.34132 km/h
1502 07-03-2014 00:00:00 6.23037 C 5.95 g/m*3 6.23 C 2.73598 km/h
1503 08-03-2014 00:00:00 7.3847 C 6.36 g/m*3 7.38 C 2.94128 km/h
1504 09-03-2014 00:00:00 7.27263 C 6.03 g/m*3 7.27 C 1.91719 km/h
1505 10-03-2014 00:00:00 7.44444 C 6.02 g/m*3 7.44 C 1.56215 km/h
1506 11-03-2014 00:00:00 8.4184 C 6.68 g/m*3 8.42 C 2.50833 km/h
1507 12-03-2014 00:00:00 9.07812 C 6.57 g/m*3 9.08 C 3.14514 km/h
1508 13-03-2014 00:00:00 8.16007 C 6.13 g/m*3 8.16 C 1.86285 km/h
1509 14-03-2014 00:00:00 7.91944 C 6.32 g/m*3 7.92 C 1.97257 km/h
1510 15-03-2014 00:00:00 8.97326 C 6.8 g/m*3 7.55 C 9.24688 km/h
1511 16-03-2014 00:00:00 11.50486 C 7.98 g/m*3 11.5 C 10.7066 km/h
1512 17-03-2014 00:00:00 10.27882 C 7.8 g/m*3 9.64 C 6.60521 km/h
1513 18-03-2014 00:00:00 9.4066 C 7.54 g/m*3 8.34 C 7.87396 km/h
1514 19-03-2014 00:00:00 12.2875 C 7.65 g/m*3 12.29 C 12.05278 km/h
1515 20-03-2014 00:00:00 12.49333 C 7.39 g/m*3 12.49 C 4.57649 km/h
1516 21-03-2014 00:00:00 13.1375 C 7.61 g/m*3 13.14 C 12.57292 km/h
1517 22-03-2014 00:00:00 8.65208 C 7.16 g/m*3 8.02 C 5.64896 km/h
1518 23-03-2014 00:00:00 6.03507 C 5.93 g/m*3 4.78 C 6.43368 km/h
1519 24-03-2014 00:00:00 5.42632 C 5.64 g/m*3 5.43 C 3.85123 km/h
1520 25-03-2014 00:00:00 4.1625 C 5.3 g/m*3 4.16 C 3.18993 km/h
1521 26-03-2014 00:00:00 4.56076 C 5.2 g/m*3 4.56 C 2.72917 km/h
1522 27-03-2014 00:00:00 8.14604 C 6.15 g/m*3 7.52 C 5.39424 km/h
1523 28-03-2014 00:00:00 10.60972 C 6.49 g/m*3 10.21 C 5.86875 km/h
1524 29-03-2014 00:00:00 10.34963 C 6.78 g/m*3 10.35 C 4.26728 km/h
1525 30-03-2014 00:00:00 9.15619 C 6.78 g/m*3 9.16 C 1.20571 km/h
Sensor: Nr:Datum:Temp:Abs-Feuchte:Windchill:Wind:
Aussen-T/F 1526 31-03-2014 00:00:00 12.96562 C 7.46 g/m*3 12.97 C 2.47465 km/h
1527 01-04-2014 00:00:00 13.77519 C 8.06 g/m*3 13.78 C 1.80534 km/h
1528 02-04-2014 00:00:00 13.90458 C 8.27 g/m*3 13.9 C 3.20599 km/h
1529 03-04-2014 00:00:00 12.54324 C 8.55 g/m*3 12.54 C 1.61982 km/h
1530 04-04-2014 00:00:00 14.95971 C 9.58 g/m*3 14.96 C 3.16978 km/h
1531 05-04-2014 00:00:00 13.00531 C 9.79 g/m*3 13.01 C 5.39306 km/h
1532 06-04-2014 00:00:00 11.67782 C 8.68 g/m*3 11.68 C 3.62929 km/h
1533 07-04-2014 00:00:00 15.95041 C 10.25 g/m*3 15.95 C 3.93156 km/h
1534 08-04-2014 00:00:00 12.18521 C 7.24 g/m*3 12.19 C 11.97359 km/h
1535 09-04-2014 00:00:00 9.27426 C 6.81 g/m*3 8.78 C 5.50551 km/h
1536 10-04-2014 00:00:00 10.31543 C 7.39 g/m*3 10.32 C 4.19383 km/h
1537 11-04-2014 00:00:00 14.56849 C 9.05 g/m*3 14.57 C 5.96781 km/h
1538 12-04-2014 00:00:00 12.65368 C 7.87 g/m*3 12.65 C 4.22737 km/h
1539 13-04-2014 00:00:00 11.60669 C 7.39 g/m*3 11.61 C 4.19718 km/h
1540 14-04-2014 00:00:00 9.7593 C 6.59 g/m*3 8.1 C 11.48316 km/h
1541 15-04-2014 00:00:00 7.10171 C 5.76 g/m*3 5.67 C 7.72051 km/h
1542 16-04-2014 00:00:00 12.97192 C 5.6 g/m*3 12.97 C 7.55616 km/h
1543 17-04-2014 00:00:00 9.85313 C 5.89 g/m*3 9.85 C 3.16701 km/h
1544 18-04-2014 00:00:00 10.72049 C 6.38 g/m*3 9.49 C 10.00833 km/h
1545 19-04-2014 00:00:00 10.82049 C 7.12 g/m*3 10.39 C 6.11667 km/h
1546 20-04-2014 00:00:00 14.91825 C 9 g/m*3 14.92 C 4.86456 km/h
1547 21-04-2014 00:00:00 12.49479 C 8.57 g/m*3 12.49 C 3.51771 km/h
1548 22-04-2014 00:00:00 12.82847 C 9.61 g/m*3 12.83 C 3.55035 km/h
1549 23-04-2014 00:00:00 13.43958 C 9.46 g/m*3 13.44 C 1.6441 km/h
1550 24-04-2014 00:00:00 15.42535 C 10.4 g/m*3 15.43 C 2.21042 km/h
Sensor: Nr:Datum:Temp:Abs-Feuchte:Windchill:Wind:
Aussen-T/F 1551 25-04-2014 00:00:00 16.71562 C 10.55 g/m*3 16.72 C 3.36146 km/h
1552 26-04-2014 00:00:00 15.2 C 9.7 g/m*3 15.2 C 2.60104 km/h
1553 27-04-2014 00:00:00 13.07674 C 9.32 g/m*3 13.08 C 3.42431 km/h
1554 28-04-2014 00:00:00 12.80243 C 8.95 g/m*3 12.8 C 2.25833 km/h
1555 29-04-2014 00:00:00 13.43403 C 10.52 g/m*3 13.43 C 1.52569 km/h
1556 30-04-2014 00:00:00 14.53507 C 10.56 g/m*3 14.54 C 2.55104 km/h
1557 01-05-2014 00:00:00 14.73611 C 10.27 g/m*3 14.74 C 2.21319 km/h
1558 02-05-2014 00:00:00 11.71319 C 9.07 g/m*3 11.71 C 6.17083 km/h
1559 03-05-2014 00:00:00 10.92708 C 6.08 g/m*3 10.11 C 7.92431 km/h
1560 04-05-2014 00:00:00 9.61042 C 6.24 g/m*3 9.61 C 2.69861 km/h
1561 05-05-2014 00:00:00 12.60069 C 7.47 g/m*3 12.6 C 2.60382 km/h
1562 06-05-2014 00:00:00 13.72083 C 8.81 g/m*3 13.72 C 4.4684 km/h
1563 07-05-2014 00:00:00 13.05764 C 9.67 g/m*3 13.06 C 5.52396 km/h
1564 08-05-2014 00:00:00 12.32847 C 9.2 g/m*3 12.33 C 7.67813 km/h
1565 09-05-2014 00:00:00 15.33403 C 9.3 g/m*3 15.33 C 12.70556 km/h
1566 10-05-2014 00:00:00 12.40903 C 8.93 g/m*3 12.41 C 6.08507 km/h
1567 11-05-2014 00:00:00 11.45764 C 8.26 g/m*3 11.46 C 10.28576 km/h
1568 12-05-2014 00:00:00 11.1941 C 7.59 g/m*3 11.19 C 10.12257 km/h
1569 13-05-2014 00:00:00 10.30729 C 8.18 g/m*3 10.31 C 4.77569 km/h
1570 14-05-2014 00:00:00 10.63542 C 7.53 g/m*3 10.17 C 6.11493 km/h
1571 15-05-2014 00:00:00 10.00382 C 7.56 g/m*3 9.61 C 5.49063 km/h
1572 16-05-2014 00:00:00 13.25347 C 8.42 g/m*3 13.25 C 5.19688 km/h
1573 17-05-2014 00:00:00 14.22292 C 8.77 g/m*3 14.22 C 3.88333 km/h
1574 18-05-2014 00:00:00 15.4809 C 9.81 g/m*3 15.48 C 1.92535 km/h
1575 19-05-2014 00:00:00 17.57188 C 10.58 g/m*3 17.57 C 2.8941 km/h
Sensor: Nr:Datum:Temp:Abs-Feuchte:Windchill:Wind:
Aussen-T/F 1576 20-05-2014 00:00:00 19.46562 C 11.28 g/m*3 19.47 C 3.35313 km/h
1577 21-05-2014 00:00:00 20.29792 C 11.98 g/m*3 20.3 C 2.18715 km/h
1578 22-05-2014 00:00:00 20.21806 C 11.51 g/m*3 20.22 C 4.67361 km/h
1579 23-05-2014 00:00:00 15.52639 C 11.87 g/m*3 15.53 C 1.81319 km/h
1580 24-05-2014 00:00:00 14.72993 C 10.24 g/m*3 14.73 C 5.49754 km/h
1581 25-05-2014 00:00:00 15.25071 C 9.75 g/m*3 15.25 C 2.37411 km/h
1582 26-05-2014 00:00:00 16.8625 C 11.52 g/m*3 16.86 C 2.50868 km/h
1583 27-05-2014 00:00:00 15.19431 C 12.29 g/m*3 15.19 C 2.46682 km/h
1584 28-05-2014 00:00:00 14.58118 C 11.05 g/m*3 14.58 C 0.88824 km/h
1585 29-05-2014 00:00:00 13.44653 C 10.15 g/m*3 13.45 C 4.20903 km/h
1586 30-05-2014 00:00:00 13.2316 C 8.1 g/m*3 13.23 C 6.4316 km/h
1587 31-05-2014 00:00:00 13.40382 C 8.63 g/m*3 13.4 C 2.3309 km/h
1588 01-06-2014 00:00:00 15.49273 C 9.2 g/m*3 15.49 C 3.79127 km/h
1589 02-06-2014 00:00:00 15.88943 C 9.2 g/m*3 15.89 C 2.67439 km/h
1590 03-06-2014 00:00:00 15.78662 C 10.07 g/m*3 15.79 C 1.66056 km/h
1591 04-06-2014 00:00:00 14.95388 C 11.05 g/m*3 14.95 C 1.76849 km/h
1592 05-06-2014 00:00:00 14.55765 C 8.46 g/m*3 14.56 C 9.30569 km/h
1593 06-06-2014 00:00:00 17.20312 C 9.93 g/m*3 17.2 C 3.06146 km/h
1594 07-06-2014 00:00:00 20.77257 C 13.08 g/m*3 20.77 C 1.46146 km/h
1595 08-06-2014 00:00:00 24.09514 C 15.47 g/m*3 24.1 C 2.65521 km/h
1596 09-06-2014 00:00:00 25.74583 C 16.79 g/m*3 25.75 C 4.57083 km/h
1597 10-06-2014 00:00:00 23.66632 C 15.08 g/m*3 23.67 C 3.61215 km/h
1598 11-06-2014 00:00:00 20.10803 C 14.14 g/m*3 20.11 C 5.28102 km/h
1599 12-06-2014 00:00:00 19.97431 C 11.47 g/m*3 19.97 C 4.63438 km/h
1600 13-06-2014 00:00:00 18.37014 C 10.7 g/m*3 18.37 C 4.99757 km/h
Sensor: Nr:Datum:Temp:Abs-Feuchte:Windchill:Wind:
Aussen-T/F 1601 14-06-2014 00:00:00 17.27465 C 9.64 g/m*3 17.27 C 7.26875 km/h
1602 15-06-2014 00:00:00 16.86944 C 9.65 g/m*3 16.87 C 5.57049 km/h
1603 16-06-2014 00:00:00 15.61944 C 9.95 g/m*3 15.62 C 6.2309 km/h
1604 17-06-2014 00:00:00 17.41354 C 9.92 g/m*3 17.41 C 6.95347 km/h
1605 18-06-2014 00:00:00 17.76319 C 10.83 g/m*3 17.76 C 5.95417 km/h
1606 19-06-2014 00:00:00 15.70791 C 10.11 g/m*3 15.71 C 5.81691 km/h
1607 20-06-2014 00:00:00 15.64143 C 9.49 g/m*3 15.64 C 6.86381 km/h
1608 21-06-2014 00:00:00 16.62118 C 9.28 g/m*3 16.62 C 5.44514 km/h
1609 22-06-2014 00:00:00 16.62782 C 9.39 g/m*3 16.63 C 5.3662 km/h
1610 23-06-2014 00:00:00 17.14792 C 9.52 g/m*3 17.15 C 4.6941 km/h
1611 24-06-2014 00:00:00 16.64978 C 10.15 g/m*3 16.65 C 2.66407 km/h
1612 25-06-2014 00:00:00 17.29096 C 8.33 g/m*3 17.29 C 9.59947 km/h
1613 26-06-2014 00:00:00 16.18958 C 8.83 g/m*3 16.19 C 3.23472 km/h
1614 27-06-2014 00:00:00 17.54167 C 10.05 g/m*3 17.54 C 3.84826 km/h
1615 28-06-2014 00:00:00 16.28043 C 12.11 g/m*3 16.28 C 1.90569 km/h
1616 29-06-2014 00:00:00 14.67192 C 11.73 g/m*3 14.67 C 1.98424 km/h
1617 30-06-2014 00:00:00 16.05247 C 10.28 g/m*3 16.05 C 6.02776 km/h
1618 01-07-2014 00:00:00 15.65035 C 9.38 g/m*3 15.65 C 3.29549 km/h
1619 02-07-2014 00:00:00 16.86146 C 9.4 g/m*3 16.86 C 3.72083 km/h
1620 03-07-2014 00:00:00 19.78889 C 10.18 g/m*3 19.79 C 4.38785 km/h
1621 04-07-2014 00:00:00 20.36076 C 11.92 g/m*3 20.36 C 1.91875 km/h
1622 05-07-2014 00:00:00 20.4 C 13.68 g/m*3 20.4 C 6.05158 km/h
1623 06-07-2014 00:00:00 23.48509 C 14.74 g/m*3 23.49 C 5.89964 km/h
1624 07-07-2014 00:00:00 19.86367 C 11.11 g/m*3 19.86 C 4.52097 km/h
1625 08-07-2014 00:00:00 15.57633 C 11.94 g/m*3 15.58 C 5.36327 km/h
Sensor: Nr:Datum:Temp:Abs-Feuchte:Windchill:Wind:
Aussen-T/F 1626 09-07-2014 00:00:00 12.97083 C 10.77 g/m*3 12.97 C 4.775 km/h
1627 10-07-2014 00:00:00 17.68292 C 13.6 g/m*3 17.68 C 2.85417 km/h
1628 11-07-2014 00:00:00 18.42369 C 13.96 g/m*3 18.42 C 3.65422 km/h
1629 12-07-2014 00:00:00 18.68363 C 14.09 g/m*3 18.68 C 4.63363 km/h
1630 13-07-2014 00:00:00 19.06941 C 14.01 g/m*3 19.07 C 6.10196 km/h
1631 14-07-2014 00:00:00 19.60206 C 13.42 g/m*3 19.6 C 5.52675 km/h
1632 15-07-2014 00:00:00 21.3216 C 13.19 g/m*3 21.32 C 5.04742 km/h
1633 16-07-2014 00:00:00 21.88732 C 14.44 g/m*3 21.89 C 2.04537 km/h
1634 17-07-2014 00:00:00 23.77903 C 15.1 g/m*3 23.78 C 2.03468 km/h
1635 18-07-2014 00:00:00 24.87935 C 14.98 g/m*3 24.88 C 2.81097 km/h
1636 19-07-2014 00:00:00 27.76989 C 15.68 g/m*3 27.77 C 3.57688 km/h
1637 20-07-2014 00:00:00 22.68715 C 16.29 g/m*3 22.69 C 1.59931 km/h
1638 21-07-2014 00:00:00 20.29965 C 16.02 g/m*3 20.3 C 3.7191 km/h
1639 22-07-2014 00:00:00 23.6856 C 17.54 g/m*3 23.69 C 5.41317 km/h
1640 23-07-2014 00:00:00 23.11788 C 15.29 g/m*3 23.12 C 2.8635 km/h
1641 24-07-2014 00:00:00 20.63922 C 13.19 g/m*3 20.64 C 3.30784 km/h
1642 25-07-2014 00:00:00 21.8193 C 14.02 g/m*3 21.82 C 3.15848 km/h
1643 26-07-2014 00:00:00 21.92 C 14.36 g/m*3 21.92 C 3.75806 km/h
1644 27-07-2014 00:00:00 19.66694 C 14.23 g/m*3 19.67 C 2.08512 km/h
1645 28-07-2014 00:00:00 22.3284 C 15.6 g/m*3 22.33 C 4.24321 km/h
1646 29-07-2014 00:00:00 19.88194 C 16.44 g/m*3 19.88 C 0.91771 km/h
1647 30-07-2014 00:00:00 19.93194 C 14.7 g/m*3 19.93 C 5.88438 km/h
1648 31-07-2014 00:00:00 20.20645 C 13.48 g/m*3 20.21 C 1.73513 km/h
1649 01-08-2014 00:00:00 20.08438 C 14.19 g/m*3 20.08 C 0.76042 km/h
1650 02-08-2014 00:00:00 20.10868 C 14.75 g/m*3 20.11 C 0.96944 km/h
Sensor: Nr:Datum:Temp:Abs-Feuchte:Windchill:Wind:
Aussen-T/F 1651 03-08-2014 00:00:00 21.3566 C 15.2 g/m*3 21.36 C 2.01632 km/h
1652 04-08-2014 00:00:00 19.00347 C 14.11 g/m*3 19 C 2.36493 km/h
1653 05-08-2014 00:00:00 18.77049 C 13.19 g/m*3 18.77 C 1.79063 km/h
1654 06-08-2014 00:00:00 17.59618 C 12.66 g/m*3 17.6 C 1.78924 km/h
1655 07-08-2014 00:00:00 18.9934 C 13.98 g/m*3 18.99 C 1.84549 km/h
1656 08-08-2014 00:00:00 18.87604 C 14.49 g/m*3 18.88 C 1.41354 km/h
1657 09-08-2014 00:00:00 20.16771 C 14.07 g/m*3 20.17 C 6.40486 km/h
1658 10-08-2014 00:00:00 19.0125 C 14.68 g/m*3 19.01 C 1.77639 km/h
1659 11-08-2014 00:00:00 17.0066 C 11.73 g/m*3 17.01 C 5.37257 km/h
1660 12-08-2014 00:00:00 17.62431 C 10.84 g/m*3 17.62 C 7.26389 km/h
1661 13-08-2014 00:00:00 15.97674 C 12.2 g/m*3 15.98 C 0.91528 km/h
1662 14-08-2014 00:00:00 16.15426 C 11.6 g/m*3 16.15 C 5.25355 km/h
1663 15-08-2014 00:00:00 14.48638 C 11.45 g/m*3 14.49 C 1.15591 km/h
1664 16-08-2014 00:00:00 15.13439 C 11.56 g/m*3 15.13 C 2.57053 km/h
1665 17-08-2014 00:00:00 16.14062 C 10.65 g/m*3 16.14 C 6.93576 km/h
1666 18-08-2014 00:00:00 16.30417 C 10.34 g/m*3 16.3 C 8.74306 km/h
1667 19-08-2014 00:00:00 13.79653 C 9.94 g/m*3 13.8 C 5.50104 km/h
1668 20-08-2014 00:00:00 12.68681 C 9.24 g/m*3 12.69 C 1.13785 km/h
1669 21-08-2014 00:00:00 12.84653 C 9.32 g/m*3 12.85 C 1.84132 km/h
1670 22-08-2014 00:00:00 14.04062 C 9.49 g/m*3 14.04 C 3.62569 km/h
1671 23-08-2014 00:00:00 14.26875 C 10.22 g/m*3 14.27 C 4.75104 km/h
1672 24-08-2014 00:00:00 11.58993 C 9.69 g/m*3 11.59 C 3.00938 km/h
1673 25-08-2014 00:00:00 13.23854 C 10.79 g/m*3 13.24 C 1.33646 km/h
1674 26-08-2014 00:00:00 14.79479 C 12.27 g/m*3 14.79 C 0.90139 km/h
1675 27-08-2014 00:00:00 15.38741 C 11.99 g/m*3 15.39 C 0.95647 km/h
Sensor: Nr:Datum:Temp:Abs-Feuchte:Windchill:Wind:
Aussen-T/F 1676 28-08-2014 00:00:00 15.84062 C 12.56 g/m*3 15.84 C 0.51181 km/h
1677 29-08-2014 00:00:00 18.05278 C 13.67 g/m*3 18.05 C 2.29792 km/h
1678 30-08-2014 00:00:00 16.23299 C 12.57 g/m*3 16.23 C 2.61076 km/h
1679 31-08-2014 00:00:00 14.70069 C 11.69 g/m*3 14.7 C 1.51493 km/h
1680 01-09-2014 00:00:00 14.60556 C 11.45 g/m*3 14.61 C 1.21285 km/h
1681 02-09-2014 00:00:00 14.6191 C 11.36 g/m*3 14.62 C 1.05625 km/h
1682 03-09-2014 00:00:00 15.03299 C 11.56 g/m*3 15.03 C 1.81111 km/h
1683 04-09-2014 00:00:00 16.74028 C 12.78 g/m*3 16.74 C 1.52813 km/h
1684 05-09-2014 00:00:00 18.15903 C 14.17 g/m*3 18.16 C 0 km/h
1685 06-09-2014 00:00:00 17.4559 C 13.79 g/m*3 17.46 C 0.1 km/h
1686 07-09-2014 00:00:00 18.08889 C 13.61 g/m*3 18.09 C 1.75211 km/h
1687 08-09-2014 00:00:00 17.83403 C 12.79 g/m*3 17.83 C 1.96528 km/h
1688 09-09-2014 00:00:00 15.64965 C 10.86 g/m*3 15.65 C 2.73125 km/h
1689 10-09-2014 00:00:00 14.27882 C 10.23 g/m*3 14.28 C 3.28021 km/h
1690 11-09-2014 00:00:00 14.96111 C 10.63 g/m*3 14.96 C 3.87813 km/h
1691 12-09-2014 00:00:00 14.12153 C 10.3 g/m*3 14.12 C 4.47813 km/h
1692 13-09-2014 00:00:00 16.12118 C 12.18 g/m*3 16.12 C 2.54861 km/h
1693 14-09-2014 00:00:00 16.65196 C 12.48 g/m*3 16.65 C 0.83701 km/h
1694 15-09-2014 00:00:00 16.079 C 12.53 g/m*3 16.08 C 1.20427 km/h
1695 16-09-2014 00:00:00 16.93264 C 12.99 g/m*3 16.93 C 1.58993 km/h
1696 17-09-2014 00:00:00 16.05139 C 12.6 g/m*3 16.05 C 0.34549 km/h
1697 18-09-2014 00:00:00 17.4875 C 14.25 g/m*3 17.49 C 0.12222 km/h
1698 19-09-2014 00:00:00 18.38993 C 14.98 g/m*3 18.39 C 0.84271 km/h
1699 20-09-2014 00:00:00 17.14931 C 14.08 g/m*3 17.15 C 0.35035 km/h
1700 21-09-2014 00:00:00 15.46146 C 12.57 g/m*3 15.46 C 2.04618 km/h
Sensor: Nr:Datum:Temp:Abs-Feuchte:Windchill:Wind:
Aussen-T/F 1701 22-09-2014 00:00:00 12.53194 C 9.51 g/m*3 12.53 C 4.61667 km/h
1702 23-09-2014 00:00:00 9.91146 C 8.49 g/m*3 9.91 C 0.53438 km/h
1703 24-09-2014 00:00:00 11.10451 C 9.05 g/m*3 11.1 C 0.55208 km/h
1704 25-09-2014 00:00:00 13.67917 C 10.13 g/m*3 13.68 C 2.68299 km/h
1705 26-09-2014 00:00:00 14.24896 C 10.9 g/m*3 14.25 C 2.4566 km/h
1706 27-09-2014 00:00:00 15.59965 C 12.14 g/m*3 15.6 C 0.13924 km/h
1707 28-09-2014 00:00:00 14.22743 C 11.63 g/m*3 14.23 C 0.33889 km/h
1708 29-09-2014 00:00:00 15.41493 C 12.47 g/m*3 15.41 C 0.34479 km/h
1709 30-09-2014 00:00:00 16.83438 C 13.35 g/m*3 16.83 C 1.14063 km/h
1710 01-10-2014 00:00:00 15.87778 C 12.8 g/m*3 15.88 C 0 km/h
1711 02-10-2014 00:00:00 14.35799 C 11.8 g/m*3 14.36 C 0 km/h
1712 03-10-2014 00:00:00 13.73785 C 11.32 g/m*3 13.74 C 0.07257 km/h
1713 04-10-2014 00:00:00 12.86979 C 10.48 g/m*3 12.87 C 0.20069 km/h
1714 05-10-2014 00:00:00 12.94097 C 10.63 g/m*3 12.94 C 1.02431 km/h
1715 06-10-2014 00:00:00 14.3 C 11.1 g/m*3 14.3 C 2.03299 km/h
1716 07-10-2014 00:00:00 13.71806 C 10.94 g/m*3 13.72 C 4.47847 km/h
1717 08-10-2014 00:00:00 13.3 C 11.28 g/m*3 13.3 C 0.23817 km/h
1718 09-10-2014 00:00:00 15.17173 C 12.66 g/m*3 15.17 C 1.5644 km/h
1719 10-10-2014 00:00:00 14.20902 C 11.78 g/m*3 14.21 C 0.24471 km/h
1720 11-10-2014 00:00:00 14.77847 C 12.15 g/m*3 14.78 C 0.47778 km/h
1721 12-10-2014 00:00:00 12.52744 C 10.53 g/m*3 12.53 C 1.45379 km/h
1722 13-10-2014 00:00:00 14.72014 C 12.2 g/m*3 14.72 C 0.59097 km/h
1723 14-10-2014 00:00:00 12.54495 C 10.49 g/m*3 12.54 C 0.69443 km/h
1724 15-10-2014 00:00:00 11.65639 C 9.95 g/m*3 11.66 C 1.30827 km/h
1725 16-10-2014 00:00:00 14.02682 C 11.48 g/m*3 14.03 C 1.30591 km/h
Sensor: Nr:Datum:Temp:Abs-Feuchte:Windchill:Wind:
Aussen-T/F 1726 17-10-2014 00:00:00 14.05977 C 11.35 g/m*3 14.06 C 2.25785 km/h
1727 18-10-2014 00:00:00 12.49887 C 10.74 g/m*3 12.5 C 0.15094 km/h
1728 19-10-2014 00:00:00 15.09722 C 11.96 g/m*3 15.1 C 4.15972 km/h
1729 20-10-2014 00:00:00 15.06015 C 10.81 g/m*3 15.06 C 3.74023 km/h
1730 21-10-2014 00:00:00 11.78491 C 8.95 g/m*3 11.78 C 9.22526 km/h
1731 22-10-2014 00:00:00 8.88438 C 7.46 g/m*3 6.97 C 11.95208 km/h
1732 23-10-2014 00:00:00 10.3816 C 8.47 g/m*3 10.38 C 2.97708 km/h
1733 24-10-2014 00:00:00 10.59097 C 8.81 g/m*3 10.59 C 0.78993 km/h
1734 25-10-2014 00:00:00 11.53056 C 9.78 g/m*3 11.53 C 1.85972 km/h
1735 26-10-2014 00:00:00 11.35625 C 9.78 g/m*3 11.36 C 0.49444 km/h
1736 27-10-2014 00:00:00 9.22813 C 8.6 g/m*3 9.23 C 1.15104 km/h
1737 28-10-2014 00:00:00 7.93681 C 7.28 g/m*3 7.94 C 2.42257 km/h
1738 29-10-2014 00:00:00 9.50556 C 8.33 g/m*3 9.51 C 1.58542 km/h
1739 30-10-2014 00:00:00 12.10625 C 10.39 g/m*3 12.11 C 0.08333 km/h
1740 31-10-2014 00:00:00 12.05903 C 10.38 g/m*3 12.06 C 0.10556 km/h
1741 01-11-2014 00:00:00 10.92674 C 9.79 g/m*3 10.93 C 0.10556 km/h
1742 02-11-2014 00:00:00 11.24448 C 9.89 g/m*3 11.24 C 0.34733 km/h
1743 03-11-2014 00:00:00 13.84028 C 10.77 g/m*3 13.84 C 3.79201 km/h
1744 04-11-2014 00:00:00 11.22049 C 9.8 g/m*3 11.22 C 1.27153 km/h
1745 05-11-2014 00:00:00 9.33229 C 8.58 g/m*3 9.33 C 1.61389 km/h
1746 06-11-2014 00:00:00 6.59514 C 6.99 g/m*3 6.6 C 1.97014 km/h
1747 07-11-2014 00:00:00 5.60208 C 6.7 g/m*3 5.6 C 1.42326 km/h
1748 08-11-2014 00:00:00 8.8941 C 8.01 g/m*3 8.89 C 2.15833 km/h
1749 09-11-2014 00:00:00 6.62257 C 7.32 g/m*3 6.62 C 0.41111 km/h
1750 10-11-2014 00:00:00 8.76389 C 8.37 g/m*3 8.76 C 0.73333 km/h
Sensor: Nr:Datum:Temp:Abs-Feuchte:Windchill:Wind:
Aussen-T/F 1751 11-11-2014 00:00:00 8.47553 C 8.1 g/m*3 8.48 C 1.41135 km/h
1752 12-11-2014 00:00:00 9.50104 C 8.67 g/m*3 9.5 C 0.42778 km/h
1753 13-11-2014 00:00:00 9.66736 C 8.89 g/m*3 9.67 C 1.50417 km/h
1754 14-11-2014 00:00:00 10.60174 C 8.79 g/m*3 10.6 C 2.44688 km/h
1755 15-11-2014 00:00:00 9.75938 C 8.75 g/m*3 9.76 C 1.73472 km/h
1756 16-11-2014 00:00:00 8.75674 C 8.46 g/m*3 8.76 C 0.54468 km/h
1757 17-11-2014 00:00:00 8.71146 C 8.45 g/m*3 8.71 C 1.41667 km/h
1758 18-11-2014 00:00:00 8.62491 C 8.33 g/m*3 8.62 C 0.74021 km/h
1759 19-11-2014 00:00:00 8.07465 C 7.97 g/m*3 8.07 C 0.95 km/h
1760 20-11-2014 00:00:00 6.45486 C 7.07 g/m*3 6.45 C 1.16215 km/h
1761 21-11-2014 00:00:00 5.36458 C 6.62 g/m*3 5.36 C 2.12778 km/h
1762 22-11-2014 00:00:00 5.83576 C 6.88 g/m*3 5.84 C 1.56736 km/h
1763 23-11-2014 00:00:00 6.30104 C 7.18 g/m*3 6.3 C 1.04549 km/h
1764 24-11-2014 00:00:00 7.36679 C 7.51 g/m*3 7.37 C 2.53875 km/h
1765 25-11-2014 00:00:00 3.04781 C 5.83 g/m*3 3.05 C 1.32669 km/h
1766 26-11-2014 00:00:00 5.29848 C 6.22 g/m*3 5.3 C 1.90985 km/h
1767 27-11-2014 00:00:00 5.85447 C 6.68 g/m*3 5.85 C 0.76576 km/h
1768 28-11-2014 00:00:00 5.42203 C 6.42 g/m*3 5.42 C 2.77881 km/h
1769 29-11-2014 00:00:00 4.46596 C 5.86 g/m*3 4.47 C 3.27684 km/h
1770 30-11-2014 00:00:00 3.88993 C 5.8 g/m*3 3.89 C 2.0684 km/h
1771 01-12-2014 00:00:00 3.33299 C 5.54 g/m*3 3.33 C 4.97847 km/h
1772 02-12-2014 00:00:00 1.63731 C 4.95 g/m*3 1.64 C 1.81769 km/h
1773 03-12-2014 00:00:00 1.74095 C 5.13 g/m*3 1.74 C 0.64828 km/h
1774 04-12-2014 00:00:00 2.32917 C 5.27 g/m*3 2.33 C 0.57778 km/h
1775 05-12-2014 00:00:00 4.15278 C 5.96 g/m*3 4.15 C 1.1 km/h
Sensor: Nr:Datum:Temp:Abs-Feuchte:Windchill:Wind:
Aussen-T/F 1776 06-12-2014 00:00:00 4.51389 C 6.25 g/m*3 4.51 C 1.02222 km/h
1777 07-12-2014 00:00:00 4.32049 C 5.99 g/m*3 2.62 C 6.99236 km/h
1778 08-12-2014 00:00:00 3.10625 C 5.58 g/m*3 3.11 C 4.70972 km/h
1779 09-12-2014 00:00:00 2.57569 C 5.57 g/m*3 2.58 C 1.39549 km/h
1780 10-12-2014 00:00:00 4.42118 C 5.88 g/m*3 2.4 C 8.19653 km/h
1781 11-12-2014 00:00:00 6.26736 C 6.63 g/m*3 3.73 C 12.32882 km/h
1782 12-12-2014 00:00:00 9.07951 C 7.61 g/m*3 6.46 C 17.66285 km/h
1783 13-12-2014 00:00:00 4.45625 C 6.32 g/m*3 4.46 C 1.54028 km/h
1784 14-12-2014 00:00:00 2.59063 C 5.59 g/m*3 2.59 C 1.16667 km/h
1785 15-12-2014 00:00:00 3.42986 C 5.74 g/m*3 3.43 C 4.72847 km/h
1786 16-12-2014 00:00:00 6.12049 C 6.72 g/m*3 6.12 C 4.44201 km/h
1787 17-12-2014 00:00:00 6.08021 C 6.74 g/m*3 4.16 C 9.02778 km/h
1788 18-12-2014 00:00:00 11.91597 C 9.57 g/m*3 11.92 C 11.55764 km/h
1789 19-12-2014 00:00:00 10.45243 C 8.4 g/m*3 8.16 C 17.81979 km/h
1790 20-12-2014 00:00:00 5.90764 C 6.17 g/m*3 3.42 C 11.65868 km/h
1791 21-12-2014 00:00:00 6.41042 C 6.57 g/m*3 4.33 C 10.07639 km/h
1792 22-12-2014 00:00:00 8.375 C 7.41 g/m*3 5.47 C 18.66424 km/h
1793 23-12-2014 00:00:00 10.04444 C 8.07 g/m*3 8.35 C 12.13444 km/h
1794 24-12-2014 00:00:00 8.3214 C 7.27 g/m*3 5.8 C 15.37439 km/h
1795 25-12-2014 00:00:00 5.2875 C 5.93 g/m*3 3.5 C 7.90134 km/h
1796 26-12-2014 00:00:00 2.31469 C 5.51 g/m*3 2.31 C 0.73846 km/h
1797 27-12-2014 00:00:00 1.46649 C 5.08 g/m*3 -0.05 C 5.27487 km/h
1798 28-12-2014 00:00:00 -3.09591 C 3.12 g/m*3 -5.63 C 6.10864 km/h
1799 29-12-2014 00:00:00 -0.46157 C 4.21 g/m*3 -2.74 C 6.45746 km/h
1800 30-12-2014 00:00:00 2.6765 C 5.38 g/m*3 2.68 C 2.70656 km/h
Sensor: Nr:Datum:Temp:Abs-Feuchte:Windchill:Wind:
Aussen-T/F 1801 31-12-2014 00:00:00 2.46053 C 5.38 g/m*3 2.46 C 3.36711 km/h
1802 01-01-2015 00:00:00 1.89397 C 5.32 g/m*3 1.89 C 1.90517 km/h
1803 02-01-2015 00:00:00 3.6411 C 5.53 g/m*3 -0.26 C 17.13767 km/h
1804 03-01-2015 00:00:00 1.94125 C 5.24 g/m*3 1.94 C 4.05563 km/h
1805 04-01-2015 00:00:00 2.94172 C 5.55 g/m*3 2.94 C 4.26258 km/h
1806 05-01-2015 00:00:00 -0.02447 C 4.6 g/m*3 -0.02 C 2.20106 km/h
1807 06-01-2015 00:00:00 0.48846 C 4.64 g/m*3 -2.1 C 7.80577 km/h
1808 07-01-2015 00:00:00 2.52604 C 5.32 g/m*3 1.03 C 5.60302 km/h
1809 08-01-2015 00:00:00 6.62222 C 7.01 g/m*3 4.67 C 9.65694 km/h
1810 09-01-2015 00:00:00 9.27879 C 7.71 g/m*3 6.64 C 18.31742 km/h
1811 10-01-2015 00:00:00 13.56872 C 9.75 g/m*3 13.57 C 20.23128 km/h
1812 11-01-2015 00:00:00 5.45068 C 5.34 g/m*3 2.3 C 15.025 km/h
1813 12-01-2015 00:00:00 6.91962 C 6.43 g/m*3 4.05 C 15.49623 km/h
1814 13-01-2015 00:00:00 10.09231 C 7.13 g/m*3 8 C 15.25385 km/h
1815 14-01-2015 00:00:00 5.9911 C 6.14 g/m*3 3.38 C 12.45466 km/h
1816 15-01-2015 00:00:00 10.14352 C 7.22 g/m*3 7.78 C 17.71852 km/h
1817 16-01-2015 00:00:00 6.66424 C 6.7 g/m*3 6.66 C 2.96111 km/h
1818 17-01-2015 00:00:00 3.35174 C 5.57 g/m*3 3.35 C 3.18576 km/h
1819 18-01-2015 00:00:00 1.91111 C 4.67 g/m*3 1.91 C 3.82014 km/h
1820 19-01-2015 00:00:00 0.89028 C 4.6 g/m*3 0.89 C 2.03229 km/h
1821 20-01-2015 00:00:00 0.86285 C 4.67 g/m*3 0.86 C 1.33021 km/h
1822 21-01-2015 00:00:00 -0.0414 C 4.29 g/m*3 -0.04 C 1.65158 km/h
1823 22-01-2015 00:00:00 1.45625 C 4.54 g/m*3 1.46 C 3.13889 km/h

Maximal/Minimal-Werte vom 23.01.2010 - 22.01.2015

Sensor Min Max Avg
Temp
(Aussen-T/F)
-15.3 °C
07-02-2012  08:00:00
36.9 °C
19-08-2012  16:30:00
10.65 °C
Abs-Feuchte
(Aussen-T/F)
1.51 g/m*3
02-02-2012  00:00:00
18.47 g/m*3
19-06-2013  00:00:00
7.92 g/m*3
Windchill
(Aussen-T/F)
-12.43 C
07-02-2012  00:00:00
29.26 C
10-07-2010  00:00:00
10.48 C

Die Daten stammen von einer Davis Vantage Pro 2 Wetter-Station und werden unter Linux mit der Software wview2wettercgi und aufbereitet. Alle Angaben erfolgen ohne Gewähr für ihre Vollständigkeit oder Richtigkeit.
Kontakt: Rainer Krienke krienke@uni-koblenz.de . Meine Webseiten an der Uni Koblenz oder privat.
Version: $Revision: 0.78 $